<?xml version="1.0" encoding="UTF-8"?>
<gpx version="1.1" creator="2bulu-scraper" xmlns="http://www.topografix.com/GPX/1/1">
  <metadata><name>宜宾七星山</name><desc>source: 2bulu.com trackId=82091006; exported 2026-09-01T19:13:42.775Z</desc>
    <bounds minlat="28.7314232" minlon="104.6457759" maxlat="28.7610343" maxlon="104.6727952"/>
    <link href="https://www.2bulu.com/track/t-pvj9sxOg%252B1np%252FR2KBg5Tzw%253D%253D.htm"><text>2bulu 源页面</text></link>
  </metadata>
  <wpt lat="28.746902" lon="104.6663012"><ele>602</ele><name>
        </name></wpt>
  <wpt lat="28.747358" lon="104.665991"><ele>594</ele><name>
        </name></wpt>
  <wpt lat="28.7472287" lon="104.6680902"><ele>550</ele><name>
        </name></wpt>
  <wpt lat="28.7434714" lon="104.6638783"><ele>551</ele><name>
        </name></wpt>
  <wpt lat="28.7427044" lon="104.6604604"><ele>583</ele><name>
        </name></wpt>
  <wpt lat="28.7406128" lon="104.6607997"><ele>597</ele><name>
        </name></wpt>
  <wpt lat="28.7374002" lon="104.6577312"><ele>584</ele><name>
        </name></wpt>
  <wpt lat="28.7375759" lon="104.6579419"><ele>580</ele><name>
        </name></wpt>
  <wpt lat="28.7369846" lon="104.6576295"><ele>606</ele><name>
        </name></wpt>
  <wpt lat="28.7358424" lon="104.6580853"><ele>630</ele><name>
        </name></wpt>
  <wpt lat="28.7352813" lon="104.6573374"><ele>634</ele><name>
        </name></wpt>
  <wpt lat="28.7351821" lon="104.657344"><ele>637</ele><name>
        </name></wpt>
  <wpt lat="28.734834" lon="104.6574929"><ele>636</ele><name>
        </name></wpt>
  <wpt lat="28.7341404" lon="104.6571529"><ele>631</ele><name>
        </name></wpt>
  <wpt lat="28.7336853" lon="104.6568781"><ele>650</ele><name>
        </name></wpt>
  <wpt lat="28.7319637" lon="104.6528279"><ele>628</ele><name>
        </name></wpt>
  <wpt lat="28.7320514" lon="104.6528267"><ele>621</ele><name>
        </name></wpt>
  <wpt lat="28.7346426" lon="104.6550034"><ele>606</ele><name>
        </name></wpt>
  <wpt lat="28.7446006" lon="104.6514813"><ele>287</ele><name>
        </name></wpt>
  <trk><name>宜宾七星山</name>
      <trkseg>
        <trkpt lat="28.7610343" lon="104.6727952"><ele>298.87</ele><time>2026-04-10T20:14:39.000Z</time></trkpt>
        <trkpt lat="28.7609648" lon="104.6727652"><ele>298.87</ele><time>2026-04-10T20:14:55.000Z</time></trkpt>
        <trkpt lat="28.7608889" lon="104.67269"><ele>291.86</ele><time>2026-04-10T20:15:05.000Z</time></trkpt>
        <trkpt lat="28.7608171" lon="104.6726061"><ele>288.64</ele><time>2026-04-10T20:15:15.000Z</time></trkpt>
        <trkpt lat="28.760758" lon="104.6724993"><ele>287.07</ele><time>2026-04-10T20:15:27.000Z</time></trkpt>
        <trkpt lat="28.7606931" lon="104.6723967"><ele>286.3</ele><time>2026-04-10T20:15:37.000Z</time></trkpt>
        <trkpt lat="28.7606287" lon="104.6722964"><ele>286.19</ele><time>2026-04-10T20:15:47.000Z</time></trkpt>
        <trkpt lat="28.7605701" lon="104.6721956"><ele>286.96</ele><time>2026-04-10T20:15:57.000Z</time></trkpt>
        <trkpt lat="28.7605115" lon="104.6721092"><ele>288.91</ele><time>2026-04-10T20:16:07.000Z</time></trkpt>
        <trkpt lat="28.7604596" lon="104.6720069"><ele>289.66</ele><time>2026-04-10T20:16:23.000Z</time></trkpt>
        <trkpt lat="28.7604156" lon="104.6718941"><ele>291.24</ele><time>2026-04-10T20:16:33.000Z</time></trkpt>
        <trkpt lat="28.7603804" lon="104.67179"><ele>292.26</ele><time>2026-04-10T20:16:43.000Z</time></trkpt>
        <trkpt lat="28.7603772" lon="104.6717653"><ele>294.5</ele><time>2026-04-10T20:16:45.000Z</time></trkpt>
        <trkpt lat="28.7603165" lon="104.671722"><ele>295.62</ele><time>2026-04-10T20:18:37.000Z</time></trkpt>
        <trkpt lat="28.7602443" lon="104.6716578"><ele>297.5</ele><time>2026-04-10T20:18:49.000Z</time></trkpt>
        <trkpt lat="28.7601839" lon="104.6715698"><ele>298.37</ele><time>2026-04-10T20:19:01.000Z</time></trkpt>
        <trkpt lat="28.7601121" lon="104.6714948"><ele>298.81</ele><time>2026-04-10T20:19:11.000Z</time></trkpt>
        <trkpt lat="28.7600316" lon="104.671423"><ele>299.37</ele><time>2026-04-10T20:19:21.000Z</time></trkpt>
        <trkpt lat="28.7599641" lon="104.671346"><ele>300.36</ele><time>2026-04-10T20:19:31.000Z</time></trkpt>
        <trkpt lat="28.7599075" lon="104.6712622"><ele>301.82</ele><time>2026-04-10T20:19:43.000Z</time></trkpt>
        <trkpt lat="28.7598425" lon="104.6711811"><ele>304.33</ele><time>2026-04-10T20:19:57.000Z</time></trkpt>
        <trkpt lat="28.7597777" lon="104.6710938"><ele>306.83</ele><time>2026-04-10T20:20:09.000Z</time></trkpt>
        <trkpt lat="28.7596945" lon="104.6710433"><ele>309.46</ele><time>2026-04-10T20:20:23.000Z</time></trkpt>
        <trkpt lat="28.7596073" lon="104.671001"><ele>311.51</ele><time>2026-04-10T20:20:35.000Z</time></trkpt>
        <trkpt lat="28.7595331" lon="104.6709371"><ele>313.86</ele><time>2026-04-10T20:20:51.000Z</time></trkpt>
        <trkpt lat="28.7594411" lon="104.6708978"><ele>316.68</ele><time>2026-04-10T20:21:07.000Z</time></trkpt>
        <trkpt lat="28.7593497" lon="104.6708632"><ele>319.67</ele><time>2026-04-10T20:21:19.000Z</time></trkpt>
        <trkpt lat="28.7592667" lon="104.6708016"><ele>321.57</ele><time>2026-04-10T20:21:31.000Z</time></trkpt>
        <trkpt lat="28.7592193" lon="104.6708602"><ele>323.36</ele><time>2026-04-10T20:21:47.000Z</time></trkpt>
        <trkpt lat="28.7592144" lon="104.6709687"><ele>324.28</ele><time>2026-04-10T20:21:59.000Z</time></trkpt>
        <trkpt lat="28.7592699" lon="104.6710641"><ele>325.88</ele><time>2026-04-10T20:22:17.000Z</time></trkpt>
        <trkpt lat="28.7593264" lon="104.6711747"><ele>328.17</ele><time>2026-04-10T20:22:31.000Z</time></trkpt>
        <trkpt lat="28.759387" lon="104.6712763"><ele>329.2</ele><time>2026-04-10T20:22:41.000Z</time></trkpt>
        <trkpt lat="28.7594399" lon="104.6713725"><ele>329.51</ele><time>2026-04-10T20:22:49.000Z</time></trkpt>
        <trkpt lat="28.7595004" lon="104.6714664"><ele>330.15</ele><time>2026-04-10T20:22:59.000Z</time></trkpt>
        <trkpt lat="28.7595426" lon="104.6715702"><ele>330.89</ele><time>2026-04-10T20:23:11.000Z</time></trkpt>
        <trkpt lat="28.7595278" lon="104.6716775"><ele>331.45</ele><time>2026-04-10T20:23:23.000Z</time></trkpt>
        <trkpt lat="28.7594399" lon="104.6716984"><ele>332.62</ele><time>2026-04-10T20:23:35.000Z</time></trkpt>
        <trkpt lat="28.7593526" lon="104.6716349"><ele>333.73</ele><time>2026-04-10T20:23:47.000Z</time></trkpt>
        <trkpt lat="28.7592936" lon="104.6715341"><ele>334.56</ele><time>2026-04-10T20:23:57.000Z</time></trkpt>
        <trkpt lat="28.7592303" lon="104.6714188"><ele>334.23</ele><time>2026-04-10T20:24:09.000Z</time></trkpt>
        <trkpt lat="28.7591536" lon="104.671323"><ele>335.32</ele><time>2026-04-10T20:24:19.000Z</time></trkpt>
        <trkpt lat="28.759097" lon="104.6712122"><ele>335.5</ele><time>2026-04-10T20:24:31.000Z</time></trkpt>
        <trkpt lat="28.7590367" lon="104.6711103"><ele>336.29</ele><time>2026-04-10T20:24:43.000Z</time></trkpt>
        <trkpt lat="28.758981" lon="104.6710211"><ele>336.65</ele><time>2026-04-10T20:24:53.000Z</time></trkpt>
        <trkpt lat="28.7589142" lon="104.6709435"><ele>337.82</ele><time>2026-04-10T20:27:34.000Z</time></trkpt>
        <trkpt lat="28.7588428" lon="104.6708623"><ele>338.56</ele><time>2026-04-10T20:27:46.000Z</time></trkpt>
        <trkpt lat="28.758775" lon="104.6707787"><ele>339.51</ele><time>2026-04-10T20:27:58.000Z</time></trkpt>
        <trkpt lat="28.7587124" lon="104.670689"><ele>341.03</ele><time>2026-04-10T20:28:12.000Z</time></trkpt>
        <trkpt lat="28.7586473" lon="104.6706074"><ele>340.47</ele><time>2026-04-10T20:28:22.000Z</time></trkpt>
        <trkpt lat="28.7585775" lon="104.6705219"><ele>341.33</ele><time>2026-04-10T20:28:34.000Z</time></trkpt>
        <trkpt lat="28.7585158" lon="104.6704409"><ele>341.97</ele><time>2026-04-10T20:28:44.000Z</time></trkpt>
        <trkpt lat="28.7584428" lon="104.6703633"><ele>342.26</ele><time>2026-04-10T20:28:56.000Z</time></trkpt>
        <trkpt lat="28.758369" lon="104.6702921"><ele>341.75</ele><time>2026-04-10T20:29:04.000Z</time></trkpt>
        <trkpt lat="28.7583153" lon="104.6701983"><ele>342.3</ele><time>2026-04-10T20:29:16.000Z</time></trkpt>
        <trkpt lat="28.7582616" lon="104.6701102"><ele>343.74</ele><time>2026-04-10T20:29:26.000Z</time></trkpt>
        <trkpt lat="28.7581939" lon="104.6700233"><ele>345.99</ele><time>2026-04-10T20:29:38.000Z</time></trkpt>
        <trkpt lat="28.7581383" lon="104.6699344"><ele>347.5</ele><time>2026-04-10T20:29:50.000Z</time></trkpt>
        <trkpt lat="28.7580802" lon="104.6698448"><ele>348.95</ele><time>2026-04-10T20:30:02.000Z</time></trkpt>
        <trkpt lat="28.7580153" lon="104.6697702"><ele>350</ele><time>2026-04-10T20:30:12.000Z</time></trkpt>
        <trkpt lat="28.7579501" lon="104.6696989"><ele>350.04</ele><time>2026-04-10T20:30:22.000Z</time></trkpt>
        <trkpt lat="28.7578753" lon="104.6696187"><ele>350.49</ele><time>2026-04-10T20:30:34.000Z</time></trkpt>
        <trkpt lat="28.7578059" lon="104.6695388"><ele>350.12</ele><time>2026-04-10T20:30:44.000Z</time></trkpt>
        <trkpt lat="28.7577406" lon="104.6694589"><ele>351.05</ele><time>2026-04-10T20:30:54.000Z</time></trkpt>
        <trkpt lat="28.757666" lon="104.6693759"><ele>351.66</ele><time>2026-04-10T20:31:06.000Z</time></trkpt>
        <trkpt lat="28.7575878" lon="104.6693058"><ele>352.86</ele><time>2026-04-10T20:31:16.000Z</time></trkpt>
        <trkpt lat="28.7575071" lon="104.6692339"><ele>353.29</ele><time>2026-04-10T20:31:28.000Z</time></trkpt>
        <trkpt lat="28.7574312" lon="104.6691566"><ele>354.37</ele><time>2026-04-10T20:31:38.000Z</time></trkpt>
        <trkpt lat="28.7573575" lon="104.6690839"><ele>354.97</ele><time>2026-04-10T20:31:48.000Z</time></trkpt>
        <trkpt lat="28.7572904" lon="104.6690087"><ele>356.55</ele><time>2026-04-10T20:31:58.000Z</time></trkpt>
        <trkpt lat="28.7572222" lon="104.6689343"><ele>357.36</ele><time>2026-04-10T20:32:08.000Z</time></trkpt>
        <trkpt lat="28.7571498" lon="104.6688534"><ele>357.76</ele><time>2026-04-10T20:32:18.000Z</time></trkpt>
        <trkpt lat="28.7570821" lon="104.6687743"><ele>358.89</ele><time>2026-04-10T20:32:28.000Z</time></trkpt>
        <trkpt lat="28.7570054" lon="104.6686955"><ele>359.33</ele><time>2026-04-10T20:32:38.000Z</time></trkpt>
        <trkpt lat="28.7569388" lon="104.6686139"><ele>358.75</ele><time>2026-04-10T20:32:48.000Z</time></trkpt>
        <trkpt lat="28.7568821" lon="104.6685262"><ele>358.72</ele><time>2026-04-10T20:32:58.000Z</time></trkpt>
        <trkpt lat="28.7568239" lon="104.668427"><ele>358.14</ele><time>2026-04-10T20:33:10.000Z</time></trkpt>
        <trkpt lat="28.7567716" lon="104.6683251"><ele>357.91</ele><time>2026-04-10T20:33:20.000Z</time></trkpt>
        <trkpt lat="28.7567289" lon="104.6682238"><ele>358.19</ele><time>2026-04-10T20:33:30.000Z</time></trkpt>
        <trkpt lat="28.7566933" lon="104.6681183"><ele>358.86</ele><time>2026-04-10T20:33:42.000Z</time></trkpt>
        <trkpt lat="28.7566586" lon="104.6680061"><ele>359.89</ele><time>2026-04-10T20:33:54.000Z</time></trkpt>
        <trkpt lat="28.7566199" lon="104.6679023"><ele>359.9</ele><time>2026-04-10T20:34:04.000Z</time></trkpt>
        <trkpt lat="28.7565759" lon="104.6677969"><ele>359.57</ele><time>2026-04-10T20:34:14.000Z</time></trkpt>
        <trkpt lat="28.7565211" lon="104.6677026"><ele>359.71</ele><time>2026-04-10T20:34:24.000Z</time></trkpt>
        <trkpt lat="28.7564583" lon="104.6676189"><ele>360.07</ele><time>2026-04-10T20:34:34.000Z</time></trkpt>
        <trkpt lat="28.756383" lon="104.6675372"><ele>360.06</ele><time>2026-04-10T20:34:44.000Z</time></trkpt>
        <trkpt lat="28.7562959" lon="104.6674837"><ele>360.23</ele><time>2026-04-10T20:34:56.000Z</time></trkpt>
        <trkpt lat="28.756203" lon="104.6674491"><ele>361.41</ele><time>2026-04-10T20:35:06.000Z</time></trkpt>
        <trkpt lat="28.7560988" lon="104.6674258"><ele>361.6</ele><time>2026-04-10T20:35:18.000Z</time></trkpt>
        <trkpt lat="28.7560053" lon="104.6673984"><ele>363.2</ele><time>2026-04-10T20:35:28.000Z</time></trkpt>
        <trkpt lat="28.7559133" lon="104.6673799"><ele>364.02</ele><time>2026-04-10T20:35:38.000Z</time></trkpt>
        <trkpt lat="28.7558238" lon="104.6673649"><ele>364.59</ele><time>2026-04-10T20:35:48.000Z</time></trkpt>
        <trkpt lat="28.7557343" lon="104.6673458"><ele>364.61</ele><time>2026-04-10T20:35:58.000Z</time></trkpt>
        <trkpt lat="28.7556477" lon="104.6673047"><ele>365.22</ele><time>2026-04-10T20:36:08.000Z</time></trkpt>
        <trkpt lat="28.7555671" lon="104.667239"><ele>367.22</ele><time>2026-04-10T20:36:20.000Z</time></trkpt>
        <trkpt lat="28.7554978" lon="104.6671504"><ele>368.51</ele><time>2026-04-10T20:36:34.000Z</time></trkpt>
        <trkpt lat="28.7554493" lon="104.6670536"><ele>368.36</ele><time>2026-04-10T20:36:46.000Z</time></trkpt>
        <trkpt lat="28.7554225" lon="104.6669492"><ele>367.99</ele><time>2026-04-10T20:36:56.000Z</time></trkpt>
        <trkpt lat="28.7553796" lon="104.6668501"><ele>367.89</ele><time>2026-04-10T20:37:08.000Z</time></trkpt>
        <trkpt lat="28.7553211" lon="104.6667511"><ele>367.39</ele><time>2026-04-10T20:37:20.000Z</time></trkpt>
        <trkpt lat="28.7552425" lon="104.6666921"><ele>368.54</ele><time>2026-04-10T20:37:32.000Z</time></trkpt>
        <trkpt lat="28.755159" lon="104.666724"><ele>368.83</ele><time>2026-04-10T20:37:44.000Z</time></trkpt>
        <trkpt lat="28.7551123" lon="104.6668311"><ele>369.03</ele><time>2026-04-10T20:37:56.000Z</time></trkpt>
        <trkpt lat="28.7551404" lon="104.6669543"><ele>368.97</ele><time>2026-04-10T20:38:08.000Z</time></trkpt>
        <trkpt lat="28.7552029" lon="104.6670726"><ele>369.31</ele><time>2026-04-10T20:38:20.000Z</time></trkpt>
        <trkpt lat="28.7552766" lon="104.6671683"><ele>369.57</ele><time>2026-04-10T20:38:30.000Z</time></trkpt>
        <trkpt lat="28.7553461" lon="104.6672542"><ele>370.58</ele><time>2026-04-10T20:38:40.000Z</time></trkpt>
        <trkpt lat="28.7554179" lon="104.6673262"><ele>370.2</ele><time>2026-04-10T20:38:50.000Z</time></trkpt>
        <trkpt lat="28.7554938" lon="104.6673985"><ele>370.94</ele><time>2026-04-10T20:39:00.000Z</time></trkpt>
        <trkpt lat="28.7555708" lon="104.6674575"><ele>371.87</ele><time>2026-04-10T20:39:10.000Z</time></trkpt>
        <trkpt lat="28.7556627" lon="104.6675114"><ele>371.87</ele><time>2026-04-10T20:39:22.000Z</time></trkpt>
        <trkpt lat="28.7557581" lon="104.6675488"><ele>373.03</ele><time>2026-04-10T20:39:34.000Z</time></trkpt>
        <trkpt lat="28.7558524" lon="104.6675802"><ele>373.88</ele><time>2026-04-10T20:39:46.000Z</time></trkpt>
        <trkpt lat="28.7559507" lon="104.6676316"><ele>374.64</ele><time>2026-04-10T20:39:56.000Z</time></trkpt>
        <trkpt lat="28.7560305" lon="104.6676957"><ele>375.44</ele><time>2026-04-10T20:40:06.000Z</time></trkpt>
        <trkpt lat="28.7561067" lon="104.6677691"><ele>376.12</ele><time>2026-04-10T20:40:18.000Z</time></trkpt>
        <trkpt lat="28.7561558" lon="104.6678584"><ele>376.48</ele><time>2026-04-10T20:40:28.000Z</time></trkpt>
        <trkpt lat="28.7561923" lon="104.6679609"><ele>377.59</ele><time>2026-04-10T20:40:40.000Z</time></trkpt>
        <trkpt lat="28.7562036" lon="104.6680674"><ele>378.48</ele><time>2026-04-10T20:40:50.000Z</time></trkpt>
        <trkpt lat="28.7562145" lon="104.6681724"><ele>379.34</ele><time>2026-04-10T20:41:00.000Z</time></trkpt>
        <trkpt lat="28.7562329" lon="104.6682874"><ele>380.18</ele><time>2026-04-10T20:41:12.000Z</time></trkpt>
        <trkpt lat="28.7562642" lon="104.6684013"><ele>379.61</ele><time>2026-04-10T20:41:24.000Z</time></trkpt>
        <trkpt lat="28.7563105" lon="104.6685084"><ele>379.47</ele><time>2026-04-10T20:41:36.000Z</time></trkpt>
        <trkpt lat="28.7563614" lon="104.6686002"><ele>379.48</ele><time>2026-04-10T20:41:46.000Z</time></trkpt>
        <trkpt lat="28.7564135" lon="104.6686824"><ele>380.46</ele><time>2026-04-10T20:41:56.000Z</time></trkpt>
        <trkpt lat="28.7564597" lon="104.6687839"><ele>382.53</ele><time>2026-04-10T20:42:10.000Z</time></trkpt>
        <trkpt lat="28.7565003" lon="104.6688847"><ele>385.96</ele><time>2026-04-10T20:42:22.000Z</time></trkpt>
        <trkpt lat="28.7565398" lon="104.6689882"><ele>388.84</ele><time>2026-04-10T20:42:36.000Z</time></trkpt>
        <trkpt lat="28.7565667" lon="104.6690931"><ele>389.66</ele><time>2026-04-10T20:42:48.000Z</time></trkpt>
        <trkpt lat="28.7565968" lon="104.6691978"><ele>390.02</ele><time>2026-04-10T20:43:00.000Z</time></trkpt>
        <trkpt lat="28.756632" lon="104.6693013"><ele>389.27</ele><time>2026-04-10T20:43:12.000Z</time></trkpt>
        <trkpt lat="28.7566634" lon="104.6694014"><ele>387.51</ele><time>2026-04-10T20:43:22.000Z</time></trkpt>
        <trkpt lat="28.7567112" lon="104.6694912"><ele>385.02</ele><time>2026-04-10T20:43:32.000Z</time></trkpt>
        <trkpt lat="28.7567679" lon="104.6695804"><ele>384.14</ele><time>2026-04-10T20:43:44.000Z</time></trkpt>
        <trkpt lat="28.7568193" lon="104.6696683"><ele>384.8</ele><time>2026-04-10T20:43:54.000Z</time></trkpt>
        <trkpt lat="28.7568757" lon="104.6697652"><ele>384.65</ele><time>2026-04-10T20:44:06.000Z</time></trkpt>
        <trkpt lat="28.7569336" lon="104.6698675"><ele>383.51</ele><time>2026-04-10T20:44:18.000Z</time></trkpt>
        <trkpt lat="28.757011" lon="104.6699352"><ele>384.06</ele><time>2026-04-10T20:45:00.000Z</time></trkpt>
        <trkpt lat="28.7570527" lon="104.6700325"><ele>384.53</ele><time>2026-04-10T20:45:12.000Z</time></trkpt>
        <trkpt lat="28.7571093" lon="104.6701163"><ele>384.29</ele><time>2026-04-10T20:45:24.000Z</time></trkpt>
        <trkpt lat="28.7571719" lon="104.6702049"><ele>384.36</ele><time>2026-04-10T20:45:36.000Z</time></trkpt>
        <trkpt lat="28.757247" lon="104.6702872"><ele>384.17</ele><time>2026-04-10T20:45:48.000Z</time></trkpt>
        <trkpt lat="28.7573098" lon="104.6703672"><ele>383.79</ele><time>2026-04-10T20:45:58.000Z</time></trkpt>
        <trkpt lat="28.7573528" lon="104.6704646"><ele>383.71</ele><time>2026-04-10T20:46:08.000Z</time></trkpt>
        <trkpt lat="28.7573066" lon="104.6705414"><ele>383.59</ele><time>2026-04-10T20:46:46.000Z</time></trkpt>
        <trkpt lat="28.7572066" lon="104.6705501"><ele>384.04</ele><time>2026-04-10T20:46:58.000Z</time></trkpt>
        <trkpt lat="28.7571192" lon="104.6704766"><ele>387.38</ele><time>2026-04-10T20:47:10.000Z</time></trkpt>
        <trkpt lat="28.7570414" lon="104.6703787"><ele>389.85</ele><time>2026-04-10T20:47:22.000Z</time></trkpt>
        <trkpt lat="28.7569692" lon="104.6702887"><ele>391.82</ele><time>2026-04-10T20:47:34.000Z</time></trkpt>
        <trkpt lat="28.7568899" lon="104.6702035"><ele>392.06</ele><time>2026-04-10T20:47:46.000Z</time></trkpt>
        <trkpt lat="28.7568153" lon="104.6701307"><ele>392.2</ele><time>2026-04-10T20:47:56.000Z</time></trkpt>
        <trkpt lat="28.7567422" lon="104.6700447"><ele>392.38</ele><time>2026-04-10T20:48:08.000Z</time></trkpt>
        <trkpt lat="28.7566682" lon="104.6699565"><ele>392.56</ele><time>2026-04-10T20:48:20.000Z</time></trkpt>
        <trkpt lat="28.7565937" lon="104.6698775"><ele>393.09</ele><time>2026-04-10T20:48:30.000Z</time></trkpt>
        <trkpt lat="28.7565194" lon="104.6697947"><ele>393.97</ele><time>2026-04-10T20:48:42.000Z</time></trkpt>
        <trkpt lat="28.7564472" lon="104.669716"><ele>395.12</ele><time>2026-04-10T20:48:54.000Z</time></trkpt>
        <trkpt lat="28.7563668" lon="104.669655"><ele>395.21</ele><time>2026-04-10T20:49:04.000Z</time></trkpt>
        <trkpt lat="28.7562801" lon="104.6696007"><ele>395.49</ele><time>2026-04-10T20:49:14.000Z</time></trkpt>
        <trkpt lat="28.7562003" lon="104.6695462"><ele>396.78</ele><time>2026-04-10T20:49:24.000Z</time></trkpt>
        <trkpt lat="28.7561121" lon="104.669492"><ele>398.21</ele><time>2026-04-10T20:49:36.000Z</time></trkpt>
        <trkpt lat="28.756029" lon="104.6694403"><ele>400.23</ele><time>2026-04-10T20:49:46.000Z</time></trkpt>
        <trkpt lat="28.7559449" lon="104.6693909"><ele>400.57</ele><time>2026-04-10T20:49:56.000Z</time></trkpt>
        <trkpt lat="28.7558627" lon="104.6693327"><ele>400.99</ele><time>2026-04-10T20:50:06.000Z</time></trkpt>
        <trkpt lat="28.7557922" lon="104.6692548"><ele>401.19</ele><time>2026-04-10T20:50:16.000Z</time></trkpt>
        <trkpt lat="28.7557163" lon="104.6691888"><ele>402.4</ele><time>2026-04-10T20:50:26.000Z</time></trkpt>
        <trkpt lat="28.7556455" lon="104.6691218"><ele>404.46</ele><time>2026-04-10T20:50:36.000Z</time></trkpt>
        <trkpt lat="28.7555802" lon="104.66904"><ele>405.96</ele><time>2026-04-10T20:50:48.000Z</time></trkpt>
        <trkpt lat="28.7555246" lon="104.6689431"><ele>406.41</ele><time>2026-04-10T20:51:00.000Z</time></trkpt>
        <trkpt lat="28.7554837" lon="104.6688438"><ele>406.7</ele><time>2026-04-10T20:51:12.000Z</time></trkpt>
        <trkpt lat="28.7554493" lon="104.668736"><ele>407.89</ele><time>2026-04-10T20:51:24.000Z</time></trkpt>
        <trkpt lat="28.7554284" lon="104.668629"><ele>408.87</ele><time>2026-04-10T20:51:34.000Z</time></trkpt>
        <trkpt lat="28.755395" lon="104.6685126"><ele>409.11</ele><time>2026-04-10T20:51:46.000Z</time></trkpt>
        <trkpt lat="28.7553633" lon="104.6683989"><ele>409.74</ele><time>2026-04-10T20:51:56.000Z</time></trkpt>
        <trkpt lat="28.755318" lon="104.6683024"><ele>411.17</ele><time>2026-04-10T20:52:08.000Z</time></trkpt>
        <trkpt lat="28.7552571" lon="104.6682202"><ele>412.62</ele><time>2026-04-10T20:52:20.000Z</time></trkpt>
        <trkpt lat="28.755193" lon="104.6681447"><ele>413.41</ele><time>2026-04-10T20:52:30.000Z</time></trkpt>
        <trkpt lat="28.7551235" lon="104.6680707"><ele>412.5</ele><time>2026-04-10T20:52:40.000Z</time></trkpt>
        <trkpt lat="28.7550514" lon="104.6680057"><ele>413.05</ele><time>2026-04-10T20:52:52.000Z</time></trkpt>
        <trkpt lat="28.7549735" lon="104.6679369"><ele>413.54</ele><time>2026-04-10T20:53:04.000Z</time></trkpt>
        <trkpt lat="28.7548886" lon="104.6678722"><ele>413.56</ele><time>2026-04-10T20:53:14.000Z</time></trkpt>
        <trkpt lat="28.7548021" lon="104.6678039"><ele>414.58</ele><time>2026-04-10T20:53:28.000Z</time></trkpt>
        <trkpt lat="28.7547141" lon="104.6677522"><ele>415.32</ele><time>2026-04-10T20:53:38.000Z</time></trkpt>
        <trkpt lat="28.7546327" lon="104.6676878"><ele>416.31</ele><time>2026-04-10T20:53:50.000Z</time></trkpt>
        <trkpt lat="28.7545561" lon="104.6676074"><ele>418.61</ele><time>2026-04-10T20:54:02.000Z</time></trkpt>
        <trkpt lat="28.7544822" lon="104.6675337"><ele>419.78</ele><time>2026-04-10T20:54:12.000Z</time></trkpt>
        <trkpt lat="28.7544159" lon="104.6674532"><ele>421.82</ele><time>2026-04-10T20:54:24.000Z</time></trkpt>
        <trkpt lat="28.7543485" lon="104.6673678"><ele>424.44</ele><time>2026-04-10T20:54:38.000Z</time></trkpt>
        <trkpt lat="28.7542797" lon="104.6672954"><ele>425.22</ele><time>2026-04-10T20:54:48.000Z</time></trkpt>
        <trkpt lat="28.7542248" lon="104.6672134"><ele>425.47</ele><time>2026-04-10T20:54:58.000Z</time></trkpt>
        <trkpt lat="28.7541733" lon="104.6671159"><ele>427.27</ele><time>2026-04-10T20:55:12.000Z</time></trkpt>
        <trkpt lat="28.7541065" lon="104.6670422"><ele>428.8</ele><time>2026-04-10T20:55:22.000Z</time></trkpt>
        <trkpt lat="28.7540364" lon="104.6669769"><ele>430.44</ele><time>2026-04-10T20:55:34.000Z</time></trkpt>
        <trkpt lat="28.7539592" lon="104.6669086"><ele>431.56</ele><time>2026-04-10T20:55:48.000Z</time></trkpt>
        <trkpt lat="28.7538932" lon="104.6668273"><ele>431.72</ele><time>2026-04-10T20:56:02.000Z</time></trkpt>
        <trkpt lat="28.7538919" lon="104.6667875"><ele>430.73</ele><time>2026-04-10T20:56:08.000Z</time></trkpt>
        <trkpt lat="28.7538318" lon="104.6667549"><ele>429.88</ele><time>2026-04-10T20:56:30.000Z</time></trkpt>
        <trkpt lat="28.7537499" lon="104.6667223"><ele>429.79</ele><time>2026-04-10T20:56:40.000Z</time></trkpt>
        <trkpt lat="28.7536636" lon="104.6666821"><ele>429.72</ele><time>2026-04-10T20:56:50.000Z</time></trkpt>
        <trkpt lat="28.7535603" lon="104.6666655"><ele>429.78</ele><time>2026-04-10T20:57:02.000Z</time></trkpt>
        <trkpt lat="28.7534594" lon="104.6666589"><ele>430.13</ele><time>2026-04-10T20:57:12.000Z</time></trkpt>
        <trkpt lat="28.7533686" lon="104.6666132"><ele>431.2</ele><time>2026-04-10T20:57:24.000Z</time></trkpt>
        <trkpt lat="28.7533281" lon="104.6665533"><ele>432</ele><time>2026-04-10T20:57:34.000Z</time></trkpt>
        <trkpt lat="28.7532859" lon="104.6664628"><ele>432.82</ele><time>2026-04-10T21:00:36.000Z</time></trkpt>
        <trkpt lat="28.7532444" lon="104.6663701"><ele>433.59</ele><time>2026-04-10T21:00:50.000Z</time></trkpt>
        <trkpt lat="28.7531844" lon="104.6662943"><ele>434.96</ele><time>2026-04-10T21:01:00.000Z</time></trkpt>
        <trkpt lat="28.7531085" lon="104.6662351"><ele>437.23</ele><time>2026-04-10T21:01:10.000Z</time></trkpt>
        <trkpt lat="28.7530286" lon="104.6661702"><ele>439.26</ele><time>2026-04-10T21:01:20.000Z</time></trkpt>
        <trkpt lat="28.752942" lon="104.6661205"><ele>440.02</ele><time>2026-04-10T21:01:32.000Z</time></trkpt>
        <trkpt lat="28.7529055" lon="104.666079"><ele>440.79</ele><time>2026-04-10T21:01:40.000Z</time></trkpt>
        <trkpt lat="28.7528308" lon="104.6660481"><ele>442.16</ele><time>2026-04-10T21:02:06.000Z</time></trkpt>
        <trkpt lat="28.7527415" lon="104.6660218"><ele>441.16</ele><time>2026-04-10T21:02:18.000Z</time></trkpt>
        <trkpt lat="28.7526488" lon="104.6659835"><ele>441.26</ele><time>2026-04-10T21:02:34.000Z</time></trkpt>
        <trkpt lat="28.7525609" lon="104.6659445"><ele>442.06</ele><time>2026-04-10T21:02:44.000Z</time></trkpt>
        <trkpt lat="28.7524684" lon="104.6659013"><ele>443.12</ele><time>2026-04-10T21:02:56.000Z</time></trkpt>
        <trkpt lat="28.7523778" lon="104.6658637"><ele>445.17</ele><time>2026-04-10T21:03:06.000Z</time></trkpt>
        <trkpt lat="28.7522925" lon="104.6658163"><ele>446.65</ele><time>2026-04-10T21:03:16.000Z</time></trkpt>
        <trkpt lat="28.7522086" lon="104.6657724"><ele>446.69</ele><time>2026-04-10T21:03:26.000Z</time></trkpt>
        <trkpt lat="28.7521168" lon="104.6657379"><ele>446.43</ele><time>2026-04-10T21:03:36.000Z</time></trkpt>
        <trkpt lat="28.7520374" lon="104.6656832"><ele>446.23</ele><time>2026-04-10T21:03:46.000Z</time></trkpt>
        <trkpt lat="28.7520197" lon="104.6656576"><ele>447.33</ele><time>2026-04-10T21:03:48.000Z</time></trkpt>
        <trkpt lat="28.7519575" lon="104.6656035"><ele>447.54</ele><time>2026-04-10T21:04:12.000Z</time></trkpt>
        <trkpt lat="28.7518756" lon="104.6655369"><ele>448.21</ele><time>2026-04-10T21:04:26.000Z</time></trkpt>
        <trkpt lat="28.7517857" lon="104.6655021"><ele>449.13</ele><time>2026-04-10T21:04:34.000Z</time></trkpt>
        <trkpt lat="28.7516881" lon="104.6654706"><ele>449.94</ele><time>2026-04-10T21:04:48.000Z</time></trkpt>
        <trkpt lat="28.7516014" lon="104.6654297"><ele>449.84</ele><time>2026-04-10T21:04:58.000Z</time></trkpt>
        <trkpt lat="28.7515576" lon="104.665408"><ele>450.06</ele><time>2026-04-10T21:05:06.000Z</time></trkpt>
        <trkpt lat="28.7514782" lon="104.6653713"><ele>451.17</ele><time>2026-04-10T21:05:26.000Z</time></trkpt>
        <trkpt lat="28.7514049" lon="104.6653119"><ele>452.78</ele><time>2026-04-10T21:05:34.000Z</time></trkpt>
        <trkpt lat="28.7513172" lon="104.6652484"><ele>453.13</ele><time>2026-04-10T21:05:52.000Z</time></trkpt>
        <trkpt lat="28.7512224" lon="104.6652041"><ele>452.71</ele><time>2026-04-10T21:06:04.000Z</time></trkpt>
        <trkpt lat="28.7511275" lon="104.6651601"><ele>452.69</ele><time>2026-04-10T21:06:16.000Z</time></trkpt>
        <trkpt lat="28.7510392" lon="104.6651128"><ele>453.7</ele><time>2026-04-10T21:06:30.000Z</time></trkpt>
        <trkpt lat="28.7509451" lon="104.6650946"><ele>457.28</ele><time>2026-04-10T21:06:40.000Z</time></trkpt>
        <trkpt lat="28.7508608" lon="104.6650397"><ele>459.87</ele><time>2026-04-10T21:06:52.000Z</time></trkpt>
        <trkpt lat="28.7508041" lon="104.6649452"><ele>463.39</ele><time>2026-04-10T21:07:06.000Z</time></trkpt>
        <trkpt lat="28.7507704" lon="104.6648433"><ele>465.29</ele><time>2026-04-10T21:07:16.000Z</time></trkpt>
        <trkpt lat="28.7507409" lon="104.6647321"><ele>465.98</ele><time>2026-04-10T21:07:28.000Z</time></trkpt>
        <trkpt lat="28.7507002" lon="104.6646254"><ele>467.59</ele><time>2026-04-10T21:07:38.000Z</time></trkpt>
        <trkpt lat="28.7506387" lon="104.6645285"><ele>467.56</ele><time>2026-04-10T21:07:50.000Z</time></trkpt>
        <trkpt lat="28.7505677" lon="104.664454"><ele>466.48</ele><time>2026-04-10T21:08:00.000Z</time></trkpt>
        <trkpt lat="28.7504794" lon="104.6643966"><ele>465.33</ele><time>2026-04-10T21:08:10.000Z</time></trkpt>
        <trkpt lat="28.7503941" lon="104.6643465"><ele>464.46</ele><time>2026-04-10T21:08:20.000Z</time></trkpt>
        <trkpt lat="28.7503097" lon="104.6642978"><ele>464.3</ele><time>2026-04-10T21:08:30.000Z</time></trkpt>
        <trkpt lat="28.7502255" lon="104.6642387"><ele>464.52</ele><time>2026-04-10T21:08:40.000Z</time></trkpt>
        <trkpt lat="28.7501321" lon="104.66418"><ele>463.99</ele><time>2026-04-10T21:08:50.000Z</time></trkpt>
        <trkpt lat="28.7500481" lon="104.6641258"><ele>463.43</ele><time>2026-04-10T21:09:00.000Z</time></trkpt>
        <trkpt lat="28.7499625" lon="104.6640753"><ele>463.25</ele><time>2026-04-10T21:09:10.000Z</time></trkpt>
        <trkpt lat="28.7498695" lon="104.6640214"><ele>463.54</ele><time>2026-04-10T21:09:20.000Z</time></trkpt>
        <trkpt lat="28.7497866" lon="104.6639597"><ele>463.79</ele><time>2026-04-10T21:09:30.000Z</time></trkpt>
        <trkpt lat="28.7497227" lon="104.6638825"><ele>464.16</ele><time>2026-04-10T21:09:40.000Z</time></trkpt>
        <trkpt lat="28.7496671" lon="104.6637969"><ele>465.31</ele><time>2026-04-10T21:09:50.000Z</time></trkpt>
        <trkpt lat="28.7496154" lon="104.6637025"><ele>466.82</ele><time>2026-04-10T21:10:00.000Z</time></trkpt>
        <trkpt lat="28.7495654" lon="104.6636103"><ele>467.98</ele><time>2026-04-10T21:10:12.000Z</time></trkpt>
        <trkpt lat="28.7495171" lon="104.6635046"><ele>470.99</ele><time>2026-04-10T21:10:18.000Z</time></trkpt>
        <trkpt lat="28.7494852" lon="104.663392"><ele>472.6</ele><time>2026-04-10T21:10:30.000Z</time></trkpt>
        <trkpt lat="28.7494243" lon="104.6633058"><ele>473.09</ele><time>2026-04-10T21:10:38.000Z</time></trkpt>
        <trkpt lat="28.74941" lon="104.6632607"><ele>473.62</ele><time>2026-04-10T21:10:42.000Z</time></trkpt>
        <trkpt lat="28.7493344" lon="104.663243"><ele>474.06</ele><time>2026-04-10T21:11:00.000Z</time></trkpt>
        <trkpt lat="28.7492653" lon="104.6631867"><ele>474.98</ele><time>2026-04-10T21:11:10.000Z</time></trkpt>
        <trkpt lat="28.7491891" lon="104.66314"><ele>475.38</ele><time>2026-04-10T21:11:20.000Z</time></trkpt>
        <trkpt lat="28.7491057" lon="104.6630831"><ele>475.67</ele><time>2026-04-10T21:11:32.000Z</time></trkpt>
        <trkpt lat="28.7490173" lon="104.6630348"><ele>476.09</ele><time>2026-04-10T21:11:56.000Z</time></trkpt>
        <trkpt lat="28.7489647" lon="104.6630931"><ele>475.89</ele><time>2026-04-10T21:12:10.000Z</time></trkpt>
        <trkpt lat="28.7489351" lon="104.6631991"><ele>475.26</ele><time>2026-04-10T21:12:24.000Z</time></trkpt>
        <trkpt lat="28.7489542" lon="104.6633133"><ele>476.14</ele><time>2026-04-10T21:12:38.000Z</time></trkpt>
        <trkpt lat="28.7489999" lon="104.6634255"><ele>477.69</ele><time>2026-04-10T21:12:52.000Z</time></trkpt>
        <trkpt lat="28.7490511" lon="104.6635358"><ele>479.39</ele><time>2026-04-10T21:13:04.000Z</time></trkpt>
        <trkpt lat="28.7491006" lon="104.6636406"><ele>481.16</ele><time>2026-04-10T21:13:16.000Z</time></trkpt>
        <trkpt lat="28.7491518" lon="104.6637331"><ele>483.81</ele><time>2026-04-10T21:13:32.000Z</time></trkpt>
        <trkpt lat="28.7491863" lon="104.6638291"><ele>485.97</ele><time>2026-04-10T21:13:42.000Z</time></trkpt>
        <trkpt lat="28.7492083" lon="104.6639339"><ele>487.18</ele><time>2026-04-10T21:13:52.000Z</time></trkpt>
        <trkpt lat="28.7492558" lon="104.6640367"><ele>487.55</ele><time>2026-04-10T21:14:06.000Z</time></trkpt>
        <trkpt lat="28.7493264" lon="104.6641077"><ele>487.21</ele><time>2026-04-10T21:14:16.000Z</time></trkpt>
        <trkpt lat="28.7494043" lon="104.6641839"><ele>488.32</ele><time>2026-04-10T21:14:28.000Z</time></trkpt>
        <trkpt lat="28.7494811" lon="104.6642616"><ele>489.32</ele><time>2026-04-10T21:14:40.000Z</time></trkpt>
        <trkpt lat="28.7495543" lon="104.664338"><ele>492.36</ele><time>2026-04-10T21:14:50.000Z</time></trkpt>
        <trkpt lat="28.7496179" lon="104.6644206"><ele>495.35</ele><time>2026-04-10T21:15:00.000Z</time></trkpt>
        <trkpt lat="28.7496711" lon="104.6645203"><ele>496.59</ele><time>2026-04-10T21:15:10.000Z</time></trkpt>
        <trkpt lat="28.7497244" lon="104.6646247"><ele>497.67</ele><time>2026-04-10T21:15:22.000Z</time></trkpt>
        <trkpt lat="28.749772" lon="104.6647407"><ele>499.68</ele><time>2026-04-10T21:15:34.000Z</time></trkpt>
        <trkpt lat="28.7498029" lon="104.6648498"><ele>500.67</ele><time>2026-04-10T21:15:42.000Z</time></trkpt>
        <trkpt lat="28.749837" lon="104.6649515"><ele>501.14</ele><time>2026-04-10T21:15:52.000Z</time></trkpt>
        <trkpt lat="28.7498854" lon="104.6650501"><ele>501.83</ele><time>2026-04-10T21:16:04.000Z</time></trkpt>
        <trkpt lat="28.7499351" lon="104.6651443"><ele>503.98</ele><time>2026-04-10T21:16:14.000Z</time></trkpt>
        <trkpt lat="28.7499786" lon="104.6652489"><ele>506</ele><time>2026-04-10T21:16:24.000Z</time></trkpt>
        <trkpt lat="28.7500305" lon="104.6653471"><ele>507.23</ele><time>2026-04-10T21:16:34.000Z</time></trkpt>
        <trkpt lat="28.7500986" lon="104.6654333"><ele>507.72</ele><time>2026-04-10T21:16:46.000Z</time></trkpt>
        <trkpt lat="28.7501654" lon="104.6655236"><ele>508.06</ele><time>2026-04-10T21:16:56.000Z</time></trkpt>
        <trkpt lat="28.7502485" lon="104.6655806"><ele>508.4</ele><time>2026-04-10T21:17:06.000Z</time></trkpt>
        <trkpt lat="28.7503204" lon="104.6656652"><ele>510.29</ele><time>2026-04-10T21:17:18.000Z</time></trkpt>
        <trkpt lat="28.7503936" lon="104.6657512"><ele>511.42</ele><time>2026-04-10T21:17:30.000Z</time></trkpt>
        <trkpt lat="28.750469" lon="104.6658283"><ele>511.83</ele><time>2026-04-10T21:17:44.000Z</time></trkpt>
        <trkpt lat="28.7504986" lon="104.6658546"><ele>510.07</ele><time>2026-04-10T21:17:46.000Z</time></trkpt>
        <trkpt lat="28.7505577" lon="104.6659173"><ele>509.67</ele><time>2026-04-10T21:17:56.000Z</time></trkpt>
        <trkpt lat="28.7506329" lon="104.6659919"><ele>509.34</ele><time>2026-04-10T21:18:08.000Z</time></trkpt>
        <trkpt lat="28.7506858" lon="104.6660828"><ele>508.56</ele><time>2026-04-10T21:18:18.000Z</time></trkpt>
        <trkpt lat="28.7507484" lon="104.6661852"><ele>510.76</ele><time>2026-04-10T21:18:32.000Z</time></trkpt>
        <trkpt lat="28.7507831" lon="104.6662908"><ele>515.42</ele><time>2026-04-10T21:18:44.000Z</time></trkpt>
        <trkpt lat="28.7508366" lon="104.6663778"><ele>515.85</ele><time>2026-04-10T21:18:58.000Z</time></trkpt>
        <trkpt lat="28.7509032" lon="104.6664703"><ele>517.64</ele><time>2026-04-10T21:19:14.000Z</time></trkpt>
        <trkpt lat="28.7509794" lon="104.6665537"><ele>519.05</ele><time>2026-04-10T21:19:28.000Z</time></trkpt>
        <trkpt lat="28.7510546" lon="104.6666324"><ele>521.96</ele><time>2026-04-10T21:19:40.000Z</time></trkpt>
        <trkpt lat="28.7511089" lon="104.6667242"><ele>526.17</ele><time>2026-04-10T21:19:50.000Z</time></trkpt>
        <trkpt lat="28.7511706" lon="104.6668119"><ele>525.72</ele><time>2026-04-10T21:20:02.000Z</time></trkpt>
        <trkpt lat="28.7512059" lon="104.6668548"><ele>525.32</ele><time>2026-04-10T21:20:08.000Z</time></trkpt>
        <trkpt lat="28.7512335" lon="104.6669331"><ele>525.62</ele><time>2026-04-10T21:20:18.000Z</time></trkpt>
        <trkpt lat="28.7512884" lon="104.6670109"><ele>524.16</ele><time>2026-04-10T21:20:30.000Z</time></trkpt>
        <trkpt lat="28.7513387" lon="104.6671151"><ele>526.21</ele><time>2026-04-10T21:20:42.000Z</time></trkpt>
        <trkpt lat="28.7513717" lon="104.6672343"><ele>527.68</ele><time>2026-04-10T21:20:52.000Z</time></trkpt>
        <trkpt lat="28.7513683" lon="104.6673516"><ele>527.73</ele><time>2026-04-10T21:21:00.000Z</time></trkpt>
        <trkpt lat="28.7513743" lon="104.6674582"><ele>525.5</ele><time>2026-04-10T21:21:12.000Z</time></trkpt>
        <trkpt lat="28.7513756" lon="104.6675731"><ele>524.71</ele><time>2026-04-10T21:21:24.000Z</time></trkpt>
        <trkpt lat="28.751374" lon="104.6676808"><ele>525.6</ele><time>2026-04-10T21:21:34.000Z</time></trkpt>
        <trkpt lat="28.7513885" lon="104.6677846"><ele>526.64</ele><time>2026-04-10T21:21:46.000Z</time></trkpt>
        <trkpt lat="28.7513788" lon="104.667892"><ele>525.93</ele><time>2026-04-10T21:21:58.000Z</time></trkpt>
        <trkpt lat="28.751339" lon="104.6679868"><ele>525.58</ele><time>2026-04-10T21:22:08.000Z</time></trkpt>
        <trkpt lat="28.7512749" lon="104.6680874"><ele>526.02</ele><time>2026-04-10T21:22:18.000Z</time></trkpt>
        <trkpt lat="28.7511852" lon="104.668147"><ele>526.73</ele><time>2026-04-10T21:22:28.000Z</time></trkpt>
        <trkpt lat="28.7510765" lon="104.6681702"><ele>527.81</ele><time>2026-04-10T21:22:38.000Z</time></trkpt>
        <trkpt lat="28.7509736" lon="104.6681469"><ele>527.99</ele><time>2026-04-10T21:22:48.000Z</time></trkpt>
        <trkpt lat="28.7508859" lon="104.6680933"><ele>528.98</ele><time>2026-04-10T21:22:58.000Z</time></trkpt>
        <trkpt lat="28.7507925" lon="104.668035"><ele>530.47</ele><time>2026-04-10T21:23:10.000Z</time></trkpt>
        <trkpt lat="28.7506973" lon="104.6679958"><ele>533.06</ele><time>2026-04-10T21:23:20.000Z</time></trkpt>
        <trkpt lat="28.7505987" lon="104.6679917"><ele>534.03</ele><time>2026-04-10T21:23:30.000Z</time></trkpt>
        <trkpt lat="28.7505027" lon="104.668018"><ele>535.48</ele><time>2026-04-10T21:23:42.000Z</time></trkpt>
        <trkpt lat="28.7504129" lon="104.6680788"><ele>535.49</ele><time>2026-04-10T21:23:56.000Z</time></trkpt>
        <trkpt lat="28.7503269" lon="104.668129"><ele>535.44</ele><time>2026-04-10T21:24:06.000Z</time></trkpt>
        <trkpt lat="28.7502451" lon="104.6682002"><ele>533.7</ele><time>2026-04-10T21:24:16.000Z</time></trkpt>
        <trkpt lat="28.7501569" lon="104.6682737"><ele>531.73</ele><time>2026-04-10T21:24:26.000Z</time></trkpt>
        <trkpt lat="28.7500806" lon="104.668354"><ele>530.34</ele><time>2026-04-10T21:24:36.000Z</time></trkpt>
        <trkpt lat="28.7500162" lon="104.6684462"><ele>530.22</ele><time>2026-04-10T21:24:46.000Z</time></trkpt>
        <trkpt lat="28.7499591" lon="104.6685478"><ele>529.87</ele><time>2026-04-10T21:24:58.000Z</time></trkpt>
        <trkpt lat="28.7498979" lon="104.6686419"><ele>529.67</ele><time>2026-04-10T21:25:08.000Z</time></trkpt>
        <trkpt lat="28.7498203" lon="104.6687017"><ele>529.57</ele><time>2026-04-10T21:25:20.000Z</time></trkpt>
        <trkpt lat="28.7497995" lon="104.6687108"><ele>528.36</ele><time>2026-04-10T21:25:22.000Z</time></trkpt>
        <trkpt lat="28.7497821" lon="104.6687945"><ele>527.71</ele><time>2026-04-10T21:25:42.000Z</time></trkpt>
        <trkpt lat="28.7497571" lon="104.6688922"><ele>528.69</ele><time>2026-04-10T21:25:52.000Z</time></trkpt>
        <trkpt lat="28.7497253" lon="104.6689975"><ele>529.66</ele><time>2026-04-10T21:26:02.000Z</time></trkpt>
        <trkpt lat="28.7496861" lon="104.6691048"><ele>531.08</ele><time>2026-04-10T21:26:12.000Z</time></trkpt>
        <trkpt lat="28.7496599" lon="104.6692234"><ele>532.91</ele><time>2026-04-10T21:26:22.000Z</time></trkpt>
        <trkpt lat="28.7496404" lon="104.6693458"><ele>533.93</ele><time>2026-04-10T21:26:32.000Z</time></trkpt>
        <trkpt lat="28.7496302" lon="104.6694689"><ele>534.25</ele><time>2026-04-10T21:26:42.000Z</time></trkpt>
        <trkpt lat="28.7496131" lon="104.6695821"><ele>533.93</ele><time>2026-04-10T21:26:52.000Z</time></trkpt>
        <trkpt lat="28.7495716" lon="104.6696762"><ele>533.85</ele><time>2026-04-10T21:27:02.000Z</time></trkpt>
        <trkpt lat="28.7495097" lon="104.6697506"><ele>533.54</ele><time>2026-04-10T21:27:10.000Z</time></trkpt>
        <trkpt lat="28.7494213" lon="104.6698071"><ele>532.82</ele><time>2026-04-10T21:27:20.000Z</time></trkpt>
        <trkpt lat="28.749315" lon="104.6698407"><ele>531.8</ele><time>2026-04-10T21:27:30.000Z</time></trkpt>
        <trkpt lat="28.7492098" lon="104.6698562"><ele>531.27</ele><time>2026-04-10T21:27:40.000Z</time></trkpt>
        <trkpt lat="28.7491027" lon="104.6698635"><ele>531.71</ele><time>2026-04-10T21:27:50.000Z</time></trkpt>
        <trkpt lat="28.7489952" lon="104.6698695"><ele>532.41</ele><time>2026-04-10T21:28:00.000Z</time></trkpt>
        <trkpt lat="28.7488975" lon="104.6699046"><ele>533.13</ele><time>2026-04-10T21:28:10.000Z</time></trkpt>
        <trkpt lat="28.7487964" lon="104.6699485"><ele>533.21</ele><time>2026-04-10T21:28:20.000Z</time></trkpt>
        <trkpt lat="28.7487111" lon="104.6699972"><ele>533.14</ele><time>2026-04-10T21:28:28.000Z</time></trkpt>
        <trkpt lat="28.7486363" lon="104.6700496"><ele>532.96</ele><time>2026-04-10T21:28:38.000Z</time></trkpt>
        <trkpt lat="28.7485773" lon="104.670133"><ele>532.67</ele><time>2026-04-10T21:28:50.000Z</time></trkpt>
        <trkpt lat="28.7485185" lon="104.6702323"><ele>532.98</ele><time>2026-04-10T21:29:02.000Z</time></trkpt>
        <trkpt lat="28.7484487" lon="104.6703302"><ele>534.24</ele><time>2026-04-10T21:29:12.000Z</time></trkpt>
        <trkpt lat="28.7483732" lon="104.6704068"><ele>535.39</ele><time>2026-04-10T21:29:22.000Z</time></trkpt>
        <trkpt lat="28.7483531" lon="104.6704275"><ele>536.48</ele><time>2026-04-10T21:29:29.000Z</time></trkpt>
        <trkpt lat="28.7482826" lon="104.6704831"><ele>539.3</ele><time>2026-04-10T21:29:37.000Z</time></trkpt>
        <trkpt lat="28.7481927" lon="104.6705409"><ele>539.33</ele><time>2026-04-10T21:29:47.000Z</time></trkpt>
        <trkpt lat="28.7481084" lon="104.6705975"><ele>538.96</ele><time>2026-04-10T21:29:55.000Z</time></trkpt>
        <trkpt lat="28.7480146" lon="104.6706261"><ele>538.98</ele><time>2026-04-10T21:30:05.000Z</time></trkpt>
        <trkpt lat="28.7479104" lon="104.6706389"><ele>538.89</ele><time>2026-04-10T21:30:15.000Z</time></trkpt>
        <trkpt lat="28.747809" lon="104.6706317"><ele>540.01</ele><time>2026-04-10T21:30:23.000Z</time></trkpt>
        <trkpt lat="28.7477116" lon="104.6706019"><ele>541.79</ele><time>2026-04-10T21:30:33.000Z</time></trkpt>
        <trkpt lat="28.7476204" lon="104.6705559"><ele>543.61</ele><time>2026-04-10T21:30:41.000Z</time></trkpt>
        <trkpt lat="28.7475272" lon="104.6705008"><ele>544.36</ele><time>2026-04-10T21:30:51.000Z</time></trkpt>
        <trkpt lat="28.7474595" lon="104.6704194"><ele>545.75</ele><time>2026-04-10T21:30:59.000Z</time></trkpt>
        <trkpt lat="28.7474008" lon="104.6703294"><ele>546.95</ele><time>2026-04-10T21:31:07.000Z</time></trkpt>
        <trkpt lat="28.7473582" lon="104.670222"><ele>548.18</ele><time>2026-04-10T21:31:15.000Z</time></trkpt>
        <trkpt lat="28.7473296" lon="104.6701078"><ele>548.92</ele><time>2026-04-10T21:31:25.000Z</time></trkpt>
        <trkpt lat="28.7473272" lon="104.6699893"><ele>549.81</ele><time>2026-04-10T21:31:35.000Z</time></trkpt>
        <trkpt lat="28.7473408" lon="104.6698804"><ele>551</ele><time>2026-04-10T21:31:43.000Z</time></trkpt>
        <trkpt lat="28.7473576" lon="104.6697735"><ele>551.64</ele><time>2026-04-10T21:31:51.000Z</time></trkpt>
        <trkpt lat="28.7473829" lon="104.6696568"><ele>551.3</ele><time>2026-04-10T21:32:03.000Z</time></trkpt>
        <trkpt lat="28.7474102" lon="104.6695392"><ele>551.95</ele><time>2026-04-10T21:32:13.000Z</time></trkpt>
        <trkpt lat="28.7474421" lon="104.6694342"><ele>551.83</ele><time>2026-04-10T21:32:23.000Z</time></trkpt>
        <trkpt lat="28.7474874" lon="104.6693332"><ele>552.41</ele><time>2026-04-10T21:32:33.000Z</time></trkpt>
        <trkpt lat="28.7475535" lon="104.6692385"><ele>552.92</ele><time>2026-04-10T21:32:43.000Z</time></trkpt>
        <trkpt lat="28.7476086" lon="104.6691663"><ele>552.51</ele><time>2026-04-10T21:32:51.000Z</time></trkpt>
        <trkpt lat="28.7476619" lon="104.6690878"><ele>551.52</ele><time>2026-04-10T21:33:11.000Z</time></trkpt>
        <trkpt lat="28.7477014" lon="104.6689951"><ele>550.94</ele><time>2026-04-10T21:33:21.000Z</time></trkpt>
        <trkpt lat="28.7476979" lon="104.6688886"><ele>549.88</ele><time>2026-04-10T21:33:43.000Z</time></trkpt>
        <trkpt lat="28.7477367" lon="104.6687849"><ele>549.83</ele><time>2026-04-10T21:33:53.000Z</time></trkpt>
        <trkpt lat="28.7477874" lon="104.6686799"><ele>551.35</ele><time>2026-04-10T21:34:03.000Z</time></trkpt>
        <trkpt lat="28.7478309" lon="104.6685712"><ele>552.09</ele><time>2026-04-10T21:34:17.000Z</time></trkpt>
        <trkpt lat="28.7478973" lon="104.6684979"><ele>551.92</ele><time>2026-04-10T21:34:25.000Z</time></trkpt>
        <trkpt lat="28.7479766" lon="104.6684408"><ele>552.43</ele><time>2026-04-10T21:34:33.000Z</time></trkpt>
        <trkpt lat="28.7480706" lon="104.6683873"><ele>552.61</ele><time>2026-04-10T21:34:43.000Z</time></trkpt>
        <trkpt lat="28.7481529" lon="104.6683235"><ele>552.06</ele><time>2026-04-10T21:34:53.000Z</time></trkpt>
        <trkpt lat="28.7482113" lon="104.6682414"><ele>552.67</ele><time>2026-04-10T21:35:05.000Z</time></trkpt>
        <trkpt lat="28.7482385" lon="104.6681367"><ele>554.05</ele><time>2026-04-10T21:35:25.000Z</time></trkpt>
        <trkpt lat="28.7482527" lon="104.6680197"><ele>555.49</ele><time>2026-04-10T21:35:35.000Z</time></trkpt>
        <trkpt lat="28.748287" lon="104.6679054"><ele>557.03</ele><time>2026-04-10T21:35:45.000Z</time></trkpt>
        <trkpt lat="28.7483372" lon="104.6677968"><ele>558.27</ele><time>2026-04-10T21:35:55.000Z</time></trkpt>
        <trkpt lat="28.7483524" lon="104.6676753"><ele>559.09</ele><time>2026-04-10T21:36:11.000Z</time></trkpt>
        <trkpt lat="28.7483771" lon="104.6675609"><ele>560.42</ele><time>2026-04-10T21:36:23.000Z</time></trkpt>
        <trkpt lat="28.7484476" lon="104.6674817"><ele>561.52</ele><time>2026-04-10T21:36:37.000Z</time></trkpt>
        <trkpt lat="28.7485049" lon="104.6673987"><ele>562.75</ele><time>2026-04-10T21:36:51.000Z</time></trkpt>
        <trkpt lat="28.748581" lon="104.6673217"><ele>564.49</ele><time>2026-04-10T21:37:03.000Z</time></trkpt>
        <trkpt lat="28.7486442" lon="104.6672422"><ele>565.86</ele><time>2026-04-10T21:37:19.000Z</time></trkpt>
        <trkpt lat="28.7487375" lon="104.667194"><ele>566.48</ele><time>2026-04-10T21:38:33.000Z</time></trkpt>
        <trkpt lat="28.7487984" lon="104.6671103"><ele>567.67</ele><time>2026-04-10T21:38:48.000Z</time></trkpt>
        <trkpt lat="28.7487893" lon="104.6670096"><ele>568.73</ele><time>2026-04-10T21:39:02.000Z</time></trkpt>
        <trkpt lat="28.7487877" lon="104.6668943"><ele>571.89</ele><time>2026-04-10T21:39:20.000Z</time></trkpt>
        <trkpt lat="28.7487973" lon="104.6667851"><ele>574.02</ele><time>2026-04-10T21:39:34.000Z</time></trkpt>
        <trkpt lat="28.7488013" lon="104.6666746"><ele>575.96</ele><time>2026-04-10T21:39:46.000Z</time></trkpt>
        <trkpt lat="28.7487958" lon="104.6665696"><ele>578.38</ele><time>2026-04-10T21:39:58.000Z</time></trkpt>
        <trkpt lat="28.7487898" lon="104.6664636"><ele>579.98</ele><time>2026-04-10T21:40:08.000Z</time></trkpt>
        <trkpt lat="28.7487734" lon="104.6663593"><ele>581.99</ele><time>2026-04-10T21:40:18.000Z</time></trkpt>
        <trkpt lat="28.7487455" lon="104.6662469"><ele>583.58</ele><time>2026-04-10T21:40:30.000Z</time></trkpt>
        <trkpt lat="28.7487364" lon="104.6661394"><ele>585.69</ele><time>2026-04-10T21:40:40.000Z</time></trkpt>
        <trkpt lat="28.7487488" lon="104.6660329"><ele>585.63</ele><time>2026-04-10T21:40:50.000Z</time></trkpt>
        <trkpt lat="28.748757" lon="104.6659159"><ele>584.63</ele><time>2026-04-10T21:41:02.000Z</time></trkpt>
        <trkpt lat="28.7487056" lon="104.6658296"><ele>582.43</ele><time>2026-04-10T21:41:14.000Z</time></trkpt>
        <trkpt lat="28.7486178" lon="104.665778"><ele>580.84</ele><time>2026-04-10T21:41:30.000Z</time></trkpt>
        <trkpt lat="28.7485281" lon="104.665806"><ele>579.7</ele><time>2026-04-10T21:41:42.000Z</time></trkpt>
        <trkpt lat="28.7485036" lon="104.6658295"><ele>579.13</ele><time>2026-04-10T21:41:46.000Z</time></trkpt>
        <trkpt lat="28.7484493" lon="104.6658932"><ele>578.73</ele><time>2026-04-10T21:42:14.000Z</time></trkpt>
        <trkpt lat="28.7483682" lon="104.6659446"><ele>578.24</ele><time>2026-04-10T21:42:28.000Z</time></trkpt>
        <trkpt lat="28.7482713" lon="104.6659706"><ele>578.73</ele><time>2026-04-10T21:42:44.000Z</time></trkpt>
        <trkpt lat="28.7481726" lon="104.6660041"><ele>579.23</ele><time>2026-04-10T21:43:00.000Z</time></trkpt>
        <trkpt lat="28.748076" lon="104.6660119"><ele>582.11</ele><time>2026-04-10T21:43:12.000Z</time></trkpt>
        <trkpt lat="28.7479791" lon="104.6660194"><ele>584.26</ele><time>2026-04-10T21:43:24.000Z</time></trkpt>
        <trkpt lat="28.7478767" lon="104.66602"><ele>586.34</ele><time>2026-04-10T21:43:36.000Z</time></trkpt>
        <trkpt lat="28.7477758" lon="104.6660383"><ele>587.75</ele><time>2026-04-10T21:43:56.000Z</time></trkpt>
        <trkpt lat="28.7477732" lon="104.6660541"><ele>589.83</ele><time>2026-04-10T21:44:04.000Z</time></trkpt>
        <trkpt lat="28.7477298" lon="104.6660063"><ele>591.27</ele><time>2026-04-10T21:44:22.000Z</time></trkpt>
        <trkpt lat="28.7476367" lon="104.6659896"><ele>593.02</ele><time>2026-04-10T21:44:34.000Z</time></trkpt>
        <trkpt lat="28.7475387" lon="104.6659949"><ele>595.35</ele><time>2026-04-10T21:44:46.000Z</time></trkpt>
        <trkpt lat="28.7474368" lon="104.6659889"><ele>595.62</ele><time>2026-04-10T21:44:56.000Z</time></trkpt>
        <trkpt lat="28.7473326" lon="104.6660057"><ele>595.02</ele><time>2026-04-10T21:45:10.000Z</time></trkpt>
        <trkpt lat="28.7472452" lon="104.6660585"><ele>594.21</ele><time>2026-04-10T21:45:22.000Z</time></trkpt>
        <trkpt lat="28.7471614" lon="104.6661191"><ele>593.39</ele><time>2026-04-10T21:45:34.000Z</time></trkpt>
        <trkpt lat="28.7470832" lon="104.6661793"><ele>593.49</ele><time>2026-04-10T21:45:46.000Z</time></trkpt>
        <trkpt lat="28.7470093" lon="104.6662461"><ele>594.12</ele><time>2026-04-10T21:46:00.000Z</time></trkpt>
        <trkpt lat="28.746925" lon="104.6662947"><ele>595.01</ele><time>2026-04-10T21:46:18.000Z</time></trkpt>
        <trkpt lat="28.7468375" lon="104.6663325"><ele>596.03</ele><time>2026-04-10T21:46:32.000Z</time></trkpt>
        <trkpt lat="28.7467427" lon="104.6663528"><ele>598.05</ele><time>2026-04-10T21:47:04.000Z</time></trkpt>
        <trkpt lat="28.7466533" lon="104.6664053"><ele>601.77</ele><time>2026-04-10T21:47:18.000Z</time></trkpt>
        <trkpt lat="28.7465529" lon="104.6664463"><ele>605.33</ele><time>2026-04-10T21:47:32.000Z</time></trkpt>
        <trkpt lat="28.7464633" lon="104.6664288"><ele>607.84</ele><time>2026-04-10T21:47:46.000Z</time></trkpt>
        <trkpt lat="28.7463822" lon="104.6663688"><ele>609.38</ele><time>2026-04-10T21:47:58.000Z</time></trkpt>
        <trkpt lat="28.7463047" lon="104.6663039"><ele>610.32</ele><time>2026-04-10T21:48:18.000Z</time></trkpt>
        <trkpt lat="28.7462659" lon="104.66628"><ele>610.92</ele><time>2026-04-10T21:48:22.000Z</time></trkpt>
        <trkpt lat="28.7462161" lon="104.666334"><ele>611.52</ele><time>2026-04-10T21:48:42.000Z</time></trkpt>
        <trkpt lat="28.7462227" lon="104.6663133"><ele>612.35</ele><time>2026-04-10T21:48:56.000Z</time></trkpt>
        <trkpt lat="28.7463058" lon="104.6662911"><ele>612.02</ele><time>2026-04-10T21:49:46.000Z</time></trkpt>
        <trkpt lat="28.746392" lon="104.6663518"><ele>613.89</ele><time>2026-04-10T21:49:58.000Z</time></trkpt>
        <trkpt lat="28.7464866" lon="104.6664239"><ele>616.99</ele><time>2026-04-10T21:50:08.000Z</time></trkpt>
        <trkpt lat="28.7465912" lon="104.6664416"><ele>617.33</ele><time>2026-04-10T21:52:41.000Z</time></trkpt>
        <trkpt lat="28.7466714" lon="104.666389"><ele>614.16</ele><time>2026-04-10T21:54:45.000Z</time></trkpt>
        <trkpt lat="28.7467549" lon="104.6663505"><ele>612</ele><time>2026-04-10T21:55:51.000Z</time></trkpt>
        <trkpt lat="28.7468448" lon="104.6663584"><ele>609.2</ele><time>2026-04-10T21:57:15.000Z</time></trkpt>
        <trkpt lat="28.7469348" lon="104.6662928"><ele>607.38</ele><time>2026-04-10T21:59:55.000Z</time></trkpt>
        <trkpt lat="28.747019" lon="104.6662485"><ele>604.89</ele><time>2026-04-10T22:00:05.000Z</time></trkpt>
        <trkpt lat="28.7470998" lon="104.6661812"><ele>602.14</ele><time>2026-04-10T22:00:15.000Z</time></trkpt>
        <trkpt lat="28.7471743" lon="104.6661184"><ele>599.62</ele><time>2026-04-10T22:00:23.000Z</time></trkpt>
        <trkpt lat="28.7472544" lon="104.6660487"><ele>597.52</ele><time>2026-04-10T22:00:33.000Z</time></trkpt>
        <trkpt lat="28.7473379" lon="104.6659875"><ele>596.25</ele><time>2026-04-10T22:00:43.000Z</time></trkpt>
        <trkpt lat="28.747358" lon="104.665991"><ele>594.99</ele><time>2026-04-10T22:00:51.000Z</time></trkpt>
        <trkpt lat="28.7474287" lon="104.6659711"><ele>594.36</ele><time>2026-04-10T22:01:37.000Z</time></trkpt>
        <trkpt lat="28.7475243" lon="104.6659604"><ele>593.28</ele><time>2026-04-10T22:01:47.000Z</time></trkpt>
        <trkpt lat="28.747622" lon="104.6659703"><ele>590.8</ele><time>2026-04-10T22:01:57.000Z</time></trkpt>
        <trkpt lat="28.7477288" lon="104.6659899"><ele>589.8</ele><time>2026-04-10T22:02:07.000Z</time></trkpt>
        <trkpt lat="28.7478325" lon="104.6660102"><ele>589.46</ele><time>2026-04-10T22:02:17.000Z</time></trkpt>
        <trkpt lat="28.7478697" lon="104.6660139"><ele>588.73</ele><time>2026-04-10T22:02:21.000Z</time></trkpt>
        <trkpt lat="28.7478872" lon="104.6660914"><ele>588.1</ele><time>2026-04-10T22:02:54.000Z</time></trkpt>
        <trkpt lat="28.7478781" lon="104.6661646"><ele>586.84</ele><time>2026-04-10T22:03:08.000Z</time></trkpt>
        <trkpt lat="28.7478013" lon="104.6662165"><ele>585.47</ele><time>2026-04-10T22:03:30.000Z</time></trkpt>
        <trkpt lat="28.747791" lon="104.6663036"><ele>584.12</ele><time>2026-04-10T22:03:54.000Z</time></trkpt>
        <trkpt lat="28.7477184" lon="104.666349"><ele>581.76</ele><time>2026-04-10T22:04:28.000Z</time></trkpt>
        <trkpt lat="28.7476969" lon="104.6663543"><ele>580.79</ele><time>2026-04-10T22:04:30.000Z</time></trkpt>
        <trkpt lat="28.7477562" lon="104.6664225"><ele>580.28</ele><time>2026-04-10T22:06:32.000Z</time></trkpt>
        <trkpt lat="28.7477526" lon="104.666437"><ele>578.62</ele><time>2026-04-10T22:06:34.000Z</time></trkpt>
        <trkpt lat="28.7478124" lon="104.6663183"><ele>577.96</ele><time>2026-04-10T22:07:00.000Z</time></trkpt>
        <trkpt lat="28.7478886" lon="104.666242"><ele>575.72</ele><time>2026-04-10T22:07:14.000Z</time></trkpt>
        <trkpt lat="28.7479844" lon="104.6662402"><ele>578.45</ele><time>2026-04-10T22:07:24.000Z</time></trkpt>
        <trkpt lat="28.7479979" lon="104.6662658"><ele>579.21</ele><time>2026-04-10T22:07:28.000Z</time></trkpt>
        <trkpt lat="28.748048" lon="104.6662243"><ele>580.14</ele><time>2026-04-10T22:08:10.000Z</time></trkpt>
        <trkpt lat="28.7481393" lon="104.6662076"><ele>580.16</ele><time>2026-04-10T22:08:22.000Z</time></trkpt>
        <trkpt lat="28.7482331" lon="104.66617"><ele>580.59</ele><time>2026-04-10T22:08:32.000Z</time></trkpt>
        <trkpt lat="28.7483231" lon="104.6661003"><ele>580.7</ele><time>2026-04-10T22:08:42.000Z</time></trkpt>
        <trkpt lat="28.7484028" lon="104.6660203"><ele>581.55</ele><time>2026-04-10T22:08:52.000Z</time></trkpt>
        <trkpt lat="28.748471" lon="104.6659385"><ele>581.87</ele><time>2026-04-10T22:09:22.000Z</time></trkpt>
        <trkpt lat="28.7485036" lon="104.6658937"><ele>583.89</ele><time>2026-04-10T22:09:28.000Z</time></trkpt>
        <trkpt lat="28.7485448" lon="104.6658143"><ele>585.24</ele><time>2026-04-10T22:10:14.000Z</time></trkpt>
        <trkpt lat="28.7486299" lon="104.6657839"><ele>587.24</ele><time>2026-04-10T22:10:28.000Z</time></trkpt>
        <trkpt lat="28.7487117" lon="104.6658272"><ele>585.35</ele><time>2026-04-10T22:10:40.000Z</time></trkpt>
        <trkpt lat="28.7487671" lon="104.665927"><ele>581.53</ele><time>2026-04-10T22:10:52.000Z</time></trkpt>
        <trkpt lat="28.7487814" lon="104.6660566"><ele>578.57</ele><time>2026-04-10T22:11:04.000Z</time></trkpt>
        <trkpt lat="28.7487934" lon="104.666177"><ele>577.1</ele><time>2026-04-10T22:11:14.000Z</time></trkpt>
        <trkpt lat="28.7488027" lon="104.6662927"><ele>576.09</ele><time>2026-04-10T22:11:26.000Z</time></trkpt>
        <trkpt lat="28.7488137" lon="104.6663995"><ele>576.16</ele><time>2026-04-10T22:11:56.000Z</time></trkpt>
        <trkpt lat="28.74882" lon="104.666507"><ele>576.48</ele><time>2026-04-10T22:12:10.000Z</time></trkpt>
        <trkpt lat="28.7488279" lon="104.6666154"><ele>575.21</ele><time>2026-04-10T22:12:22.000Z</time></trkpt>
        <trkpt lat="28.7488184" lon="104.6667263"><ele>574.06</ele><time>2026-04-10T22:12:34.000Z</time></trkpt>
        <trkpt lat="28.7488038" lon="104.6668411"><ele>576.12</ele><time>2026-04-10T22:12:46.000Z</time></trkpt>
        <trkpt lat="28.7488031" lon="104.6669462"><ele>577.65</ele><time>2026-04-10T22:14:04.000Z</time></trkpt>
        <trkpt lat="28.7487859" lon="104.6670549"><ele>575.92</ele><time>2026-04-10T22:14:56.000Z</time></trkpt>
        <trkpt lat="28.7487725" lon="104.6671617"><ele>574.24</ele><time>2026-04-10T22:15:22.000Z</time></trkpt>
        <trkpt lat="28.7487459" lon="104.6672637"><ele>572.51</ele><time>2026-04-10T22:15:36.000Z</time></trkpt>
        <trkpt lat="28.7486768" lon="104.6673289"><ele>572.48</ele><time>2026-04-10T22:15:50.000Z</time></trkpt>
        <trkpt lat="28.7485909" lon="104.667385"><ele>570.98</ele><time>2026-04-10T22:16:04.000Z</time></trkpt>
        <trkpt lat="28.7485196" lon="104.6674575"><ele>569.45</ele><time>2026-04-10T22:16:16.000Z</time></trkpt>
        <trkpt lat="28.7484613" lon="104.6675541"><ele>567.35</ele><time>2026-04-10T22:16:34.000Z</time></trkpt>
        <trkpt lat="28.7484227" lon="104.6676538"><ele>564.73</ele><time>2026-04-10T22:16:50.000Z</time></trkpt>
        <trkpt lat="28.7483924" lon="104.6677577"><ele>562.06</ele><time>2026-04-10T22:17:04.000Z</time></trkpt>
        <trkpt lat="28.748341" lon="104.6678554"><ele>560.11</ele><time>2026-04-10T22:17:18.000Z</time></trkpt>
        <trkpt lat="28.7482635" lon="104.6678309"><ele>558.28</ele><time>2026-04-10T22:17:30.000Z</time></trkpt>
        <trkpt lat="28.7481995" lon="104.6677393"><ele>556.98</ele><time>2026-04-10T22:17:40.000Z</time></trkpt>
        <trkpt lat="28.7481177" lon="104.6676493"><ele>556.29</ele><time>2026-04-10T22:17:52.000Z</time></trkpt>
        <trkpt lat="28.7480272" lon="104.6675958"><ele>555.86</ele><time>2026-04-10T22:18:02.000Z</time></trkpt>
        <trkpt lat="28.7479332" lon="104.6676071"><ele>555.94</ele><time>2026-04-10T22:18:16.000Z</time></trkpt>
        <trkpt lat="28.747837" lon="104.6676201"><ele>557.12</ele><time>2026-04-10T22:18:28.000Z</time></trkpt>
        <trkpt lat="28.7477442" lon="104.6676241"><ele>556.97</ele><time>2026-04-10T22:18:38.000Z</time></trkpt>
        <trkpt lat="28.7476452" lon="104.6676394"><ele>556.8</ele><time>2026-04-10T22:18:50.000Z</time></trkpt>
        <trkpt lat="28.7475502" lon="104.6676817"><ele>556.59</ele><time>2026-04-10T22:19:02.000Z</time></trkpt>
        <trkpt lat="28.7474777" lon="104.6677602"><ele>555.17</ele><time>2026-04-10T22:19:14.000Z</time></trkpt>
        <trkpt lat="28.747421" lon="104.6678542"><ele>553.79</ele><time>2026-04-10T22:19:36.000Z</time></trkpt>
        <trkpt lat="28.747363" lon="104.667947"><ele>552.3</ele><time>2026-04-10T22:19:48.000Z</time></trkpt>
        <trkpt lat="28.7472994" lon="104.6680261"><ele>551.45</ele><time>2026-04-10T22:19:58.000Z</time></trkpt>
        <trkpt lat="28.7472287" lon="104.6680902"><ele>550.86</ele><time>2026-04-10T22:20:08.000Z</time></trkpt>
        <trkpt lat="28.7471379" lon="104.6681337"><ele>550.49</ele><time>2026-04-10T22:20:47.000Z</time></trkpt>
        <trkpt lat="28.7470478" lon="104.6681525"><ele>550.06</ele><time>2026-04-10T22:20:55.000Z</time></trkpt>
        <trkpt lat="28.7469501" lon="104.6681614"><ele>550.4</ele><time>2026-04-10T22:21:22.000Z</time></trkpt>
        <trkpt lat="28.7468556" lon="104.6681793"><ele>550.84</ele><time>2026-04-10T22:21:32.000Z</time></trkpt>
        <trkpt lat="28.7467715" lon="104.6682355"><ele>551.33</ele><time>2026-04-10T22:21:44.000Z</time></trkpt>
        <trkpt lat="28.7466922" lon="104.668313"><ele>550.93</ele><time>2026-04-10T22:21:56.000Z</time></trkpt>
        <trkpt lat="28.7465976" lon="104.6683554"><ele>550.92</ele><time>2026-04-10T22:22:08.000Z</time></trkpt>
        <trkpt lat="28.7464959" lon="104.6683521"><ele>551.75</ele><time>2026-04-10T22:22:20.000Z</time></trkpt>
        <trkpt lat="28.7464009" lon="104.6683496"><ele>552.27</ele><time>2026-04-10T22:22:30.000Z</time></trkpt>
        <trkpt lat="28.7463" lon="104.6683599"><ele>552.95</ele><time>2026-04-10T22:22:40.000Z</time></trkpt>
        <trkpt lat="28.7462073" lon="104.668397"><ele>553.76</ele><time>2026-04-10T22:22:50.000Z</time></trkpt>
        <trkpt lat="28.7461358" lon="104.6684668"><ele>553.75</ele><time>2026-04-10T22:23:00.000Z</time></trkpt>
        <trkpt lat="28.7460572" lon="104.668543"><ele>553.28</ele><time>2026-04-10T22:23:12.000Z</time></trkpt>
        <trkpt lat="28.7459637" lon="104.6685571"><ele>552.59</ele><time>2026-04-10T22:23:22.000Z</time></trkpt>
        <trkpt lat="28.7458705" lon="104.6685233"><ele>552.77</ele><time>2026-04-10T22:23:34.000Z</time></trkpt>
        <trkpt lat="28.7457822" lon="104.6684612"><ele>555.4</ele><time>2026-04-10T22:24:18.000Z</time></trkpt>
        <trkpt lat="28.7457698" lon="104.6683358"><ele>557.12</ele><time>2026-04-10T22:24:22.000Z</time></trkpt>
        <trkpt lat="28.7457184" lon="104.6682336"><ele>555.96</ele><time>2026-04-10T22:24:32.000Z</time></trkpt>
        <trkpt lat="28.7456388" lon="104.668179"><ele>556.36</ele><time>2026-04-10T22:24:42.000Z</time></trkpt>
        <trkpt lat="28.7455362" lon="104.6681368"><ele>556.47</ele><time>2026-04-10T22:24:52.000Z</time></trkpt>
        <trkpt lat="28.7454376" lon="104.6681063"><ele>557.28</ele><time>2026-04-10T22:25:02.000Z</time></trkpt>
        <trkpt lat="28.7453387" lon="104.6680699"><ele>557.01</ele><time>2026-04-10T22:25:16.000Z</time></trkpt>
        <trkpt lat="28.7452379" lon="104.6680368"><ele>555.88</ele><time>2026-04-10T22:25:26.000Z</time></trkpt>
        <trkpt lat="28.7451411" lon="104.6680045"><ele>555.02</ele><time>2026-04-10T22:25:36.000Z</time></trkpt>
        <trkpt lat="28.7450377" lon="104.6679673"><ele>554.61</ele><time>2026-04-10T22:25:46.000Z</time></trkpt>
        <trkpt lat="28.7449338" lon="104.6679386"><ele>555.9</ele><time>2026-04-10T22:25:56.000Z</time></trkpt>
        <trkpt lat="28.7448383" lon="104.6679084"><ele>558.02</ele><time>2026-04-10T22:26:06.000Z</time></trkpt>
        <trkpt lat="28.7447536" lon="104.6678625"><ele>559.25</ele><time>2026-04-10T22:26:16.000Z</time></trkpt>
        <trkpt lat="28.7446695" lon="104.6677918"><ele>559.95</ele><time>2026-04-10T22:26:28.000Z</time></trkpt>
        <trkpt lat="28.7445894" lon="104.667733"><ele>559.56</ele><time>2026-04-10T22:26:36.000Z</time></trkpt>
        <trkpt lat="28.7444957" lon="104.6676906"><ele>559.82</ele><time>2026-04-10T22:26:46.000Z</time></trkpt>
        <trkpt lat="28.7443971" lon="104.6676623"><ele>560.68</ele><time>2026-04-10T22:26:56.000Z</time></trkpt>
        <trkpt lat="28.7442971" lon="104.6676511"><ele>561.25</ele><time>2026-04-10T22:27:06.000Z</time></trkpt>
        <trkpt lat="28.7442027" lon="104.6676634"><ele>561.57</ele><time>2026-04-10T22:27:16.000Z</time></trkpt>
        <trkpt lat="28.7441045" lon="104.6676795"><ele>561.16</ele><time>2026-04-10T22:27:28.000Z</time></trkpt>
        <trkpt lat="28.7440005" lon="104.6676844"><ele>558.51</ele><time>2026-04-10T22:27:38.000Z</time></trkpt>
        <trkpt lat="28.7439212" lon="104.6676947"><ele>556.55</ele><time>2026-04-10T22:27:50.000Z</time></trkpt>
        <trkpt lat="28.7438375" lon="104.6676494"><ele>554.92</ele><time>2026-04-10T22:28:38.000Z</time></trkpt>
        <trkpt lat="28.7437483" lon="104.6675799"><ele>552.94</ele><time>2026-04-10T22:28:48.000Z</time></trkpt>
        <trkpt lat="28.7436965" lon="104.6674808"><ele>551.52</ele><time>2026-04-10T22:29:00.000Z</time></trkpt>
        <trkpt lat="28.7436889" lon="104.6673637"><ele>550.24</ele><time>2026-04-10T22:29:10.000Z</time></trkpt>
        <trkpt lat="28.7436968" lon="104.667317"><ele>550.77</ele><time>2026-04-10T22:29:16.000Z</time></trkpt>
        <trkpt lat="28.743742" lon="104.6672433"><ele>550.75</ele><time>2026-04-10T22:29:40.000Z</time></trkpt>
        <trkpt lat="28.743797" lon="104.6671438"><ele>551.48</ele><time>2026-04-10T22:29:50.000Z</time></trkpt>
        <trkpt lat="28.7438574" lon="104.6670424"><ele>551.39</ele><time>2026-04-10T22:30:00.000Z</time></trkpt>
        <trkpt lat="28.7439081" lon="104.6669366"><ele>551.16</ele><time>2026-04-10T22:30:10.000Z</time></trkpt>
        <trkpt lat="28.7439242" lon="104.6668245"><ele>550.97</ele><time>2026-04-10T22:30:20.000Z</time></trkpt>
        <trkpt lat="28.7438851" lon="104.6667307"><ele>550.81</ele><time>2026-04-10T22:30:30.000Z</time></trkpt>
        <trkpt lat="28.7438025" lon="104.6666731"><ele>550.82</ele><time>2026-04-10T22:30:40.000Z</time></trkpt>
        <trkpt lat="28.7436916" lon="104.6666524"><ele>550.64</ele><time>2026-04-10T22:30:52.000Z</time></trkpt>
        <trkpt lat="28.7435952" lon="104.6666086"><ele>551.22</ele><time>2026-04-10T22:31:02.000Z</time></trkpt>
        <trkpt lat="28.7435194" lon="104.6665454"><ele>550.29</ele><time>2026-04-10T22:31:12.000Z</time></trkpt>
        <trkpt lat="28.7434738" lon="104.6664534"><ele>548.87</ele><time>2026-04-10T22:31:22.000Z</time></trkpt>
        <trkpt lat="28.7434429" lon="104.6663444"><ele>547.47</ele><time>2026-04-10T22:31:34.000Z</time></trkpt>
        <trkpt lat="28.7434349" lon="104.6662608"><ele>546.39</ele><time>2026-04-10T22:31:42.000Z</time></trkpt>
        <trkpt lat="28.7434307" lon="104.6661503"><ele>545.89</ele><time>2026-04-10T22:32:13.000Z</time></trkpt>
        <trkpt lat="28.7434332" lon="104.6660348"><ele>545.86</ele><time>2026-04-10T22:32:23.000Z</time></trkpt>
        <trkpt lat="28.7434556" lon="104.6659255"><ele>545.15</ele><time>2026-04-10T22:32:33.000Z</time></trkpt>
        <trkpt lat="28.7434848" lon="104.6658211"><ele>544.81</ele><time>2026-04-10T22:32:43.000Z</time></trkpt>
        <trkpt lat="28.7434765" lon="104.6657093"><ele>545.55</ele><time>2026-04-10T22:32:55.000Z</time></trkpt>
        <trkpt lat="28.7433994" lon="104.6656485"><ele>545.37</ele><time>2026-04-10T22:33:07.000Z</time></trkpt>
        <trkpt lat="28.7433064" lon="104.6655951"><ele>545.76</ele><time>2026-04-10T22:33:19.000Z</time></trkpt>
        <trkpt lat="28.743223" lon="104.6655322"><ele>545.68</ele><time>2026-04-10T22:34:38.000Z</time></trkpt>
        <trkpt lat="28.7431515" lon="104.6654387"><ele>545.41</ele><time>2026-04-10T22:34:50.000Z</time></trkpt>
        <trkpt lat="28.743095" lon="104.6653581"><ele>545.03</ele><time>2026-04-10T22:35:00.000Z</time></trkpt>
        <trkpt lat="28.743095" lon="104.6653581"><ele>545.03</ele><time>2026-04-10T22:35:00.000Z</time></trkpt>
        <trkpt lat="28.7430404" lon="104.6652668"><ele>549.39</ele><time>2026-04-10T22:35:50.000Z</time></trkpt>
        <trkpt lat="28.7430404" lon="104.6652668"><ele>549.39</ele><time>2026-04-10T22:36:12.000Z</time></trkpt>
        <trkpt lat="28.7429924" lon="104.6651773"><ele>549.39</ele><time>2026-04-10T22:36:24.000Z</time></trkpt>
        <trkpt lat="28.7429764" lon="104.6650747"><ele>548.34</ele><time>2026-04-10T22:36:36.000Z</time></trkpt>
        <trkpt lat="28.7429952" lon="104.6649589"><ele>547.68</ele><time>2026-04-10T22:36:52.000Z</time></trkpt>
        <trkpt lat="28.7430077" lon="104.6648442"><ele>547.28</ele><time>2026-04-10T22:37:02.000Z</time></trkpt>
        <trkpt lat="28.7430377" lon="104.6647279"><ele>548.06</ele><time>2026-04-10T22:37:12.000Z</time></trkpt>
        <trkpt lat="28.7430717" lon="104.6646191"><ele>548.26</ele><time>2026-04-10T22:37:22.000Z</time></trkpt>
        <trkpt lat="28.7431246" lon="104.6645135"><ele>549.03</ele><time>2026-04-10T22:37:34.000Z</time></trkpt>
        <trkpt lat="28.743179" lon="104.6644556"><ele>549.12</ele><time>2026-04-10T22:37:44.000Z</time></trkpt>
        <trkpt lat="28.7432311" lon="104.6643634"><ele>549.9</ele><time>2026-04-10T22:37:54.000Z</time></trkpt>
        <trkpt lat="28.743286" lon="104.6642694"><ele>548.87</ele><time>2026-04-10T22:38:04.000Z</time></trkpt>
        <trkpt lat="28.743338" lon="104.664177"><ele>548.83</ele><time>2026-04-10T22:38:14.000Z</time></trkpt>
        <trkpt lat="28.7433741" lon="104.6640741"><ele>548.78</ele><time>2026-04-10T22:38:26.000Z</time></trkpt>
        <trkpt lat="28.7434136" lon="104.6639728"><ele>549.68</ele><time>2026-04-10T22:38:36.000Z</time></trkpt>
        <trkpt lat="28.7434714" lon="104.6638783"><ele>550.25</ele><time>2026-04-10T22:38:48.000Z</time></trkpt>
        <trkpt lat="28.7435564" lon="104.6638221"><ele>550.68</ele><time>2026-04-10T22:39:10.000Z</time></trkpt>
        <trkpt lat="28.7434882" lon="104.6637689"><ele>550.9</ele><time>2026-04-10T22:40:28.000Z</time></trkpt>
        <trkpt lat="28.7434539" lon="104.6636646"><ele>552.1</ele><time>2026-04-10T22:40:40.000Z</time></trkpt>
        <trkpt lat="28.7434283" lon="104.6635604"><ele>553.11</ele><time>2026-04-10T22:40:52.000Z</time></trkpt>
        <trkpt lat="28.7434171" lon="104.6634453"><ele>554.21</ele><time>2026-04-10T22:41:02.000Z</time></trkpt>
        <trkpt lat="28.7434422" lon="104.6633394"><ele>554.85</ele><time>2026-04-10T22:41:12.000Z</time></trkpt>
        <trkpt lat="28.7434188" lon="104.6632458"><ele>556.26</ele><time>2026-04-10T22:41:50.000Z</time></trkpt>
        <trkpt lat="28.7433391" lon="104.6632218"><ele>558.53</ele><time>2026-04-10T22:42:00.000Z</time></trkpt>
        <trkpt lat="28.7432367" lon="104.6632392"><ele>560.67</ele><time>2026-04-10T22:42:12.000Z</time></trkpt>
        <trkpt lat="28.7431327" lon="104.6632696"><ele>563.65</ele><time>2026-04-10T22:42:24.000Z</time></trkpt>
        <trkpt lat="28.7431773" lon="104.6632541"><ele>566.09</ele><time>2026-04-10T22:42:58.000Z</time></trkpt>
        <trkpt lat="28.7432906" lon="104.6632423"><ele>568.13</ele><time>2026-04-10T22:43:08.000Z</time></trkpt>
        <trkpt lat="28.7434059" lon="104.6632611"><ele>568</ele><time>2026-04-10T22:43:16.000Z</time></trkpt>
        <trkpt lat="28.7435154" lon="104.6632829"><ele>569.08</ele><time>2026-04-10T22:43:28.000Z</time></trkpt>
        <trkpt lat="28.7436245" lon="104.6632573"><ele>568.87</ele><time>2026-04-10T22:43:38.000Z</time></trkpt>
        <trkpt lat="28.7437212" lon="104.6632155"><ele>569.48</ele><time>2026-04-10T22:43:46.000Z</time></trkpt>
        <trkpt lat="28.7438144" lon="104.663158"><ele>568.11</ele><time>2026-04-10T22:43:56.000Z</time></trkpt>
        <trkpt lat="28.743898" lon="104.6630868"><ele>563.99</ele><time>2026-04-10T22:44:06.000Z</time></trkpt>
        <trkpt lat="28.7439634" lon="104.6629996"><ele>561</ele><time>2026-04-10T22:44:16.000Z</time></trkpt>
        <trkpt lat="28.7440041" lon="104.6628868"><ele>558.64</ele><time>2026-04-10T22:44:26.000Z</time></trkpt>
        <trkpt lat="28.7440416" lon="104.6627781"><ele>557.17</ele><time>2026-04-10T22:44:36.000Z</time></trkpt>
        <trkpt lat="28.7440732" lon="104.6626709"><ele>556.04</ele><time>2026-04-10T22:44:46.000Z</time></trkpt>
        <trkpt lat="28.7441095" lon="104.6625642"><ele>555.01</ele><time>2026-04-10T22:44:56.000Z</time></trkpt>
        <trkpt lat="28.7441447" lon="104.6624491"><ele>554.28</ele><time>2026-04-10T22:45:06.000Z</time></trkpt>
        <trkpt lat="28.7442127" lon="104.6623694"><ele>553.47</ele><time>2026-04-10T22:45:16.000Z</time></trkpt>
        <trkpt lat="28.7442691" lon="104.6623289"><ele>552.8</ele><time>2026-04-10T22:45:24.000Z</time></trkpt>
        <trkpt lat="28.7442178" lon="104.6622785"><ele>553.53</ele><time>2026-04-10T22:45:48.000Z</time></trkpt>
        <trkpt lat="28.7441652" lon="104.6621807"><ele>554.06</ele><time>2026-04-10T22:46:00.000Z</time></trkpt>
        <trkpt lat="28.7441094" lon="104.6620826"><ele>553.92</ele><time>2026-04-10T22:46:10.000Z</time></trkpt>
        <trkpt lat="28.7440348" lon="104.6620071"><ele>553.36</ele><time>2026-04-10T22:46:20.000Z</time></trkpt>
        <trkpt lat="28.7439532" lon="104.6619367"><ele>554.02</ele><time>2026-04-10T22:46:32.000Z</time></trkpt>
        <trkpt lat="28.7438652" lon="104.6618713"><ele>555.52</ele><time>2026-04-10T22:46:44.000Z</time></trkpt>
        <trkpt lat="28.743769" lon="104.6618338"><ele>556.73</ele><time>2026-04-10T22:46:56.000Z</time></trkpt>
        <trkpt lat="28.7437152" lon="104.6617576"><ele>557.36</ele><time>2026-04-10T22:47:10.000Z</time></trkpt>
        <trkpt lat="28.7436424" lon="104.6616946"><ele>558.54</ele><time>2026-04-10T22:47:20.000Z</time></trkpt>
        <trkpt lat="28.743553" lon="104.6616402"><ele>559.4</ele><time>2026-04-10T22:47:30.000Z</time></trkpt>
        <trkpt lat="28.7434731" lon="104.6615767"><ele>559.02</ele><time>2026-04-10T22:47:40.000Z</time></trkpt>
        <trkpt lat="28.7434503" lon="104.6614743"><ele>559.7</ele><time>2026-04-10T22:47:50.000Z</time></trkpt>
        <trkpt lat="28.7435004" lon="104.6613675"><ele>561.03</ele><time>2026-04-10T22:48:02.000Z</time></trkpt>
        <trkpt lat="28.7435634" lon="104.6612668"><ele>563.15</ele><time>2026-04-10T22:48:14.000Z</time></trkpt>
        <trkpt lat="28.7435904" lon="104.6611477"><ele>564.93</ele><time>2026-04-10T22:48:26.000Z</time></trkpt>
        <trkpt lat="28.7436225" lon="104.6610326"><ele>565.12</ele><time>2026-04-10T22:48:36.000Z</time></trkpt>
        <trkpt lat="28.7436057" lon="104.6609206"><ele>565.21</ele><time>2026-04-10T22:48:48.000Z</time></trkpt>
        <trkpt lat="28.7435397" lon="104.6608379"><ele>564.91</ele><time>2026-04-10T22:49:00.000Z</time></trkpt>
        <trkpt lat="28.7434658" lon="104.6607659"><ele>566.48</ele><time>2026-04-10T22:49:08.000Z</time></trkpt>
        <trkpt lat="28.7433857" lon="104.660699"><ele>566.9</ele><time>2026-04-10T22:49:18.000Z</time></trkpt>
        <trkpt lat="28.7433037" lon="104.6606333"><ele>567.32</ele><time>2026-04-10T22:49:30.000Z</time></trkpt>
        <trkpt lat="28.7432238" lon="104.6605688"><ele>569.31</ele><time>2026-04-10T22:49:50.000Z</time></trkpt>
        <trkpt lat="28.7431437" lon="104.6605076"><ele>571.67</ele><time>2026-04-10T22:50:10.000Z</time></trkpt>
        <trkpt lat="28.7430862" lon="104.6604716"><ele>573.65</ele><time>2026-04-10T22:50:18.000Z</time></trkpt>
        <trkpt lat="28.7430012" lon="104.6604445"><ele>576.28</ele><time>2026-04-10T22:50:40.000Z</time></trkpt>
        <trkpt lat="28.7428977" lon="104.6604553"><ele>579.17</ele><time>2026-04-10T22:50:52.000Z</time></trkpt>
        <trkpt lat="28.742801" lon="104.6604668"><ele>581.53</ele><time>2026-04-10T22:51:02.000Z</time></trkpt>
        <trkpt lat="28.7427044" lon="104.6604604"><ele>583.04</ele><time>2026-04-10T22:51:12.000Z</time></trkpt>
        <trkpt lat="28.7426119" lon="104.6604149"><ele>582.94</ele><time>2026-04-10T22:51:26.000Z</time></trkpt>
        <trkpt lat="28.7425341" lon="104.6603336"><ele>582.44</ele><time>2026-04-10T22:51:38.000Z</time></trkpt>
        <trkpt lat="28.7424672" lon="104.6602328"><ele>583.67</ele><time>2026-04-10T22:51:48.000Z</time></trkpt>
        <trkpt lat="28.742376" lon="104.6601811"><ele>585.06</ele><time>2026-04-10T22:51:58.000Z</time></trkpt>
        <trkpt lat="28.7422827" lon="104.6601446"><ele>587.32</ele><time>2026-04-10T22:52:06.000Z</time></trkpt>
        <trkpt lat="28.7421883" lon="104.6601043"><ele>588.44</ele><time>2026-04-10T22:52:16.000Z</time></trkpt>
        <trkpt lat="28.7421052" lon="104.6600361"><ele>588.17</ele><time>2026-04-10T22:52:26.000Z</time></trkpt>
        <trkpt lat="28.7420143" lon="104.6599686"><ele>587</ele><time>2026-04-10T22:52:36.000Z</time></trkpt>
        <trkpt lat="28.7419232" lon="104.6599062"><ele>587.47</ele><time>2026-04-10T22:52:46.000Z</time></trkpt>
        <trkpt lat="28.741839" lon="104.6598537"><ele>588.23</ele><time>2026-04-10T22:52:56.000Z</time></trkpt>
        <trkpt lat="28.7417595" lon="104.6597922"><ele>588.85</ele><time>2026-04-10T22:53:06.000Z</time></trkpt>
        <trkpt lat="28.7416813" lon="104.6597121"><ele>589.22</ele><time>2026-04-10T22:53:16.000Z</time></trkpt>
        <trkpt lat="28.7415947" lon="104.6596419"><ele>589.56</ele><time>2026-04-10T22:53:26.000Z</time></trkpt>
        <trkpt lat="28.7415014" lon="104.6595979"><ele>590.61</ele><time>2026-04-10T22:53:40.000Z</time></trkpt>
        <trkpt lat="28.7414273" lon="104.6595162"><ele>591.28</ele><time>2026-04-10T22:53:50.000Z</time></trkpt>
        <trkpt lat="28.7413381" lon="104.6594767"><ele>592.17</ele><time>2026-04-10T22:53:58.000Z</time></trkpt>
        <trkpt lat="28.7412446" lon="104.6594787"><ele>592.68</ele><time>2026-04-10T22:54:06.000Z</time></trkpt>
        <trkpt lat="28.7411593" lon="104.6595271"><ele>592.33</ele><time>2026-04-10T22:54:14.000Z</time></trkpt>
        <trkpt lat="28.7410751" lon="104.659606"><ele>593.26</ele><time>2026-04-10T22:54:24.000Z</time></trkpt>
        <trkpt lat="28.7409903" lon="104.6596887"><ele>594.33</ele><time>2026-04-10T22:54:34.000Z</time></trkpt>
        <trkpt lat="28.7408962" lon="104.6597539"><ele>594.62</ele><time>2026-04-10T22:54:44.000Z</time></trkpt>
        <trkpt lat="28.7408137" lon="104.6598276"><ele>595.27</ele><time>2026-04-10T22:54:54.000Z</time></trkpt>
        <trkpt lat="28.7407299" lon="104.6598938"><ele>595.37</ele><time>2026-04-10T22:55:04.000Z</time></trkpt>
        <trkpt lat="28.7406646" lon="104.6599598"><ele>595.54</ele><time>2026-04-10T22:55:17.000Z</time></trkpt>
        <trkpt lat="28.7406255" lon="104.6600577"><ele>596.66</ele><time>2026-04-10T22:55:55.000Z</time></trkpt>
        <trkpt lat="28.7406179" lon="104.6601649"><ele>596.65</ele><time>2026-04-10T22:56:05.000Z</time></trkpt>
        <trkpt lat="28.7406031" lon="104.6602691"><ele>597.82</ele><time>2026-04-10T22:56:15.000Z</time></trkpt>
        <trkpt lat="28.7405957" lon="104.6603435"><ele>599.45</ele><time>2026-04-10T22:56:23.000Z</time></trkpt>
        <trkpt lat="28.7405842" lon="104.6604395"><ele>599.97</ele><time>2026-04-10T22:56:35.000Z</time></trkpt>
        <trkpt lat="28.7405976" lon="104.6605589"><ele>599.93</ele><time>2026-04-10T22:56:45.000Z</time></trkpt>
        <trkpt lat="28.7406211" lon="104.6606803"><ele>599.08</ele><time>2026-04-10T22:56:55.000Z</time></trkpt>
        <trkpt lat="28.7406128" lon="104.6607997"><ele>598</ele><time>2026-04-10T22:57:05.000Z</time></trkpt>
        <trkpt lat="28.7405745" lon="104.6608982"><ele>597.48</ele><time>2026-04-10T22:57:13.000Z</time></trkpt>
        <trkpt lat="28.74054" lon="104.6610206"><ele>598.75</ele><time>2026-04-10T22:57:23.000Z</time></trkpt>
        <trkpt lat="28.7405589" lon="104.6611314"><ele>600.09</ele><time>2026-04-10T22:57:35.000Z</time></trkpt>
        <trkpt lat="28.7406253" lon="104.6612169"><ele>599</ele><time>2026-04-10T22:57:47.000Z</time></trkpt>
        <trkpt lat="28.7407311" lon="104.6612465"><ele>597.9</ele><time>2026-04-10T22:57:57.000Z</time></trkpt>
        <trkpt lat="28.7408353" lon="104.6612828"><ele>596.52</ele><time>2026-04-10T22:58:07.000Z</time></trkpt>
        <trkpt lat="28.7409309" lon="104.6613147"><ele>596.89</ele><time>2026-04-10T22:58:15.000Z</time></trkpt>
        <trkpt lat="28.7410233" lon="104.6613556"><ele>595.8</ele><time>2026-04-10T22:58:25.000Z</time></trkpt>
        <trkpt lat="28.7411196" lon="104.6613971"><ele>595.88</ele><time>2026-04-10T22:58:35.000Z</time></trkpt>
        <trkpt lat="28.7412098" lon="104.6614439"><ele>597.03</ele><time>2026-04-10T22:58:45.000Z</time></trkpt>
        <trkpt lat="28.7412898" lon="104.6614972"><ele>598.19</ele><time>2026-04-10T22:58:55.000Z</time></trkpt>
        <trkpt lat="28.7413839" lon="104.6615518"><ele>599.4</ele><time>2026-04-10T22:59:05.000Z</time></trkpt>
        <trkpt lat="28.7414691" lon="104.6616274"><ele>599.68</ele><time>2026-04-10T22:59:13.000Z</time></trkpt>
        <trkpt lat="28.7415377" lon="104.661714"><ele>602.14</ele><time>2026-04-10T22:59:23.000Z</time></trkpt>
        <trkpt lat="28.7415532" lon="104.6618217"><ele>601.05</ele><time>2026-04-10T22:59:33.000Z</time></trkpt>
        <trkpt lat="28.7415886" lon="104.6619321"><ele>599.17</ele><time>2026-04-10T22:59:43.000Z</time></trkpt>
        <trkpt lat="28.7416476" lon="104.6620351"><ele>597.44</ele><time>2026-04-10T22:59:55.000Z</time></trkpt>
        <trkpt lat="28.7415819" lon="104.6619477"><ele>596.23</ele><time>2026-04-10T23:01:54.000Z</time></trkpt>
        <trkpt lat="28.7415" lon="104.6618627"><ele>596.61</ele><time>2026-04-10T23:02:04.000Z</time></trkpt>
        <trkpt lat="28.7414751" lon="104.6617595"><ele>597.21</ele><time>2026-04-10T23:02:12.000Z</time></trkpt>
        <trkpt lat="28.7414511" lon="104.661654"><ele>598.51</ele><time>2026-04-10T23:02:22.000Z</time></trkpt>
        <trkpt lat="28.741381" lon="104.66157"><ele>600.92</ele><time>2026-04-10T23:02:34.000Z</time></trkpt>
        <trkpt lat="28.7412924" lon="104.6614979"><ele>600.59</ele><time>2026-04-10T23:02:44.000Z</time></trkpt>
        <trkpt lat="28.7411984" lon="104.6614481"><ele>600.96</ele><time>2026-04-10T23:02:54.000Z</time></trkpt>
        <trkpt lat="28.7410974" lon="104.6614424"><ele>602.06</ele><time>2026-04-10T23:03:04.000Z</time></trkpt>
        <trkpt lat="28.7410149" lon="104.6613833"><ele>602.25</ele><time>2026-04-10T23:03:14.000Z</time></trkpt>
        <trkpt lat="28.7409347" lon="104.6613213"><ele>600.75</ele><time>2026-04-10T23:03:24.000Z</time></trkpt>
        <trkpt lat="28.7408423" lon="104.6612854"><ele>599.52</ele><time>2026-04-10T23:03:34.000Z</time></trkpt>
        <trkpt lat="28.7407567" lon="104.6612448"><ele>598.05</ele><time>2026-04-10T23:03:44.000Z</time></trkpt>
        <trkpt lat="28.7406607" lon="104.6612194"><ele>597.29</ele><time>2026-04-10T23:03:58.000Z</time></trkpt>
        <trkpt lat="28.7405714" lon="104.6611605"><ele>597.3</ele><time>2026-04-10T23:04:10.000Z</time></trkpt>
        <trkpt lat="28.7405129" lon="104.6610714"><ele>597.76</ele><time>2026-04-10T23:04:20.000Z</time></trkpt>
        <trkpt lat="28.7405044" lon="104.6609606"><ele>599.53</ele><time>2026-04-10T23:04:28.000Z</time></trkpt>
        <trkpt lat="28.740546" lon="104.6608624"><ele>599.11</ele><time>2026-04-10T23:04:36.000Z</time></trkpt>
        <trkpt lat="28.7406025" lon="104.6607526"><ele>598.53</ele><time>2026-04-10T23:04:46.000Z</time></trkpt>
        <trkpt lat="28.7406202" lon="104.660639"><ele>597.58</ele><time>2026-04-10T23:04:56.000Z</time></trkpt>
        <trkpt lat="28.7406207" lon="104.6605255"><ele>597.55</ele><time>2026-04-10T23:05:06.000Z</time></trkpt>
        <trkpt lat="28.7405976" lon="104.6604168"><ele>596.28</ele><time>2026-04-10T23:05:16.000Z</time></trkpt>
        <trkpt lat="28.7406003" lon="104.6603022"><ele>597.6</ele><time>2026-04-10T23:05:24.000Z</time></trkpt>
        <trkpt lat="28.7406072" lon="104.660194"><ele>596.89</ele><time>2026-04-10T23:05:32.000Z</time></trkpt>
        <trkpt lat="28.7406215" lon="104.6600912"><ele>597.9</ele><time>2026-04-10T23:05:40.000Z</time></trkpt>
        <trkpt lat="28.7406412" lon="104.659989"><ele>599.14</ele><time>2026-04-10T23:05:48.000Z</time></trkpt>
        <trkpt lat="28.7406256" lon="104.6598859"><ele>598.51</ele><time>2026-04-10T23:05:58.000Z</time></trkpt>
        <trkpt lat="28.7405586" lon="104.6597981"><ele>597.3</ele><time>2026-04-10T23:06:08.000Z</time></trkpt>
        <trkpt lat="28.740482" lon="104.6597181"><ele>596.39</ele><time>2026-04-10T23:06:18.000Z</time></trkpt>
        <trkpt lat="28.7404134" lon="104.6596358"><ele>595.02</ele><time>2026-04-10T23:06:28.000Z</time></trkpt>
        <trkpt lat="28.7403568" lon="104.659534"><ele>595.09</ele><time>2026-04-10T23:06:38.000Z</time></trkpt>
        <trkpt lat="28.7402752" lon="104.6594536"><ele>595.09</ele><time>2026-04-10T23:06:48.000Z</time></trkpt>
        <trkpt lat="28.74019" lon="104.6594045"><ele>596.2</ele><time>2026-04-10T23:06:58.000Z</time></trkpt>
        <trkpt lat="28.740107" lon="104.6593519"><ele>597.8</ele><time>2026-04-10T23:07:08.000Z</time></trkpt>
        <trkpt lat="28.7400239" lon="104.6593033"><ele>598.52</ele><time>2026-04-10T23:07:18.000Z</time></trkpt>
        <trkpt lat="28.7399412" lon="104.6592585"><ele>599.77</ele><time>2026-04-10T23:07:28.000Z</time></trkpt>
        <trkpt lat="28.7398478" lon="104.6592165"><ele>599.39</ele><time>2026-04-10T23:07:38.000Z</time></trkpt>
        <trkpt lat="28.7397474" lon="104.6591911"><ele>598.8</ele><time>2026-04-10T23:07:50.000Z</time></trkpt>
        <trkpt lat="28.7396815" lon="104.6591199"><ele>597.31</ele><time>2026-04-10T23:08:02.000Z</time></trkpt>
        <trkpt lat="28.7396954" lon="104.6590177"><ele>596.27</ele><time>2026-04-10T23:08:12.000Z</time></trkpt>
        <trkpt lat="28.7397145" lon="104.658902"><ele>594.86</ele><time>2026-04-10T23:08:22.000Z</time></trkpt>
        <trkpt lat="28.7396663" lon="104.6588023"><ele>593.81</ele><time>2026-04-10T23:08:34.000Z</time></trkpt>
        <trkpt lat="28.7395767" lon="104.6587516"><ele>594.29</ele><time>2026-04-10T23:08:44.000Z</time></trkpt>
        <trkpt lat="28.7395027" lon="104.6587277"><ele>594.59</ele><time>2026-04-10T23:08:52.000Z</time></trkpt>
        <trkpt lat="28.7394108" lon="104.6587929"><ele>595.29</ele><time>2026-04-10T23:10:28.000Z</time></trkpt>
        <trkpt lat="28.7393389" lon="104.6587239"><ele>595.55</ele><time>2026-04-10T23:11:02.000Z</time></trkpt>
        <trkpt lat="28.7392547" lon="104.6587565"><ele>594.24</ele><time>2026-04-10T23:11:16.000Z</time></trkpt>
        <trkpt lat="28.7391613" lon="104.6587806"><ele>595.39</ele><time>2026-04-10T23:11:30.000Z</time></trkpt>
        <trkpt lat="28.7390661" lon="104.6587806"><ele>596.13</ele><time>2026-04-10T23:11:40.000Z</time></trkpt>
        <trkpt lat="28.7390032" lon="104.6587386"><ele>597.25</ele><time>2026-04-10T23:11:50.000Z</time></trkpt>
        <trkpt lat="28.7389515" lon="104.6586494"><ele>598</ele><time>2026-04-10T23:12:24.000Z</time></trkpt>
        <trkpt lat="28.7389104" lon="104.6585875"><ele>598.56</ele><time>2026-04-10T23:12:36.000Z</time></trkpt>
        <trkpt lat="28.7389479" lon="104.6586469"><ele>598.53</ele><time>2026-04-10T23:12:56.000Z</time></trkpt>
        <trkpt lat="28.7390051" lon="104.6586066"><ele>597.79</ele><time>2026-04-10T23:13:08.000Z</time></trkpt>
        <trkpt lat="28.7390487" lon="104.6585115"><ele>598.41</ele><time>2026-04-10T23:13:16.000Z</time></trkpt>
        <trkpt lat="28.7390074" lon="104.6584257"><ele>599.85</ele><time>2026-04-10T23:13:28.000Z</time></trkpt>
        <trkpt lat="28.7390449" lon="104.6583473"><ele>600.6</ele><time>2026-04-10T23:13:40.000Z</time></trkpt>
        <trkpt lat="28.7389949" lon="104.6584406"><ele>602.22</ele><time>2026-04-10T23:15:31.000Z</time></trkpt>
        <trkpt lat="28.7390584" lon="104.6585195"><ele>603.4</ele><time>2026-04-10T23:15:43.000Z</time></trkpt>
        <trkpt lat="28.7390495" lon="104.6586207"><ele>601.93</ele><time>2026-04-10T23:15:53.000Z</time></trkpt>
        <trkpt lat="28.7390157" lon="104.6587183"><ele>600.61</ele><time>2026-04-10T23:16:05.000Z</time></trkpt>
        <trkpt lat="28.7389558" lon="104.6586811"><ele>599.18</ele><time>2026-04-10T23:16:15.000Z</time></trkpt>
        <trkpt lat="28.7388903" lon="104.6585986"><ele>599.03</ele><time>2026-04-10T23:16:25.000Z</time></trkpt>
        <trkpt lat="28.7388195" lon="104.658506"><ele>598.43</ele><time>2026-04-10T23:16:35.000Z</time></trkpt>
        <trkpt lat="28.7387458" lon="104.6584222"><ele>598.15</ele><time>2026-04-10T23:16:45.000Z</time></trkpt>
        <trkpt lat="28.7386687" lon="104.6583368"><ele>598.22</ele><time>2026-04-10T23:16:55.000Z</time></trkpt>
        <trkpt lat="28.7385989" lon="104.6582484"><ele>597.95</ele><time>2026-04-10T23:17:07.000Z</time></trkpt>
        <trkpt lat="28.7385243" lon="104.6581709"><ele>597.46</ele><time>2026-04-10T23:17:33.000Z</time></trkpt>
        <trkpt lat="28.738463" lon="104.658084"><ele>597.13</ele><time>2026-04-10T23:17:45.000Z</time></trkpt>
        <trkpt lat="28.7383784" lon="104.6580384"><ele>596.67</ele><time>2026-04-10T23:17:58.000Z</time></trkpt>
        <trkpt lat="28.7382726" lon="104.6580371"><ele>596.92</ele><time>2026-04-10T23:18:16.000Z</time></trkpt>
        <trkpt lat="28.7381714" lon="104.6580628"><ele>595.87</ele><time>2026-04-10T23:18:28.000Z</time></trkpt>
        <trkpt lat="28.7380749" lon="104.6580871"><ele>593.77</ele><time>2026-04-10T23:18:38.000Z</time></trkpt>
        <trkpt lat="28.7379779" lon="104.6580661"><ele>592.24</ele><time>2026-04-10T23:18:50.000Z</time></trkpt>
        <trkpt lat="28.7378805" lon="104.6580344"><ele>590.71</ele><time>2026-04-10T23:19:02.000Z</time></trkpt>
        <trkpt lat="28.7377865" lon="104.6579985"><ele>589.34</ele><time>2026-04-10T23:19:12.000Z</time></trkpt>
        <trkpt lat="28.737697" lon="104.6579508"><ele>588.53</ele><time>2026-04-10T23:19:20.000Z</time></trkpt>
        <trkpt lat="28.7375953" lon="104.6579562"><ele>588.79</ele><time>2026-04-10T23:19:32.000Z</time></trkpt>
        <trkpt lat="28.7375507" lon="104.6579646"><ele>588.21</ele><time>2026-04-10T23:19:38.000Z</time></trkpt>
        <trkpt lat="28.7374885" lon="104.6580312"><ele>587.49</ele><time>2026-04-10T23:20:06.000Z</time></trkpt>
        <trkpt lat="28.7374535" lon="104.6581363"><ele>585.35</ele><time>2026-04-10T23:20:32.000Z</time></trkpt>
        <trkpt lat="28.7374029" lon="104.6582424"><ele>583.59</ele><time>2026-04-10T23:20:46.000Z</time></trkpt>
        <trkpt lat="28.7373367" lon="104.6583553"><ele>581.69</ele><time>2026-04-10T23:21:07.000Z</time></trkpt>
        <trkpt lat="28.7372836" lon="104.6584547"><ele>579.37</ele><time>2026-04-10T23:21:17.000Z</time></trkpt>
        <trkpt lat="28.7372608" lon="104.6585652"><ele>578.64</ele><time>2026-04-10T23:21:29.000Z</time></trkpt>
        <trkpt lat="28.7372926" lon="104.6586749"><ele>578.3</ele><time>2026-04-10T23:21:41.000Z</time></trkpt>
        <trkpt lat="28.7373442" lon="104.6587829"><ele>577.85</ele><time>2026-04-10T23:21:53.000Z</time></trkpt>
        <trkpt lat="28.737397" lon="104.6588804"><ele>577.34</ele><time>2026-04-10T23:22:03.000Z</time></trkpt>
        <trkpt lat="28.7374361" lon="104.6589781"><ele>577.6</ele><time>2026-04-10T23:22:13.000Z</time></trkpt>
        <trkpt lat="28.73748" lon="104.6590948"><ele>577.79</ele><time>2026-04-10T23:22:27.000Z</time></trkpt>
        <trkpt lat="28.7374953" lon="104.6591045"><ele>578.14</ele><time>2026-04-10T23:22:29.000Z</time></trkpt>
        <trkpt lat="28.7374864" lon="104.659016"><ele>578.8</ele><time>2026-04-10T23:22:47.000Z</time></trkpt>
        <trkpt lat="28.7374441" lon="104.658902"><ele>579.65</ele><time>2026-04-10T23:23:01.000Z</time></trkpt>
        <trkpt lat="28.7373917" lon="104.6587924"><ele>579.71</ele><time>2026-04-10T23:23:21.000Z</time></trkpt>
        <trkpt lat="28.7373324" lon="104.658694"><ele>579.15</ele><time>2026-04-10T23:23:49.000Z</time></trkpt>
        <trkpt lat="28.7372753" lon="104.6585975"><ele>578.27</ele><time>2026-04-10T23:23:59.000Z</time></trkpt>
        <trkpt lat="28.7372455" lon="104.6584895"><ele>577.59</ele><time>2026-04-10T23:24:09.000Z</time></trkpt>
        <trkpt lat="28.7372731" lon="104.6583763"><ele>577.12</ele><time>2026-04-10T23:24:19.000Z</time></trkpt>
        <trkpt lat="28.7373343" lon="104.6582805"><ele>577.24</ele><time>2026-04-10T23:24:29.000Z</time></trkpt>
        <trkpt lat="28.737418" lon="104.6582166"><ele>577.94</ele><time>2026-04-10T23:24:43.000Z</time></trkpt>
        <trkpt lat="28.7374602" lon="104.6581144"><ele>578.3</ele><time>2026-04-10T23:24:53.000Z</time></trkpt>
        <trkpt lat="28.7375069" lon="104.6580083"><ele>578.9</ele><time>2026-04-10T23:25:03.000Z</time></trkpt>
        <trkpt lat="28.7374811" lon="104.6579158"><ele>579.56</ele><time>2026-04-10T23:25:49.000Z</time></trkpt>
        <trkpt lat="28.7374223" lon="104.6578317"><ele>580.76</ele><time>2026-04-10T23:26:03.000Z</time></trkpt>
        <trkpt lat="28.7374002" lon="104.6577312"><ele>582.03</ele><time>2026-04-10T23:26:17.000Z</time></trkpt>
        <trkpt lat="28.7373541" lon="104.6576318"><ele>583.02</ele><time>2026-04-10T23:27:05.000Z</time></trkpt>
        <trkpt lat="28.7373039" lon="104.65754"><ele>584.05</ele><time>2026-04-10T23:27:17.000Z</time></trkpt>
        <trkpt lat="28.7372454" lon="104.6574585"><ele>586.19</ele><time>2026-04-10T23:27:29.000Z</time></trkpt>
        <trkpt lat="28.7371706" lon="104.6573917"><ele>588.42</ele><time>2026-04-10T23:27:43.000Z</time></trkpt>
        <trkpt lat="28.7370815" lon="104.6573715"><ele>589.92</ele><time>2026-04-10T23:28:15.000Z</time></trkpt>
        <trkpt lat="28.7369879" lon="104.6573559"><ele>591.36</ele><time>2026-04-10T23:28:39.000Z</time></trkpt>
        <trkpt lat="28.7370329" lon="104.6573658"><ele>593.43</ele><time>2026-04-10T23:29:27.000Z</time></trkpt>
        <trkpt lat="28.737134" lon="104.6573515"><ele>594.92</ele><time>2026-04-10T23:29:39.000Z</time></trkpt>
        <trkpt lat="28.7372181" lon="104.657413"><ele>595.15</ele><time>2026-04-10T23:29:51.000Z</time></trkpt>
        <trkpt lat="28.7373074" lon="104.6574958"><ele>592.9</ele><time>2026-04-10T23:30:09.000Z</time></trkpt>
        <trkpt lat="28.7373594" lon="104.6575865"><ele>590.72</ele><time>2026-04-10T23:30:21.000Z</time></trkpt>
        <trkpt lat="28.7374019" lon="104.6576818"><ele>588.98</ele><time>2026-04-10T23:31:15.000Z</time></trkpt>
        <trkpt lat="28.7374245" lon="104.6577965"><ele>586.28</ele><time>2026-04-10T23:31:25.000Z</time></trkpt>
        <trkpt lat="28.7374365" lon="104.6579065"><ele>583.93</ele><time>2026-04-10T23:31:35.000Z</time></trkpt>
        <trkpt lat="28.7375131" lon="104.6579397"><ele>582.21</ele><time>2026-04-10T23:32:19.000Z</time></trkpt>
        <trkpt lat="28.7375759" lon="104.6579419"><ele>581.58</ele><time>2026-04-10T23:32:27.000Z</time></trkpt>
        <trkpt lat="28.7374844" lon="104.657921"><ele>580.93</ele><time>2026-04-10T23:35:18.000Z</time></trkpt>
        <trkpt lat="28.7374247" lon="104.6578286"><ele>583.48</ele><time>2026-04-10T23:35:40.000Z</time></trkpt>
        <trkpt lat="28.7373912" lon="104.6577161"><ele>584</ele><time>2026-04-10T23:36:04.000Z</time></trkpt>
        <trkpt lat="28.7373687" lon="104.6576533"><ele>583.36</ele><time>2026-04-10T23:36:16.000Z</time></trkpt>
        <trkpt lat="28.7373177" lon="104.6575842"><ele>583.63</ele><time>2026-04-10T23:36:46.000Z</time></trkpt>
        <trkpt lat="28.7372462" lon="104.6575164"><ele>584.37</ele><time>2026-04-10T23:38:06.000Z</time></trkpt>
        <trkpt lat="28.7372418" lon="104.6575203"><ele>587.05</ele><time>2026-04-10T23:38:08.000Z</time></trkpt>
        <trkpt lat="28.7371601" lon="104.6575374"><ele>588.49</ele><time>2026-04-10T23:38:56.000Z</time></trkpt>
        <trkpt lat="28.7370734" lon="104.6575781"><ele>593.64</ele><time>2026-04-10T23:39:20.000Z</time></trkpt>
        <trkpt lat="28.7369846" lon="104.6576295"><ele>598.43</ele><time>2026-04-10T23:39:50.000Z</time></trkpt>
        <trkpt lat="28.7368928" lon="104.6576896"><ele>601.87</ele><time>2026-04-10T23:40:10.000Z</time></trkpt>
        <trkpt lat="28.7368048" lon="104.6577342"><ele>604.41</ele><time>2026-04-10T23:40:18.000Z</time></trkpt>
        <trkpt lat="28.736744" lon="104.6578015"><ele>605.86</ele><time>2026-04-10T23:40:36.000Z</time></trkpt>
        <trkpt lat="28.7366982" lon="104.657906"><ele>606.74</ele><time>2026-04-10T23:40:52.000Z</time></trkpt>
        <trkpt lat="28.7366835" lon="104.6579633"><ele>608.31</ele><time>2026-04-10T23:40:58.000Z</time></trkpt>
        <trkpt lat="28.7366419" lon="104.6580361"><ele>607.98</ele><time>2026-04-10T23:41:38.000Z</time></trkpt>
        <trkpt lat="28.7365874" lon="104.6581153"><ele>607.11</ele><time>2026-04-10T23:41:50.000Z</time></trkpt>
        <trkpt lat="28.7365198" lon="104.6581848"><ele>606.49</ele><time>2026-04-10T23:42:04.000Z</time></trkpt>
        <trkpt lat="28.7364233" lon="104.6582291"><ele>605.92</ele><time>2026-04-10T23:42:24.000Z</time></trkpt>
        <trkpt lat="28.7363341" lon="104.6582715"><ele>604.22</ele><time>2026-04-10T23:42:34.000Z</time></trkpt>
        <trkpt lat="28.736241" lon="104.6583105"><ele>606.07</ele><time>2026-04-10T23:42:52.000Z</time></trkpt>
        <trkpt lat="28.7361486" lon="104.6583148"><ele>610.69</ele><time>2026-04-10T23:43:04.000Z</time></trkpt>
        <trkpt lat="28.7360603" lon="104.658275"><ele>614.07</ele><time>2026-04-10T23:43:16.000Z</time></trkpt>
        <trkpt lat="28.735972" lon="104.6582352"><ele>617.6</ele><time>2026-04-10T23:43:28.000Z</time></trkpt>
        <trkpt lat="28.7358911" lon="104.6581785"><ele>621.85</ele><time>2026-04-10T23:43:42.000Z</time></trkpt>
        <trkpt lat="28.7358424" lon="104.6580853"><ele>626.04</ele><time>2026-04-10T23:43:54.000Z</time></trkpt>
        <trkpt lat="28.7357829" lon="104.6580003"><ele>627.87</ele><time>2026-04-10T23:44:16.000Z</time></trkpt>
        <trkpt lat="28.735738" lon="104.6578993"><ele>626.22</ele><time>2026-04-10T23:44:30.000Z</time></trkpt>
        <trkpt lat="28.7356704" lon="104.6578194"><ele>626.17</ele><time>2026-04-10T23:44:44.000Z</time></trkpt>
        <trkpt lat="28.7356183" lon="104.6577206"><ele>627.76</ele><time>2026-04-10T23:44:56.000Z</time></trkpt>
        <trkpt lat="28.7355705" lon="104.6576173"><ele>628.65</ele><time>2026-04-10T23:45:10.000Z</time></trkpt>
        <trkpt lat="28.7355197" lon="104.6575213"><ele>629.78</ele><time>2026-04-10T23:45:20.000Z</time></trkpt>
        <trkpt lat="28.735464" lon="104.657425"><ele>631.11</ele><time>2026-04-10T23:45:32.000Z</time></trkpt>
        <trkpt lat="28.7353801" lon="104.6573742"><ele>632.54</ele><time>2026-04-10T23:49:31.000Z</time></trkpt>
        <trkpt lat="28.7352773" lon="104.6573601"><ele>632.32</ele><time>2026-04-10T23:49:51.000Z</time></trkpt>
        <trkpt lat="28.7353241" lon="104.6572861"><ele>632.01</ele><time>2026-04-10T23:50:27.000Z</time></trkpt>
        <trkpt lat="28.7353986" lon="104.657206"><ele>631.93</ele><time>2026-04-10T23:50:43.000Z</time></trkpt>
        <trkpt lat="28.7354639" lon="104.6571786"><ele>631.17</ele><time>2026-04-10T23:51:03.000Z</time></trkpt>
        <trkpt lat="28.7354321" lon="104.6572377"><ele>630.77</ele><time>2026-04-10T23:51:39.000Z</time></trkpt>
        <trkpt lat="28.7353523" lon="104.6573021"><ele>630.46</ele><time>2026-04-10T23:51:49.000Z</time></trkpt>
        <trkpt lat="28.7352813" lon="104.6573374"><ele>631.36</ele><time>2026-04-10T23:52:07.000Z</time></trkpt>
        <trkpt lat="28.7351821" lon="104.657344"><ele>632.49</ele><time>2026-04-10T23:52:43.000Z</time></trkpt>
        <trkpt lat="28.7350769" lon="104.6573421"><ele>634.56</ele><time>2026-04-10T23:52:59.000Z</time></trkpt>
        <trkpt lat="28.7350097" lon="104.657418"><ele>636.28</ele><time>2026-04-10T23:54:57.000Z</time></trkpt>
        <trkpt lat="28.735113" lon="104.657454"><ele>636.62</ele><time>2026-04-10T23:55:19.000Z</time></trkpt>
        <trkpt lat="28.73519" lon="104.6574648"><ele>636.51</ele><time>2026-04-10T23:55:35.000Z</time></trkpt>
        <trkpt lat="28.7351368" lon="104.6574981"><ele>635.16</ele><time>2026-04-10T23:55:55.000Z</time></trkpt>
        <trkpt lat="28.7350424" lon="104.6575146"><ele>634.67</ele><time>2026-04-10T23:56:09.000Z</time></trkpt>
        <trkpt lat="28.7349189" lon="104.6575017"><ele>634.07</ele><time>2026-04-10T23:56:19.000Z</time></trkpt>
        <trkpt lat="28.734834" lon="104.6574929"><ele>635.41</ele><time>2026-04-10T23:56:27.000Z</time></trkpt>
        <trkpt lat="28.7347397" lon="104.6574949"><ele>635.65</ele><time>2026-04-10T23:56:47.000Z</time></trkpt>
        <trkpt lat="28.7346413" lon="104.6575054"><ele>636.17</ele><time>2026-04-10T23:56:59.000Z</time></trkpt>
        <trkpt lat="28.7345536" lon="104.6575436"><ele>635.33</ele><time>2026-04-10T23:57:19.000Z</time></trkpt>
        <trkpt lat="28.7344579" lon="104.657563"><ele>634.53</ele><time>2026-04-10T23:58:07.000Z</time></trkpt>
        <trkpt lat="28.7344039" lon="104.657486"><ele>632.95</ele><time>2026-04-10T23:58:17.000Z</time></trkpt>
        <trkpt lat="28.7343565" lon="104.6573855"><ele>631.13</ele><time>2026-04-10T23:58:27.000Z</time></trkpt>
        <trkpt lat="28.7342994" lon="104.6572896"><ele>628.32</ele><time>2026-04-10T23:58:39.000Z</time></trkpt>
        <trkpt lat="28.7342205" lon="104.6572264"><ele>626.95</ele><time>2026-04-10T23:58:53.000Z</time></trkpt>
        <trkpt lat="28.7341404" lon="104.6571529"><ele>628.61</ele><time>2026-04-10T23:59:07.000Z</time></trkpt>
        <trkpt lat="28.7340642" lon="104.6570797"><ele>629.54</ele><time>2026-04-10T23:59:29.000Z</time></trkpt>
        <trkpt lat="28.733983" lon="104.6570261"><ele>631.53</ele><time>2026-04-10T23:59:41.000Z</time></trkpt>
        <trkpt lat="28.7339011" lon="104.6569668"><ele>634.87</ele><time>2026-04-10T23:59:57.000Z</time></trkpt>
        <trkpt lat="28.7338162" lon="104.6569209"><ele>636.78</ele><time>2026-04-11T00:00:11.000Z</time></trkpt>
        <trkpt lat="28.7337471" lon="104.6568541"><ele>640.76</ele><time>2026-04-11T00:00:29.000Z</time></trkpt>
        <trkpt lat="28.7337" lon="104.6567664"><ele>641.37</ele><time>2026-04-11T00:01:05.000Z</time></trkpt>
        <trkpt lat="28.7336853" lon="104.6568781"><ele>641.35</ele><time>2026-04-11T00:07:05.000Z</time></trkpt>
        <trkpt lat="28.7338034" lon="104.6567455"><ele>644.94</ele><time>2026-04-11T00:12:46.000Z</time></trkpt>
        <trkpt lat="28.7338983" lon="104.6566071"><ele>649.19</ele><time>2026-04-11T00:12:52.000Z</time></trkpt>
        <trkpt lat="28.7339739" lon="104.6565121"><ele>653.5</ele><time>2026-04-11T00:13:16.000Z</time></trkpt>
        <trkpt lat="28.7340398" lon="104.6564358"><ele>656.78</ele><time>2026-04-11T00:13:58.000Z</time></trkpt>
        <trkpt lat="28.7341072" lon="104.656372"><ele>665</ele><time>2026-04-11T00:14:12.000Z</time></trkpt>
        <trkpt lat="28.7340885" lon="104.6562853"><ele>666.26</ele><time>2026-04-11T00:14:28.000Z</time></trkpt>
        <trkpt lat="28.7341146" lon="104.6561991"><ele>665.34</ele><time>2026-04-11T00:14:48.000Z</time></trkpt>
        <trkpt lat="28.7341626" lon="104.656143"><ele>666.49</ele><time>2026-04-11T00:14:58.000Z</time></trkpt>
        <trkpt lat="28.7340717" lon="104.6561708"><ele>666.06</ele><time>2026-04-11T00:17:22.000Z</time></trkpt>
        <trkpt lat="28.7340659" lon="104.6561737"><ele>664.4</ele><time>2026-04-11T00:17:26.000Z</time></trkpt>
        <trkpt lat="28.7340068" lon="104.6560897"><ele>664.18</ele><time>2026-04-11T00:27:20.000Z</time></trkpt>
        <trkpt lat="28.7339321" lon="104.6560305"><ele>662.45</ele><time>2026-04-11T00:27:42.000Z</time></trkpt>
        <trkpt lat="28.7339094" lon="104.6559281"><ele>660.74</ele><time>2026-04-11T00:28:02.000Z</time></trkpt>
        <trkpt lat="28.7338544" lon="104.6558489"><ele>660.47</ele><time>2026-04-11T00:28:12.000Z</time></trkpt>
        <trkpt lat="28.7337991" lon="104.655767"><ele>660.97</ele><time>2026-04-11T00:28:24.000Z</time></trkpt>
        <trkpt lat="28.7337332" lon="104.655692"><ele>662.01</ele><time>2026-04-11T00:28:38.000Z</time></trkpt>
        <trkpt lat="28.7336662" lon="104.6556122"><ele>662.51</ele><time>2026-04-11T00:29:02.000Z</time></trkpt>
        <trkpt lat="28.7336004" lon="104.6555372"><ele>661.82</ele><time>2026-04-11T00:29:26.000Z</time></trkpt>
        <trkpt lat="28.7335172" lon="104.6554912"><ele>661.67</ele><time>2026-04-11T00:29:42.000Z</time></trkpt>
        <trkpt lat="28.7334391" lon="104.6554172"><ele>660.79</ele><time>2026-04-11T00:29:54.000Z</time></trkpt>
        <trkpt lat="28.7333489" lon="104.6553777"><ele>658.3</ele><time>2026-04-11T00:30:06.000Z</time></trkpt>
        <trkpt lat="28.7332557" lon="104.6554042"><ele>656.55</ele><time>2026-04-11T00:30:16.000Z</time></trkpt>
        <trkpt lat="28.733167" lon="104.6554512"><ele>655.17</ele><time>2026-04-11T00:30:26.000Z</time></trkpt>
        <trkpt lat="28.7330782" lon="104.6555161"><ele>652.81</ele><time>2026-04-11T00:30:44.000Z</time></trkpt>
        <trkpt lat="28.7329798" lon="104.6555614"><ele>653.34</ele><time>2026-04-11T00:30:56.000Z</time></trkpt>
        <trkpt lat="28.7328831" lon="104.6555752"><ele>653.55</ele><time>2026-04-11T00:31:08.000Z</time></trkpt>
        <trkpt lat="28.7327871" lon="104.6555713"><ele>652.73</ele><time>2026-04-11T00:31:22.000Z</time></trkpt>
        <trkpt lat="28.7327039" lon="104.6555273"><ele>653.92</ele><time>2026-04-11T00:31:36.000Z</time></trkpt>
        <trkpt lat="28.7326288" lon="104.6554442"><ele>653.45</ele><time>2026-04-11T00:31:48.000Z</time></trkpt>
        <trkpt lat="28.7325874" lon="104.6553366"><ele>651.62</ele><time>2026-04-11T00:32:00.000Z</time></trkpt>
        <trkpt lat="28.7325139" lon="104.655275"><ele>652.26</ele><time>2026-04-11T00:32:14.000Z</time></trkpt>
        <trkpt lat="28.7324274" lon="104.6552493"><ele>653.71</ele><time>2026-04-11T00:32:26.000Z</time></trkpt>
        <trkpt lat="28.7323305" lon="104.6552183"><ele>655.87</ele><time>2026-04-11T00:32:42.000Z</time></trkpt>
        <trkpt lat="28.7322313" lon="104.6552185"><ele>657.27</ele><time>2026-04-11T00:32:58.000Z</time></trkpt>
        <trkpt lat="28.7321308" lon="104.6552367"><ele>656.54</ele><time>2026-04-11T00:33:10.000Z</time></trkpt>
        <trkpt lat="28.7320383" lon="104.6552716"><ele>653.38</ele><time>2026-04-11T00:33:20.000Z</time></trkpt>
        <trkpt lat="28.7319498" lon="104.6553179"><ele>648.23</ele><time>2026-04-11T00:33:30.000Z</time></trkpt>
        <trkpt lat="28.7318544" lon="104.6553575"><ele>644</ele><time>2026-04-11T00:33:40.000Z</time></trkpt>
        <trkpt lat="28.7317554" lon="104.6553437"><ele>641.69</ele><time>2026-04-11T00:33:54.000Z</time></trkpt>
        <trkpt lat="28.7316811" lon="104.6552714"><ele>639.62</ele><time>2026-04-11T00:34:06.000Z</time></trkpt>
        <trkpt lat="28.7316362" lon="104.655166"><ele>639.53</ele><time>2026-04-11T00:34:18.000Z</time></trkpt>
        <trkpt lat="28.731589" lon="104.6550505"><ele>639.04</ele><time>2026-04-11T00:34:30.000Z</time></trkpt>
        <trkpt lat="28.7315304" lon="104.6549553"><ele>640</ele><time>2026-04-11T00:34:40.000Z</time></trkpt>
        <trkpt lat="28.7314898" lon="104.65485"><ele>643.05</ele><time>2026-04-11T00:34:48.000Z</time></trkpt>
        <trkpt lat="28.7314869" lon="104.6547409"><ele>644.42</ele><time>2026-04-11T00:34:56.000Z</time></trkpt>
        <trkpt lat="28.7315017" lon="104.6546341"><ele>645.13</ele><time>2026-04-11T00:35:04.000Z</time></trkpt>
        <trkpt lat="28.7314929" lon="104.6545257"><ele>645.24</ele><time>2026-04-11T00:35:16.000Z</time></trkpt>
        <trkpt lat="28.7314691" lon="104.65441"><ele>646.54</ele><time>2026-04-11T00:35:28.000Z</time></trkpt>
        <trkpt lat="28.7314469" lon="104.6542973"><ele>646.05</ele><time>2026-04-11T00:35:40.000Z</time></trkpt>
        <trkpt lat="28.7314232" lon="104.6541925"><ele>645.39</ele><time>2026-04-11T00:35:52.000Z</time></trkpt>
        <trkpt lat="28.7314252" lon="104.6540902"><ele>642.97</ele><time>2026-04-11T00:36:00.000Z</time></trkpt>
        <trkpt lat="28.7314397" lon="104.6539887"><ele>641.27</ele><time>2026-04-11T00:36:08.000Z</time></trkpt>
        <trkpt lat="28.7314492" lon="104.6538776"><ele>640.18</ele><time>2026-04-11T00:36:20.000Z</time></trkpt>
        <trkpt lat="28.7314685" lon="104.6537742"><ele>640.16</ele><time>2026-04-11T00:36:30.000Z</time></trkpt>
        <trkpt lat="28.7314843" lon="104.6536705"><ele>638.86</ele><time>2026-04-11T00:36:40.000Z</time></trkpt>
        <trkpt lat="28.7315086" lon="104.6535632"><ele>638.87</ele><time>2026-04-11T00:37:10.000Z</time></trkpt>
        <trkpt lat="28.7315467" lon="104.6534507"><ele>638.55</ele><time>2026-04-11T00:37:22.000Z</time></trkpt>
        <trkpt lat="28.7315654" lon="104.6533387"><ele>638.15</ele><time>2026-04-11T00:37:34.000Z</time></trkpt>
        <trkpt lat="28.7315567" lon="104.6532325"><ele>637.05</ele><time>2026-04-11T00:37:54.000Z</time></trkpt>
        <trkpt lat="28.7315872" lon="104.6531408"><ele>637.28</ele><time>2026-04-11T00:38:06.000Z</time></trkpt>
        <trkpt lat="28.7316525" lon="104.6530717"><ele>636.32</ele><time>2026-04-11T00:38:14.000Z</time></trkpt>
        <trkpt lat="28.7317358" lon="104.6530078"><ele>635.13</ele><time>2026-04-11T00:38:22.000Z</time></trkpt>
        <trkpt lat="28.7318268" lon="104.6529591"><ele>632.53</ele><time>2026-04-11T00:38:32.000Z</time></trkpt>
        <trkpt lat="28.7318809" lon="104.6529066"><ele>631.1</ele><time>2026-04-11T00:38:44.000Z</time></trkpt>
        <trkpt lat="28.7319488" lon="104.6528526"><ele>629.65</ele><time>2026-04-11T00:39:00.000Z</time></trkpt>
        <trkpt lat="28.7319637" lon="104.6528279"><ele>627.66</ele><time>2026-04-11T00:39:04.000Z</time></trkpt>
        <trkpt lat="28.7320275" lon="104.6527834"><ele>627.6</ele><time>2026-04-11T00:41:37.000Z</time></trkpt>
        <trkpt lat="28.7320238" lon="104.6527805"><ele>624.21</ele><time>2026-04-11T00:41:39.000Z</time></trkpt>
        <trkpt lat="28.7319538" lon="104.6528581"><ele>622.49</ele><time>2026-04-11T00:42:53.000Z</time></trkpt>
        <trkpt lat="28.7320514" lon="104.6528267"><ele>622.87</ele><time>2026-04-11T00:43:16.000Z</time></trkpt>
        <trkpt lat="28.7321491" lon="104.6528064"><ele>622.06</ele><time>2026-04-11T00:43:26.000Z</time></trkpt>
        <trkpt lat="28.7322369" lon="104.6527744"><ele>623.21</ele><time>2026-04-11T00:43:36.000Z</time></trkpt>
        <trkpt lat="28.732325" lon="104.6527368"><ele>624</ele><time>2026-04-11T00:43:48.000Z</time></trkpt>
        <trkpt lat="28.7324118" lon="104.6527013"><ele>624.41</ele><time>2026-04-11T00:44:00.000Z</time></trkpt>
        <trkpt lat="28.7325055" lon="104.6526943"><ele>624.75</ele><time>2026-04-11T00:44:58.000Z</time></trkpt>
        <trkpt lat="28.7325983" lon="104.6526964"><ele>623.06</ele><time>2026-04-11T00:45:10.000Z</time></trkpt>
        <trkpt lat="28.7326985" lon="104.6527217"><ele>621.52</ele><time>2026-04-11T00:45:28.000Z</time></trkpt>
        <trkpt lat="28.7327885" lon="104.6527761"><ele>621.17</ele><time>2026-04-11T00:45:40.000Z</time></trkpt>
        <trkpt lat="28.7328732" lon="104.6528331"><ele>619.16</ele><time>2026-04-11T00:45:58.000Z</time></trkpt>
        <trkpt lat="28.7329621" lon="104.652865"><ele>617.35</ele><time>2026-04-11T00:46:16.000Z</time></trkpt>
        <trkpt lat="28.7330467" lon="104.6529165"><ele>617.74</ele><time>2026-04-11T00:46:30.000Z</time></trkpt>
        <trkpt lat="28.7331175" lon="104.6529901"><ele>618.69</ele><time>2026-04-11T00:46:44.000Z</time></trkpt>
        <trkpt lat="28.733178" lon="104.6530701"><ele>618.15</ele><time>2026-04-11T00:46:56.000Z</time></trkpt>
        <trkpt lat="28.7332471" lon="104.6531473"><ele>618.47</ele><time>2026-04-11T00:47:10.000Z</time></trkpt>
        <trkpt lat="28.7332624" lon="104.653267"><ele>617.71</ele><time>2026-04-11T00:47:24.000Z</time></trkpt>
        <trkpt lat="28.7332761" lon="104.6533861"><ele>616.03</ele><time>2026-04-11T00:47:38.000Z</time></trkpt>
        <trkpt lat="28.733273" lon="104.6534173"><ele>614.85</ele><time>2026-04-11T00:47:40.000Z</time></trkpt>
        <trkpt lat="28.7332895" lon="104.6534922"><ele>614.4</ele><time>2026-04-11T00:47:58.000Z</time></trkpt>
        <trkpt lat="28.7333149" lon="104.653594"><ele>614.4</ele><time>2026-04-11T00:48:08.000Z</time></trkpt>
        <trkpt lat="28.7332625" lon="104.6536737"><ele>612.84</ele><time>2026-04-11T00:48:22.000Z</time></trkpt>
        <trkpt lat="28.7331625" lon="104.6537026"><ele>611.9</ele><time>2026-04-11T00:48:34.000Z</time></trkpt>
        <trkpt lat="28.7331265" lon="104.6537047"><ele>610.78</ele><time>2026-04-11T00:48:36.000Z</time></trkpt>
        <trkpt lat="28.7332196" lon="104.6537188"><ele>610.37</ele><time>2026-04-11T00:48:51.000Z</time></trkpt>
        <trkpt lat="28.7331963" lon="104.6537889"><ele>606.01</ele><time>2026-04-11T00:50:10.000Z</time></trkpt>
        <trkpt lat="28.7332716" lon="104.6536814"><ele>606.1</ele><time>2026-04-11T00:53:46.000Z</time></trkpt>
        <trkpt lat="28.7333704" lon="104.653646"><ele>609.81</ele><time>2026-04-11T00:53:54.000Z</time></trkpt>
        <trkpt lat="28.7334629" lon="104.6536506"><ele>611.4</ele><time>2026-04-11T00:54:04.000Z</time></trkpt>
        <trkpt lat="28.7335626" lon="104.6536763"><ele>612.58</ele><time>2026-04-11T00:54:14.000Z</time></trkpt>
        <trkpt lat="28.7336631" lon="104.653712"><ele>612.77</ele><time>2026-04-11T00:54:24.000Z</time></trkpt>
        <trkpt lat="28.7337352" lon="104.6537482"><ele>614.28</ele><time>2026-04-11T00:54:32.000Z</time></trkpt>
        <trkpt lat="28.7337665" lon="104.6538401"><ele>614.85</ele><time>2026-04-11T00:55:26.000Z</time></trkpt>
        <trkpt lat="28.7337788" lon="104.6539529"><ele>612.03</ele><time>2026-04-11T00:55:44.000Z</time></trkpt>
        <trkpt lat="28.7338131" lon="104.6540604"><ele>610.67</ele><time>2026-04-11T00:56:10.000Z</time></trkpt>
        <trkpt lat="28.7338522" lon="104.6541693"><ele>611.53</ele><time>2026-04-11T00:56:24.000Z</time></trkpt>
        <trkpt lat="28.733894" lon="104.6542761"><ele>612.43</ele><time>2026-04-11T00:56:36.000Z</time></trkpt>
        <trkpt lat="28.7339391" lon="104.6543767"><ele>612.14</ele><time>2026-04-11T00:56:48.000Z</time></trkpt>
        <trkpt lat="28.7340028" lon="104.6544702"><ele>611.84</ele><time>2026-04-11T00:57:08.000Z</time></trkpt>
        <trkpt lat="28.7339943" lon="104.6545676"><ele>611.21</ele><time>2026-04-11T00:57:18.000Z</time></trkpt>
        <trkpt lat="28.7340342" lon="104.6546497"><ele>607.63</ele><time>2026-04-11T00:57:32.000Z</time></trkpt>
        <trkpt lat="28.7341028" lon="104.6547258"><ele>606.22</ele><time>2026-04-11T00:57:50.000Z</time></trkpt>
        <trkpt lat="28.7341889" lon="104.6547873"><ele>605.44</ele><time>2026-04-11T00:58:04.000Z</time></trkpt>
        <trkpt lat="28.7342814" lon="104.654836"><ele>605.52</ele><time>2026-04-11T00:58:16.000Z</time></trkpt>
        <trkpt lat="28.734377" lon="104.6548849"><ele>606.08</ele><time>2026-04-11T00:58:30.000Z</time></trkpt>
        <trkpt lat="28.7344713" lon="104.6549253"><ele>605.94</ele><time>2026-04-11T00:58:42.000Z</time></trkpt>
        <trkpt lat="28.7345602" lon="104.6549586"><ele>605.45</ele><time>2026-04-11T00:58:54.000Z</time></trkpt>
        <trkpt lat="28.7346426" lon="104.6550034"><ele>605.39</ele><time>2026-04-11T00:59:06.000Z</time></trkpt>
        <trkpt lat="28.7347325" lon="104.655064"><ele>605.57</ele><time>2026-04-11T00:59:20.000Z</time></trkpt>
        <trkpt lat="28.7348013" lon="104.6551388"><ele>606.32</ele><time>2026-04-11T00:59:32.000Z</time></trkpt>
        <trkpt lat="28.7348718" lon="104.6552196"><ele>605.98</ele><time>2026-04-11T00:59:46.000Z</time></trkpt>
        <trkpt lat="28.7349454" lon="104.6552863"><ele>606.02</ele><time>2026-04-11T00:59:56.000Z</time></trkpt>
        <trkpt lat="28.7350197" lon="104.6553496"><ele>605.98</ele><time>2026-04-11T01:00:08.000Z</time></trkpt>
        <trkpt lat="28.7351126" lon="104.6553678"><ele>605.4</ele><time>2026-04-11T01:00:20.000Z</time></trkpt>
        <trkpt lat="28.7352047" lon="104.655332"><ele>604.28</ele><time>2026-04-11T01:00:30.000Z</time></trkpt>
        <trkpt lat="28.7352931" lon="104.6552591"><ele>602.09</ele><time>2026-04-11T01:00:42.000Z</time></trkpt>
        <trkpt lat="28.7353094" lon="104.6551467"><ele>599.86</ele><time>2026-04-11T01:00:54.000Z</time></trkpt>
        <trkpt lat="28.7352707" lon="104.6550314"><ele>599.71</ele><time>2026-04-11T01:01:06.000Z</time></trkpt>
        <trkpt lat="28.7351978" lon="104.6549447"><ele>601.05</ele><time>2026-04-11T01:01:16.000Z</time></trkpt>
        <trkpt lat="28.7350968" lon="104.6548833"><ele>602.03</ele><time>2026-04-11T01:01:28.000Z</time></trkpt>
        <trkpt lat="28.7349911" lon="104.6548324"><ele>603.01</ele><time>2026-04-11T01:01:40.000Z</time></trkpt>
        <trkpt lat="28.7348926" lon="104.6547865"><ele>603.6</ele><time>2026-04-11T01:01:50.000Z</time></trkpt>
        <trkpt lat="28.7347937" lon="104.6547396"><ele>603.62</ele><time>2026-04-11T01:02:04.000Z</time></trkpt>
        <trkpt lat="28.7347025" lon="104.6546984"><ele>603.06</ele><time>2026-04-11T01:02:14.000Z</time></trkpt>
        <trkpt lat="28.7346238" lon="104.6546457"><ele>601.76</ele><time>2026-04-11T01:02:24.000Z</time></trkpt>
        <trkpt lat="28.7345496" lon="104.6545872"><ele>601.09</ele><time>2026-04-11T01:02:34.000Z</time></trkpt>
        <trkpt lat="28.7344773" lon="104.6545137"><ele>600.54</ele><time>2026-04-11T01:02:46.000Z</time></trkpt>
        <trkpt lat="28.7344106" lon="104.6544289"><ele>599.84</ele><time>2026-04-11T01:02:58.000Z</time></trkpt>
        <trkpt lat="28.7343638" lon="104.6543234"><ele>597.97</ele><time>2026-04-11T01:03:10.000Z</time></trkpt>
        <trkpt lat="28.7343224" lon="104.6542213"><ele>596.47</ele><time>2026-04-11T01:03:22.000Z</time></trkpt>
        <trkpt lat="28.7342772" lon="104.6541248"><ele>595.04</ele><time>2026-04-11T01:03:34.000Z</time></trkpt>
        <trkpt lat="28.7342212" lon="104.6540312"><ele>595.06</ele><time>2026-04-11T01:03:46.000Z</time></trkpt>
        <trkpt lat="28.7341596" lon="104.6539439"><ele>594.72</ele><time>2026-04-11T01:03:58.000Z</time></trkpt>
        <trkpt lat="28.7340935" lon="104.6538655"><ele>593.86</ele><time>2026-04-11T01:04:10.000Z</time></trkpt>
        <trkpt lat="28.7340145" lon="104.6537901"><ele>593.45</ele><time>2026-04-11T01:04:22.000Z</time></trkpt>
        <trkpt lat="28.7339412" lon="104.6537115"><ele>592.96</ele><time>2026-04-11T01:04:34.000Z</time></trkpt>
        <trkpt lat="28.7338741" lon="104.6536379"><ele>591.72</ele><time>2026-04-11T01:04:44.000Z</time></trkpt>
        <trkpt lat="28.7338018" lon="104.6535631"><ele>591.53</ele><time>2026-04-11T01:04:56.000Z</time></trkpt>
        <trkpt lat="28.7337255" lon="104.653484"><ele>591.21</ele><time>2026-04-11T01:05:08.000Z</time></trkpt>
        <trkpt lat="28.7336582" lon="104.6533974"><ele>589.55</ele><time>2026-04-11T01:05:20.000Z</time></trkpt>
        <trkpt lat="28.733597" lon="104.6533094"><ele>588.2</ele><time>2026-04-11T01:05:32.000Z</time></trkpt>
        <trkpt lat="28.7335546" lon="104.6532034"><ele>587.2</ele><time>2026-04-11T01:05:44.000Z</time></trkpt>
        <trkpt lat="28.7335342" lon="104.6530987"><ele>585.27</ele><time>2026-04-11T01:05:56.000Z</time></trkpt>
        <trkpt lat="28.7335223" lon="104.6529885"><ele>583.72</ele><time>2026-04-11T01:06:08.000Z</time></trkpt>
        <trkpt lat="28.733511" lon="104.6528807"><ele>581.46</ele><time>2026-04-11T01:06:20.000Z</time></trkpt>
        <trkpt lat="28.7334971" lon="104.6527728"><ele>579.26</ele><time>2026-04-11T01:06:30.000Z</time></trkpt>
        <trkpt lat="28.7334948" lon="104.6526659"><ele>577.21</ele><time>2026-04-11T01:06:40.000Z</time></trkpt>
        <trkpt lat="28.7334939" lon="104.6525568"><ele>576.01</ele><time>2026-04-11T01:06:50.000Z</time></trkpt>
        <trkpt lat="28.7334707" lon="104.652445"><ele>575.99</ele><time>2026-04-11T01:07:02.000Z</time></trkpt>
        <trkpt lat="28.7333902" lon="104.6523885"><ele>576.14</ele><time>2026-04-11T01:07:12.000Z</time></trkpt>
        <trkpt lat="28.7334352" lon="104.6523604"><ele>576.17</ele><time>2026-04-11T01:07:40.000Z</time></trkpt>
        <trkpt lat="28.7334582" lon="104.6523627"><ele>575.1</ele><time>2026-04-11T01:07:42.000Z</time></trkpt>
        <trkpt lat="28.7335129" lon="104.6523104"><ele>574.96</ele><time>2026-04-11T01:08:02.000Z</time></trkpt>
        <trkpt lat="28.733542" lon="104.6522836"><ele>575.14</ele><time>2026-04-11T01:08:06.000Z</time></trkpt>
        <trkpt lat="28.7336156" lon="104.6522934"><ele>574.75</ele><time>2026-04-11T01:08:40.000Z</time></trkpt>
        <trkpt lat="28.7336873" lon="104.6523702"><ele>574.5</ele><time>2026-04-11T01:08:51.000Z</time></trkpt>
        <trkpt lat="28.7337173" lon="104.6524865"><ele>575.61</ele><time>2026-04-11T01:09:03.000Z</time></trkpt>
        <trkpt lat="28.7337192" lon="104.6526058"><ele>576.3</ele><time>2026-04-11T01:09:13.000Z</time></trkpt>
        <trkpt lat="28.733711" lon="104.65272"><ele>576.81</ele><time>2026-04-11T01:09:25.000Z</time></trkpt>
        <trkpt lat="28.7336641" lon="104.6528399"><ele>577.05</ele><time>2026-04-11T01:09:49.000Z</time></trkpt>
        <trkpt lat="28.7336523" lon="104.6529493"><ele>575.47</ele><time>2026-04-11T01:09:53.000Z</time></trkpt>
        <trkpt lat="28.7336423" lon="104.653066"><ele>573.53</ele><time>2026-04-11T01:10:03.000Z</time></trkpt>
        <trkpt lat="28.733675" lon="104.6531683"><ele>573.75</ele><time>2026-04-11T01:10:13.000Z</time></trkpt>
        <trkpt lat="28.7337452" lon="104.6532646"><ele>574.13</ele><time>2026-04-11T01:10:25.000Z</time></trkpt>
        <trkpt lat="28.7338324" lon="104.6533305"><ele>573.29</ele><time>2026-04-11T01:10:35.000Z</time></trkpt>
        <trkpt lat="28.7339258" lon="104.653384"><ele>571.96</ele><time>2026-04-11T01:10:47.000Z</time></trkpt>
        <trkpt lat="28.7340103" lon="104.6534361"><ele>570.9</ele><time>2026-04-11T01:10:57.000Z</time></trkpt>
        <trkpt lat="28.7340891" lon="104.6535034"><ele>571</ele><time>2026-04-11T01:11:09.000Z</time></trkpt>
        <trkpt lat="28.7341746" lon="104.6535735"><ele>570.24</ele><time>2026-04-11T01:11:21.000Z</time></trkpt>
        <trkpt lat="28.7342531" lon="104.6536385"><ele>569.67</ele><time>2026-04-11T01:11:31.000Z</time></trkpt>
        <trkpt lat="28.7343223" lon="104.65371"><ele>568.04</ele><time>2026-04-11T01:11:41.000Z</time></trkpt>
        <trkpt lat="28.7343956" lon="104.6537751"><ele>568.1</ele><time>2026-04-11T01:11:51.000Z</time></trkpt>
        <trkpt lat="28.7344805" lon="104.6538261"><ele>568.34</ele><time>2026-04-11T01:12:03.000Z</time></trkpt>
        <trkpt lat="28.7345605" lon="104.6538897"><ele>568.5</ele><time>2026-04-11T01:12:17.000Z</time></trkpt>
        <trkpt lat="28.7346366" lon="104.6539495"><ele>569.01</ele><time>2026-04-11T01:12:29.000Z</time></trkpt>
        <trkpt lat="28.7347135" lon="104.6540079"><ele>568.46</ele><time>2026-04-11T01:12:41.000Z</time></trkpt>
        <trkpt lat="28.7347881" lon="104.6540748"><ele>568.1</ele><time>2026-04-11T01:12:53.000Z</time></trkpt>
        <trkpt lat="28.7348738" lon="104.6541334"><ele>566.43</ele><time>2026-04-11T01:13:05.000Z</time></trkpt>
        <trkpt lat="28.7349643" lon="104.6541914"><ele>564.08</ele><time>2026-04-11T01:13:17.000Z</time></trkpt>
        <trkpt lat="28.7350497" lon="104.6542484"><ele>563.1</ele><time>2026-04-11T01:13:27.000Z</time></trkpt>
        <trkpt lat="28.7351249" lon="104.6543115"><ele>562.19</ele><time>2026-04-11T01:13:39.000Z</time></trkpt>
        <trkpt lat="28.735214" lon="104.6543824"><ele>560.56</ele><time>2026-04-11T01:13:51.000Z</time></trkpt>
        <trkpt lat="28.7352867" lon="104.6544659"><ele>560.19</ele><time>2026-04-11T01:14:03.000Z</time></trkpt>
        <trkpt lat="28.735354" lon="104.6545412"><ele>558.62</ele><time>2026-04-11T01:14:15.000Z</time></trkpt>
        <trkpt lat="28.7354066" lon="104.6546327"><ele>558.49</ele><time>2026-04-11T01:14:29.000Z</time></trkpt>
        <trkpt lat="28.7354601" lon="104.65473"><ele>559.17</ele><time>2026-04-11T01:14:43.000Z</time></trkpt>
        <trkpt lat="28.7355069" lon="104.6548224"><ele>559.52</ele><time>2026-04-11T01:14:53.000Z</time></trkpt>
        <trkpt lat="28.7355483" lon="104.654926"><ele>559.8</ele><time>2026-04-11T01:15:05.000Z</time></trkpt>
        <trkpt lat="28.73559" lon="104.6550337"><ele>559.39</ele><time>2026-04-11T01:15:17.000Z</time></trkpt>
        <trkpt lat="28.7356248" lon="104.6551353"><ele>557.83</ele><time>2026-04-11T01:15:35.000Z</time></trkpt>
        <trkpt lat="28.7356832" lon="104.6552216"><ele>557.06</ele><time>2026-04-11T01:15:47.000Z</time></trkpt>
        <trkpt lat="28.7357661" lon="104.6552864"><ele>558.54</ele><time>2026-04-11T01:16:01.000Z</time></trkpt>
        <trkpt lat="28.7358651" lon="104.6553277"><ele>561.58</ele><time>2026-04-11T01:16:27.000Z</time></trkpt>
        <trkpt lat="28.7359622" lon="104.6553421"><ele>564.07</ele><time>2026-04-11T01:16:39.000Z</time></trkpt>
        <trkpt lat="28.7360596" lon="104.6553304"><ele>566.41</ele><time>2026-04-11T01:16:51.000Z</time></trkpt>
        <trkpt lat="28.7361529" lon="104.6553158"><ele>567.36</ele><time>2026-04-11T01:17:03.000Z</time></trkpt>
        <trkpt lat="28.736258" lon="104.6553095"><ele>565.65</ele><time>2026-04-11T01:17:17.000Z</time></trkpt>
        <trkpt lat="28.7363551" lon="104.6553441"><ele>562.57</ele><time>2026-04-11T01:17:29.000Z</time></trkpt>
        <trkpt lat="28.7364332" lon="104.6554033"><ele>558</ele><time>2026-04-11T01:17:39.000Z</time></trkpt>
        <trkpt lat="28.7365084" lon="104.6554629"><ele>554.73</ele><time>2026-04-11T01:17:49.000Z</time></trkpt>
        <trkpt lat="28.7365727" lon="104.655543"><ele>553.95</ele><time>2026-04-11T01:17:59.000Z</time></trkpt>
        <trkpt lat="28.7366148" lon="104.655641"><ele>553.47</ele><time>2026-04-11T01:18:11.000Z</time></trkpt>
        <trkpt lat="28.7366427" lon="104.6557436"><ele>553.91</ele><time>2026-04-11T01:18:23.000Z</time></trkpt>
        <trkpt lat="28.7366624" lon="104.6558597"><ele>552.91</ele><time>2026-04-11T01:18:35.000Z</time></trkpt>
        <trkpt lat="28.736672" lon="104.6559735"><ele>553.13</ele><time>2026-04-11T01:18:47.000Z</time></trkpt>
        <trkpt lat="28.73671" lon="104.6560784"><ele>553.49</ele><time>2026-04-11T01:18:59.000Z</time></trkpt>
        <trkpt lat="28.7367821" lon="104.6561553"><ele>552.86</ele><time>2026-04-11T01:19:11.000Z</time></trkpt>
        <trkpt lat="28.7368753" lon="104.6561906"><ele>552.1</ele><time>2026-04-11T01:19:21.000Z</time></trkpt>
        <trkpt lat="28.7369763" lon="104.656218"><ele>553.49</ele><time>2026-04-11T01:19:33.000Z</time></trkpt>
        <trkpt lat="28.7370748" lon="104.6562582"><ele>553.31</ele><time>2026-04-11T01:19:47.000Z</time></trkpt>
        <trkpt lat="28.7371736" lon="104.6563076"><ele>552.2</ele><time>2026-04-11T01:19:59.000Z</time></trkpt>
        <trkpt lat="28.7372676" lon="104.6563679"><ele>550.08</ele><time>2026-04-11T01:20:11.000Z</time></trkpt>
        <trkpt lat="28.7373393" lon="104.6564399"><ele>548.02</ele><time>2026-04-11T01:20:21.000Z</time></trkpt>
        <trkpt lat="28.7374029" lon="104.6565228"><ele>547.61</ele><time>2026-04-11T01:20:33.000Z</time></trkpt>
        <trkpt lat="28.7374496" lon="104.6566145"><ele>547.73</ele><time>2026-04-11T01:20:47.000Z</time></trkpt>
        <trkpt lat="28.7374976" lon="104.6567199"><ele>548.28</ele><time>2026-04-11T01:20:59.000Z</time></trkpt>
        <trkpt lat="28.7375375" lon="104.6568183"><ele>549.78</ele><time>2026-04-11T01:21:09.000Z</time></trkpt>
        <trkpt lat="28.7375888" lon="104.6569089"><ele>551</ele><time>2026-04-11T01:21:21.000Z</time></trkpt>
        <trkpt lat="28.7376528" lon="104.6569914"><ele>552.12</ele><time>2026-04-11T01:21:33.000Z</time></trkpt>
        <trkpt lat="28.7377353" lon="104.6570428"><ele>553.47</ele><time>2026-04-11T01:21:43.000Z</time></trkpt>
        <trkpt lat="28.7378301" lon="104.6570485"><ele>553.96</ele><time>2026-04-11T01:21:53.000Z</time></trkpt>
        <trkpt lat="28.7379275" lon="104.65701"><ele>552.7</ele><time>2026-04-11T01:22:03.000Z</time></trkpt>
        <trkpt lat="28.7380247" lon="104.6569467"><ele>553.15</ele><time>2026-04-11T01:22:13.000Z</time></trkpt>
        <trkpt lat="28.7381051" lon="104.6568767"><ele>552.54</ele><time>2026-04-11T01:22:23.000Z</time></trkpt>
        <trkpt lat="28.7381779" lon="104.6567986"><ele>552.46</ele><time>2026-04-11T01:22:33.000Z</time></trkpt>
        <trkpt lat="28.7382649" lon="104.6567419"><ele>552.7</ele><time>2026-04-11T01:22:45.000Z</time></trkpt>
        <trkpt lat="28.7383549" lon="104.6566856"><ele>552.14</ele><time>2026-04-11T01:22:57.000Z</time></trkpt>
        <trkpt lat="28.7384514" lon="104.6566544"><ele>552.38</ele><time>2026-04-11T01:23:09.000Z</time></trkpt>
        <trkpt lat="28.7385365" lon="104.6565964"><ele>550.9</ele><time>2026-04-11T01:23:23.000Z</time></trkpt>
        <trkpt lat="28.7386233" lon="104.6565613"><ele>550.25</ele><time>2026-04-11T01:23:33.000Z</time></trkpt>
        <trkpt lat="28.7387099" lon="104.6565179"><ele>548.79</ele><time>2026-04-11T01:23:43.000Z</time></trkpt>
        <trkpt lat="28.7388021" lon="104.6564888"><ele>548.62</ele><time>2026-04-11T01:23:55.000Z</time></trkpt>
        <trkpt lat="28.7388835" lon="104.65643"><ele>546.74</ele><time>2026-04-11T01:24:47.000Z</time></trkpt>
        <trkpt lat="28.7389713" lon="104.6564037"><ele>545.25</ele><time>2026-04-11T01:24:59.000Z</time></trkpt>
        <trkpt lat="28.7390534" lon="104.6564382"><ele>543.83</ele><time>2026-04-11T01:25:07.000Z</time></trkpt>
        <trkpt lat="28.7391474" lon="104.6564934"><ele>542.05</ele><time>2026-04-11T01:25:17.000Z</time></trkpt>
        <trkpt lat="28.7392346" lon="104.6565728"><ele>539.62</ele><time>2026-04-11T01:25:29.000Z</time></trkpt>
        <trkpt lat="28.7393074" lon="104.6566564"><ele>537.88</ele><time>2026-04-11T01:25:39.000Z</time></trkpt>
        <trkpt lat="28.739366" lon="104.6567445"><ele>535.69</ele><time>2026-04-11T01:25:49.000Z</time></trkpt>
        <trkpt lat="28.7394339" lon="104.6568269"><ele>532.75</ele><time>2026-04-11T01:26:03.000Z</time></trkpt>
        <trkpt lat="28.7395087" lon="104.6569023"><ele>530.62</ele><time>2026-04-11T01:26:13.000Z</time></trkpt>
        <trkpt lat="28.7395876" lon="104.6569719"><ele>528.69</ele><time>2026-04-11T01:26:23.000Z</time></trkpt>
        <trkpt lat="28.7396776" lon="104.6570186"><ele>528.8</ele><time>2026-04-11T01:26:33.000Z</time></trkpt>
        <trkpt lat="28.7397704" lon="104.6570518"><ele>530.48</ele><time>2026-04-11T01:26:43.000Z</time></trkpt>
        <trkpt lat="28.739868" lon="104.657079"><ele>532.75</ele><time>2026-04-11T01:26:53.000Z</time></trkpt>
        <trkpt lat="28.7399625" lon="104.6571092"><ele>532.44</ele><time>2026-04-11T01:27:03.000Z</time></trkpt>
        <trkpt lat="28.7400588" lon="104.6571385"><ele>533.1</ele><time>2026-04-11T01:27:13.000Z</time></trkpt>
        <trkpt lat="28.7401674" lon="104.6571552"><ele>533.87</ele><time>2026-04-11T01:27:23.000Z</time></trkpt>
        <trkpt lat="28.7402685" lon="104.6571355"><ele>533.5</ele><time>2026-04-11T01:27:31.000Z</time></trkpt>
        <trkpt lat="28.7403593" lon="104.6571632"><ele>536.48</ele><time>2026-04-11T01:27:43.000Z</time></trkpt>
        <trkpt lat="28.7404488" lon="104.6571874"><ele>536.35</ele><time>2026-04-11T01:27:57.000Z</time></trkpt>
        <trkpt lat="28.7405288" lon="104.657235"><ele>533.87</ele><time>2026-04-11T01:28:09.000Z</time></trkpt>
        <trkpt lat="28.7405971" lon="104.6573063"><ele>530.01</ele><time>2026-04-11T01:28:31.000Z</time></trkpt>
        <trkpt lat="28.7406777" lon="104.6573502"><ele>526.22</ele><time>2026-04-11T01:28:43.000Z</time></trkpt>
        <trkpt lat="28.7407538" lon="104.6574078"><ele>524.15</ele><time>2026-04-11T01:28:55.000Z</time></trkpt>
        <trkpt lat="28.7407923" lon="104.657345"><ele>522.95</ele><time>2026-04-11T01:29:09.000Z</time></trkpt>
        <trkpt lat="28.7407581" lon="104.6572452"><ele>523.22</ele><time>2026-04-11T01:29:19.000Z</time></trkpt>
        <trkpt lat="28.740684" lon="104.657143"><ele>525.24</ele><time>2026-04-11T01:29:31.000Z</time></trkpt>
        <trkpt lat="28.7405941" lon="104.6570716"><ele>526.85</ele><time>2026-04-11T01:29:49.000Z</time></trkpt>
        <trkpt lat="28.7404907" lon="104.6570217"><ele>532.32</ele><time>2026-04-11T01:30:25.000Z</time></trkpt>
        <trkpt lat="28.7404" lon="104.6569664"><ele>533.38</ele><time>2026-04-11T01:30:37.000Z</time></trkpt>
        <trkpt lat="28.7403076" lon="104.6569174"><ele>532.83</ele><time>2026-04-11T01:30:53.000Z</time></trkpt>
        <trkpt lat="28.7402244" lon="104.6568687"><ele>532.47</ele><time>2026-04-11T01:31:19.000Z</time></trkpt>
        <trkpt lat="28.7401692" lon="104.6567798"><ele>529.56</ele><time>2026-04-11T01:31:35.000Z</time></trkpt>
        <trkpt lat="28.7401398" lon="104.65667"><ele>527.78</ele><time>2026-04-11T01:31:49.000Z</time></trkpt>
        <trkpt lat="28.740148" lon="104.6565528"><ele>525.88</ele><time>2026-04-11T01:32:01.000Z</time></trkpt>
        <trkpt lat="28.7401963" lon="104.6564454"><ele>522.87</ele><time>2026-04-11T01:32:13.000Z</time></trkpt>
        <trkpt lat="28.7402775" lon="104.6563671"><ele>518.97</ele><time>2026-04-11T01:32:27.000Z</time></trkpt>
        <trkpt lat="28.7403662" lon="104.6563151"><ele>515.32</ele><time>2026-04-11T01:32:39.000Z</time></trkpt>
        <trkpt lat="28.7404486" lon="104.6562465"><ele>512.55</ele><time>2026-04-11T01:32:59.000Z</time></trkpt>
        <trkpt lat="28.7405272" lon="104.6561803"><ele>509.84</ele><time>2026-04-11T01:33:13.000Z</time></trkpt>
        <trkpt lat="28.7406115" lon="104.6561302"><ele>508.84</ele><time>2026-04-11T01:33:29.000Z</time></trkpt>
        <trkpt lat="28.7406654" lon="104.6560518"><ele>506.76</ele><time>2026-04-11T01:33:39.000Z</time></trkpt>
        <trkpt lat="28.74075" lon="104.6560247"><ele>506.42</ele><time>2026-04-11T01:33:55.000Z</time></trkpt>
        <trkpt lat="28.7408375" lon="104.6559755"><ele>504.06</ele><time>2026-04-11T01:34:13.000Z</time></trkpt>
        <trkpt lat="28.7409231" lon="104.6559098"><ele>502</ele><time>2026-04-11T01:34:27.000Z</time></trkpt>
        <trkpt lat="28.7410062" lon="104.6558551"><ele>500.4</ele><time>2026-04-11T01:34:41.000Z</time></trkpt>
        <trkpt lat="28.7410907" lon="104.6558032"><ele>499.98</ele><time>2026-04-11T01:34:55.000Z</time></trkpt>
        <trkpt lat="28.7411785" lon="104.6557469"><ele>499.72</ele><time>2026-04-11T01:35:13.000Z</time></trkpt>
        <trkpt lat="28.7412077" lon="104.6557154"><ele>497.32</ele><time>2026-04-11T01:35:17.000Z</time></trkpt>
        <trkpt lat="28.7411367" lon="104.6557074"><ele>496.44</ele><time>2026-04-11T01:36:08.000Z</time></trkpt>
        <trkpt lat="28.7411741" lon="104.6557173"><ele>495.21</ele><time>2026-04-11T01:36:44.000Z</time></trkpt>
        <trkpt lat="28.7412519" lon="104.655698"><ele>492.99</ele><time>2026-04-11T01:37:11.000Z</time></trkpt>
        <trkpt lat="28.7413473" lon="104.6556704"><ele>487.59</ele><time>2026-04-11T01:37:29.000Z</time></trkpt>
        <trkpt lat="28.7414522" lon="104.6556575"><ele>483.37</ele><time>2026-04-11T01:37:53.000Z</time></trkpt>
        <trkpt lat="28.7415087" lon="104.6556456"><ele>479.49</ele><time>2026-04-11T01:38:03.000Z</time></trkpt>
        <trkpt lat="28.7415873" lon="104.6556289"><ele>476.94</ele><time>2026-04-11T01:38:19.000Z</time></trkpt>
        <trkpt lat="28.7416735" lon="104.6556068"><ele>476</ele><time>2026-04-11T01:38:45.000Z</time></trkpt>
        <trkpt lat="28.7417998" lon="104.6555764"><ele>474.67</ele><time>2026-04-11T01:39:23.000Z</time></trkpt>
        <trkpt lat="28.7418791" lon="104.6555008"><ele>472.41</ele><time>2026-04-11T01:39:35.000Z</time></trkpt>
        <trkpt lat="28.74194" lon="104.655413"><ele>472.03</ele><time>2026-04-11T01:39:51.000Z</time></trkpt>
        <trkpt lat="28.7420017" lon="104.6553275"><ele>471.75</ele><time>2026-04-11T01:40:09.000Z</time></trkpt>
        <trkpt lat="28.7420649" lon="104.655245"><ele>471.9</ele><time>2026-04-11T01:40:29.000Z</time></trkpt>
        <trkpt lat="28.7421318" lon="104.6551651"><ele>471.38</ele><time>2026-04-11T01:40:55.000Z</time></trkpt>
        <trkpt lat="28.742167" lon="104.6550657"><ele>468.65</ele><time>2026-04-11T01:41:11.000Z</time></trkpt>
        <trkpt lat="28.7421583" lon="104.6549537"><ele>466.34</ele><time>2026-04-11T01:41:25.000Z</time></trkpt>
        <trkpt lat="28.742148" lon="104.6548394"><ele>465.41</ele><time>2026-04-11T01:41:39.000Z</time></trkpt>
        <trkpt lat="28.7421668" lon="104.6547288"><ele>464.32</ele><time>2026-04-11T01:41:55.000Z</time></trkpt>
        <trkpt lat="28.7422424" lon="104.6546851"><ele>462.3</ele><time>2026-04-11T01:42:17.000Z</time></trkpt>
        <trkpt lat="28.7422737" lon="104.6547626"><ele>458.61</ele><time>2026-04-11T01:42:35.000Z</time></trkpt>
        <trkpt lat="28.7422549" lon="104.6547714"><ele>454.61</ele><time>2026-04-11T01:42:41.000Z</time></trkpt>
        <trkpt lat="28.7423431" lon="104.6547416"><ele>453.45</ele><time>2026-04-11T01:42:55.000Z</time></trkpt>
        <trkpt lat="28.7423618" lon="104.6547496"><ele>452.36</ele><time>2026-04-11T01:43:03.000Z</time></trkpt>
        <trkpt lat="28.7424326" lon="104.6547725"><ele>448.54</ele><time>2026-04-11T01:43:27.000Z</time></trkpt>
        <trkpt lat="28.7425246" lon="104.6548145"><ele>446.51</ele><time>2026-04-11T01:43:45.000Z</time></trkpt>
        <trkpt lat="28.7426098" lon="104.6548754"><ele>445.32</ele><time>2026-04-11T01:44:01.000Z</time></trkpt>
        <trkpt lat="28.7426922" lon="104.6549327"><ele>443.71</ele><time>2026-04-11T01:44:17.000Z</time></trkpt>
        <trkpt lat="28.7427702" lon="104.6550041"><ele>441.27</ele><time>2026-04-11T01:44:33.000Z</time></trkpt>
        <trkpt lat="28.742851" lon="104.6550618"><ele>441.44</ele><time>2026-04-11T01:44:51.000Z</time></trkpt>
        <trkpt lat="28.7429182" lon="104.6550923"><ele>438.36</ele><time>2026-04-11T01:45:09.000Z</time></trkpt>
        <trkpt lat="28.7429988" lon="104.6551247"><ele>435.62</ele><time>2026-04-11T01:45:23.000Z</time></trkpt>
        <trkpt lat="28.7430881" lon="104.6551464"><ele>433.67</ele><time>2026-04-11T01:45:49.000Z</time></trkpt>
        <trkpt lat="28.7431668" lon="104.6551982"><ele>431.29</ele><time>2026-04-11T01:46:05.000Z</time></trkpt>
        <trkpt lat="28.7432532" lon="104.655249"><ele>430.59</ele><time>2026-04-11T01:46:23.000Z</time></trkpt>
        <trkpt lat="28.7433516" lon="104.6552766"><ele>429.43</ele><time>2026-04-11T01:46:39.000Z</time></trkpt>
        <trkpt lat="28.7434451" lon="104.6553186"><ele>428.77</ele><time>2026-04-11T01:47:09.000Z</time></trkpt>
        <trkpt lat="28.7435367" lon="104.6553501"><ele>425.55</ele><time>2026-04-11T01:47:25.000Z</time></trkpt>
        <trkpt lat="28.743628" lon="104.6553969"><ele>423.52</ele><time>2026-04-11T01:47:51.000Z</time></trkpt>
        <trkpt lat="28.7437114" lon="104.6554456"><ele>419.77</ele><time>2026-04-11T01:48:09.000Z</time></trkpt>
        <trkpt lat="28.7437984" lon="104.6554782"><ele>417.12</ele><time>2026-04-11T01:48:31.000Z</time></trkpt>
        <trkpt lat="28.7438711" lon="104.6554301"><ele>415.16</ele><time>2026-04-11T01:48:57.000Z</time></trkpt>
        <trkpt lat="28.7439073" lon="104.6553246"><ele>413.29</ele><time>2026-04-11T01:49:15.000Z</time></trkpt>
        <trkpt lat="28.7438869" lon="104.6552061"><ele>411.19</ele><time>2026-04-11T01:49:31.000Z</time></trkpt>
        <trkpt lat="28.7438359" lon="104.6551037"><ele>408.77</ele><time>2026-04-11T01:49:43.000Z</time></trkpt>
        <trkpt lat="28.7437621" lon="104.6550158"><ele>406.73</ele><time>2026-04-11T01:49:57.000Z</time></trkpt>
        <trkpt lat="28.7436927" lon="104.6549331"><ele>404.41</ele><time>2026-04-11T01:50:11.000Z</time></trkpt>
        <trkpt lat="28.7436408" lon="104.6548361"><ele>402.44</ele><time>2026-04-11T01:50:29.000Z</time></trkpt>
        <trkpt lat="28.7436392" lon="104.6547338"><ele>400.12</ele><time>2026-04-11T01:50:47.000Z</time></trkpt>
        <trkpt lat="28.7436307" lon="104.6546549"><ele>397.78</ele><time>2026-04-11T01:50:59.000Z</time></trkpt>
        <trkpt lat="28.743578" lon="104.6545736"><ele>396.41</ele><time>2026-04-11T01:51:25.000Z</time></trkpt>
        <trkpt lat="28.7435483" lon="104.6544714"><ele>394.07</ele><time>2026-04-11T01:51:41.000Z</time></trkpt>
        <trkpt lat="28.7435603" lon="104.654399"><ele>392.51</ele><time>2026-04-11T01:51:55.000Z</time></trkpt>
        <trkpt lat="28.7435915" lon="104.6543109"><ele>391.46</ele><time>2026-04-11T01:52:07.000Z</time></trkpt>
        <trkpt lat="28.7436259" lon="104.6542069"><ele>391.93</ele><time>2026-04-11T01:52:49.000Z</time></trkpt>
        <trkpt lat="28.7436827" lon="104.6541186"><ele>391.63</ele><time>2026-04-11T01:53:05.000Z</time></trkpt>
        <trkpt lat="28.743766" lon="104.6540572"><ele>390.72</ele><time>2026-04-11T01:53:19.000Z</time></trkpt>
        <trkpt lat="28.7438667" lon="104.6540338"><ele>389.33</ele><time>2026-04-11T01:54:35.000Z</time></trkpt>
        <trkpt lat="28.7439803" lon="104.6540369"><ele>387.54</ele><time>2026-04-11T01:55:21.000Z</time></trkpt>
        <trkpt lat="28.7439983" lon="104.6540379"><ele>386.75</ele><time>2026-04-11T01:55:23.000Z</time></trkpt>
        <trkpt lat="28.744065" lon="104.6540082"><ele>386.2</ele><time>2026-04-11T01:55:47.000Z</time></trkpt>
        <trkpt lat="28.7441498" lon="104.6540006"><ele>385.19</ele><time>2026-04-11T01:56:03.000Z</time></trkpt>
        <trkpt lat="28.7442404" lon="104.6540186"><ele>383.98</ele><time>2026-04-11T01:56:17.000Z</time></trkpt>
        <trkpt lat="28.7442876" lon="104.6541067"><ele>381.96</ele><time>2026-04-11T01:56:41.000Z</time></trkpt>
        <trkpt lat="28.744285" lon="104.6542166"><ele>379.29</ele><time>2026-04-11T01:57:01.000Z</time></trkpt>
        <trkpt lat="28.7442849" lon="104.6543356"><ele>377.11</ele><time>2026-04-11T01:57:25.000Z</time></trkpt>
        <trkpt lat="28.7443061" lon="104.6544427"><ele>375.62</ele><time>2026-04-11T01:57:43.000Z</time></trkpt>
        <trkpt lat="28.7443559" lon="104.6545332"><ele>373.95</ele><time>2026-04-11T01:58:05.000Z</time></trkpt>
        <trkpt lat="28.7444173" lon="104.6546193"><ele>371.62</ele><time>2026-04-11T01:58:23.000Z</time></trkpt>
        <trkpt lat="28.7444892" lon="104.654699"><ele>369.59</ele><time>2026-04-11T01:58:41.000Z</time></trkpt>
        <trkpt lat="28.7445576" lon="104.6547755"><ele>367.51</ele><time>2026-04-11T01:58:57.000Z</time></trkpt>
        <trkpt lat="28.7446212" lon="104.6548518"><ele>365.58</ele><time>2026-04-11T01:59:13.000Z</time></trkpt>
        <trkpt lat="28.7446523" lon="104.6549468"><ele>363.63</ele><time>2026-04-11T01:59:35.000Z</time></trkpt>
        <trkpt lat="28.7446366" lon="104.6550509"><ele>362.55</ele><time>2026-04-11T02:00:03.000Z</time></trkpt>
        <trkpt lat="28.7446281" lon="104.6551604"><ele>360.95</ele><time>2026-04-11T02:00:27.000Z</time></trkpt>
        <trkpt lat="28.7446695" lon="104.6552555"><ele>358.07</ele><time>2026-04-11T02:00:45.000Z</time></trkpt>
        <trkpt lat="28.7447493" lon="104.6553187"><ele>356.07</ele><time>2026-04-11T02:01:01.000Z</time></trkpt>
        <trkpt lat="28.7448419" lon="104.6553607"><ele>354.07</ele><time>2026-04-11T02:01:17.000Z</time></trkpt>
        <trkpt lat="28.7449382" lon="104.6553847"><ele>352.61</ele><time>2026-04-11T02:01:33.000Z</time></trkpt>
        <trkpt lat="28.7450324" lon="104.6553778"><ele>351.24</ele><time>2026-04-11T02:01:49.000Z</time></trkpt>
        <trkpt lat="28.7451158" lon="104.6553264"><ele>350.53</ele><time>2026-04-11T02:02:01.000Z</time></trkpt>
        <trkpt lat="28.7450849" lon="104.65525"><ele>350.4</ele><time>2026-04-11T02:02:35.000Z</time></trkpt>
        <trkpt lat="28.7450027" lon="104.6551852"><ele>348.42</ele><time>2026-04-11T02:02:55.000Z</time></trkpt>
        <trkpt lat="28.7449604" lon="104.6550866"><ele>345.62</ele><time>2026-04-11T02:03:23.000Z</time></trkpt>
        <trkpt lat="28.7449906" lon="104.6549935"><ele>343.12</ele><time>2026-04-11T02:03:37.000Z</time></trkpt>
        <trkpt lat="28.7450681" lon="104.6549312"><ele>341.06</ele><time>2026-04-11T02:03:51.000Z</time></trkpt>
        <trkpt lat="28.7451649" lon="104.6548965"><ele>341.47</ele><time>2026-04-11T02:04:03.000Z</time></trkpt>
        <trkpt lat="28.7452699" lon="104.6548737"><ele>342.14</ele><time>2026-04-11T02:04:13.000Z</time></trkpt>
        <trkpt lat="28.7453716" lon="104.6548566"><ele>340.89</ele><time>2026-04-11T02:04:27.000Z</time></trkpt>
        <trkpt lat="28.7454554" lon="104.6548091"><ele>340.2</ele><time>2026-04-11T02:04:57.000Z</time></trkpt>
        <trkpt lat="28.7454753" lon="104.6547179"><ele>337.61</ele><time>2026-04-11T02:05:13.000Z</time></trkpt>
        <trkpt lat="28.7455035" lon="104.6546862"><ele>333.57</ele><time>2026-04-11T02:05:27.000Z</time></trkpt>
        <trkpt lat="28.745573" lon="104.6546472"><ele>331.44</ele><time>2026-04-11T02:06:03.000Z</time></trkpt>
        <trkpt lat="28.7456483" lon="104.6545912"><ele>330.81</ele><time>2026-04-11T02:06:35.000Z</time></trkpt>
        <trkpt lat="28.7456802" lon="104.6544904"><ele>327.67</ele><time>2026-04-11T02:06:51.000Z</time></trkpt>
        <trkpt lat="28.7456859" lon="104.6543701"><ele>328.05</ele><time>2026-04-11T02:07:05.000Z</time></trkpt>
        <trkpt lat="28.7456929" lon="104.6542493"><ele>330.28</ele><time>2026-04-11T02:07:17.000Z</time></trkpt>
        <trkpt lat="28.7456952" lon="104.6541371"><ele>332.17</ele><time>2026-04-11T02:07:27.000Z</time></trkpt>
        <trkpt lat="28.7457026" lon="104.654027"><ele>333.18</ele><time>2026-04-11T02:07:37.000Z</time></trkpt>
        <trkpt lat="28.7457001" lon="104.6539195"><ele>333.7</ele><time>2026-04-11T02:07:47.000Z</time></trkpt>
        <trkpt lat="28.7456858" lon="104.6538079"><ele>333.43</ele><time>2026-04-11T02:07:59.000Z</time></trkpt>
        <trkpt lat="28.7456641" lon="104.6537027"><ele>333.53</ele><time>2026-04-11T02:08:11.000Z</time></trkpt>
        <trkpt lat="28.7456134" lon="104.653614"><ele>333.49</ele><time>2026-04-11T02:08:23.000Z</time></trkpt>
        <trkpt lat="28.7455398" lon="104.6535511"><ele>333.04</ele><time>2026-04-11T02:08:35.000Z</time></trkpt>
        <trkpt lat="28.7454548" lon="104.6534998"><ele>331.37</ele><time>2026-04-11T02:08:49.000Z</time></trkpt>
        <trkpt lat="28.7453699" lon="104.6534435"><ele>329.33</ele><time>2026-04-11T02:09:03.000Z</time></trkpt>
        <trkpt lat="28.7452885" lon="104.6533824"><ele>327.24</ele><time>2026-04-11T02:09:15.000Z</time></trkpt>
        <trkpt lat="28.7452117" lon="104.6533125"><ele>325.63</ele><time>2026-04-11T02:09:27.000Z</time></trkpt>
        <trkpt lat="28.7451441" lon="104.6532322"><ele>324.84</ele><time>2026-04-11T02:09:39.000Z</time></trkpt>
        <trkpt lat="28.7450763" lon="104.6531479"><ele>324.09</ele><time>2026-04-11T02:09:51.000Z</time></trkpt>
        <trkpt lat="28.7450017" lon="104.6530817"><ele>323.92</ele><time>2026-04-11T02:10:01.000Z</time></trkpt>
        <trkpt lat="28.7449269" lon="104.6530154"><ele>324.06</ele><time>2026-04-11T02:10:11.000Z</time></trkpt>
        <trkpt lat="28.7448513" lon="104.6529467"><ele>323.72</ele><time>2026-04-11T02:10:21.000Z</time></trkpt>
        <trkpt lat="28.7447848" lon="104.6528649"><ele>322.19</ele><time>2026-04-11T02:10:33.000Z</time></trkpt>
        <trkpt lat="28.7447187" lon="104.6527833"><ele>320.38</ele><time>2026-04-11T02:10:45.000Z</time></trkpt>
        <trkpt lat="28.744652" lon="104.6527012"><ele>319.74</ele><time>2026-04-11T02:10:57.000Z</time></trkpt>
        <trkpt lat="28.7445829" lon="104.6526189"><ele>319.55</ele><time>2026-04-11T02:11:09.000Z</time></trkpt>
        <trkpt lat="28.744512" lon="104.6525399"><ele>319.14</ele><time>2026-04-11T02:11:21.000Z</time></trkpt>
        <trkpt lat="28.7444435" lon="104.6524562"><ele>318.05</ele><time>2026-04-11T02:11:35.000Z</time></trkpt>
        <trkpt lat="28.7443767" lon="104.6523699"><ele>316.62</ele><time>2026-04-11T02:11:49.000Z</time></trkpt>
        <trkpt lat="28.7443086" lon="104.6522901"><ele>314.92</ele><time>2026-04-11T02:12:03.000Z</time></trkpt>
        <trkpt lat="28.7442312" lon="104.6522328"><ele>313.4</ele><time>2026-04-11T02:12:17.000Z</time></trkpt>
        <trkpt lat="28.744142" lon="104.6521888"><ele>311.67</ele><time>2026-04-11T02:12:35.000Z</time></trkpt>
        <trkpt lat="28.7440624" lon="104.6521314"><ele>309.44</ele><time>2026-04-11T02:12:51.000Z</time></trkpt>
        <trkpt lat="28.7440248" lon="104.6520321"><ele>306.55</ele><time>2026-04-11T02:13:13.000Z</time></trkpt>
        <trkpt lat="28.7440418" lon="104.6519263"><ele>302.86</ele><time>2026-04-11T02:13:29.000Z</time></trkpt>
        <trkpt lat="28.74408" lon="104.6518121"><ele>300.2</ele><time>2026-04-11T02:13:43.000Z</time></trkpt>
        <trkpt lat="28.7441079" lon="104.651699"><ele>298.39</ele><time>2026-04-11T02:13:55.000Z</time></trkpt>
        <trkpt lat="28.7441089" lon="104.6515909"><ele>296.62</ele><time>2026-04-11T02:14:07.000Z</time></trkpt>
        <trkpt lat="28.744095" lon="104.6514867"><ele>294.55</ele><time>2026-04-11T02:14:21.000Z</time></trkpt>
        <trkpt lat="28.7441068" lon="104.6513758"><ele>293.51</ele><time>2026-04-11T02:14:41.000Z</time></trkpt>
        <trkpt lat="28.7441555" lon="104.6512828"><ele>292.61</ele><time>2026-04-11T02:14:55.000Z</time></trkpt>
        <trkpt lat="28.744236" lon="104.6512112"><ele>292.07</ele><time>2026-04-11T02:15:09.000Z</time></trkpt>
        <trkpt lat="28.744329" lon="104.6511607"><ele>291.29</ele><time>2026-04-11T02:15:21.000Z</time></trkpt>
        <trkpt lat="28.7444127" lon="104.6512058"><ele>290.45</ele><time>2026-04-11T02:15:39.000Z</time></trkpt>
        <trkpt lat="28.7444772" lon="104.6512975"><ele>288.6</ele><time>2026-04-11T02:15:53.000Z</time></trkpt>
        <trkpt lat="28.7445376" lon="104.6513949"><ele>287.78</ele><time>2026-04-11T02:16:05.000Z</time></trkpt>
        <trkpt lat="28.7446006" lon="104.6514813"><ele>287.2</ele><time>2026-04-11T02:16:17.000Z</time></trkpt>
        <trkpt lat="28.7446766" lon="104.651543"><ele>287.04</ele><time>2026-04-11T02:17:20.000Z</time></trkpt>
        <trkpt lat="28.7447357" lon="104.6515818"><ele>287.54</ele><time>2026-04-11T02:17:34.000Z</time></trkpt>
        <trkpt lat="28.744817" lon="104.6516274"><ele>286.82</ele><time>2026-04-11T02:18:14.000Z</time></trkpt>
        <trkpt lat="28.7449063" lon="104.6516544"><ele>285.52</ele><time>2026-04-11T02:18:32.000Z</time></trkpt>
        <trkpt lat="28.7450054" lon="104.6516659"><ele>283.99</ele><time>2026-04-11T02:18:44.000Z</time></trkpt>
        <trkpt lat="28.7451031" lon="104.6516757"><ele>283.36</ele><time>2026-04-11T02:18:56.000Z</time></trkpt>
        <trkpt lat="28.7451982" lon="104.6516918"><ele>282.84</ele><time>2026-04-11T02:19:16.000Z</time></trkpt>
        <trkpt lat="28.745287" lon="104.6516668"><ele>282.12</ele><time>2026-04-11T02:19:38.000Z</time></trkpt>
        <trkpt lat="28.7453501" lon="104.6515831"><ele>281.13</ele><time>2026-04-11T02:19:50.000Z</time></trkpt>
        <trkpt lat="28.7453914" lon="104.6514708"><ele>281.11</ele><time>2026-04-11T02:20:02.000Z</time></trkpt>
        <trkpt lat="28.7454554" lon="104.651382"><ele>281.08</ele><time>2026-04-11T02:20:14.000Z</time></trkpt>
        <trkpt lat="28.7455368" lon="104.6513191"><ele>280.44</ele><time>2026-04-11T02:20:26.000Z</time></trkpt>
        <trkpt lat="28.7456256" lon="104.6512774"><ele>279.5</ele><time>2026-04-11T02:20:42.000Z</time></trkpt>
        <trkpt lat="28.7457242" lon="104.6512408"><ele>277.12</ele><time>2026-04-11T02:20:56.000Z</time></trkpt>
        <trkpt lat="28.7458129" lon="104.6511896"><ele>275.39</ele><time>2026-04-11T02:21:12.000Z</time></trkpt>
        <trkpt lat="28.7458853" lon="104.6511226"><ele>272.96</ele><time>2026-04-11T02:21:26.000Z</time></trkpt>
        <trkpt lat="28.7459567" lon="104.6510539"><ele>270.73</ele><time>2026-04-11T02:21:40.000Z</time></trkpt>
        <trkpt lat="28.7460275" lon="104.6509799"><ele>269.99</ele><time>2026-04-11T02:21:52.000Z</time></trkpt>
        <trkpt lat="28.7461048" lon="104.6509167"><ele>269.82</ele><time>2026-04-11T02:22:04.000Z</time></trkpt>
        <trkpt lat="28.7461869" lon="104.6508662"><ele>268.89</ele><time>2026-04-11T02:22:20.000Z</time></trkpt>
        <trkpt lat="28.7462777" lon="104.6508584"><ele>267.4</ele><time>2026-04-11T02:22:36.000Z</time></trkpt>
        <trkpt lat="28.7463657" lon="104.650827"><ele>264.43</ele><time>2026-04-11T02:22:50.000Z</time></trkpt>
        <trkpt lat="28.7463939" lon="104.6507388"><ele>263.44</ele><time>2026-04-11T02:23:10.000Z</time></trkpt>
        <trkpt lat="28.7463832" lon="104.6506302"><ele>262.74</ele><time>2026-04-11T02:23:26.000Z</time></trkpt>
        <trkpt lat="28.7463611" lon="104.6505142"><ele>261.69</ele><time>2026-04-11T02:23:40.000Z</time></trkpt>
        <trkpt lat="28.7463494" lon="104.6503899"><ele>260.3</ele><time>2026-04-11T02:23:54.000Z</time></trkpt>
        <trkpt lat="28.7463491" lon="104.6502775"><ele>258.89</ele><time>2026-04-11T02:24:06.000Z</time></trkpt>
        <trkpt lat="28.7463442" lon="104.6501611"><ele>258</ele><time>2026-04-11T02:24:24.000Z</time></trkpt>
        <trkpt lat="28.746348" lon="104.6500495"><ele>256.57</ele><time>2026-04-11T02:24:42.000Z</time></trkpt>
        <trkpt lat="28.7463625" lon="104.6499399"><ele>256.01</ele><time>2026-04-11T02:24:52.000Z</time></trkpt>
        <trkpt lat="28.7464246" lon="104.6498535"><ele>255.37</ele><time>2026-04-11T02:25:06.000Z</time></trkpt>
        <trkpt lat="28.7465081" lon="104.6497978"><ele>255.12</ele><time>2026-04-11T02:25:18.000Z</time></trkpt>
        <trkpt lat="28.7466012" lon="104.6497466"><ele>254.54</ele><time>2026-04-11T02:25:32.000Z</time></trkpt>
        <trkpt lat="28.7466899" lon="104.6496995"><ele>254.28</ele><time>2026-04-11T02:25:44.000Z</time></trkpt>
        <trkpt lat="28.7467659" lon="104.6496366"><ele>254.3</ele><time>2026-04-11T02:25:56.000Z</time></trkpt>
        <trkpt lat="28.7468445" lon="104.6495724"><ele>253.75</ele><time>2026-04-11T02:26:10.000Z</time></trkpt>
        <trkpt lat="28.746924" lon="104.6495025"><ele>252.55</ele><time>2026-04-11T02:26:22.000Z</time></trkpt>
        <trkpt lat="28.746995" lon="104.6494294"><ele>252.13</ele><time>2026-04-11T02:26:40.000Z</time></trkpt>
        <trkpt lat="28.7470649" lon="104.649359"><ele>251.34</ele><time>2026-04-11T02:26:56.000Z</time></trkpt>
        <trkpt lat="28.7471443" lon="104.6492984"><ele>250.24</ele><time>2026-04-11T02:27:10.000Z</time></trkpt>
        <trkpt lat="28.7472337" lon="104.6492393"><ele>249.57</ele><time>2026-04-11T02:27:26.000Z</time></trkpt>
        <trkpt lat="28.747327" lon="104.6491906"><ele>248.95</ele><time>2026-04-11T02:27:40.000Z</time></trkpt>
        <trkpt lat="28.7474168" lon="104.6491454"><ele>247.8</ele><time>2026-04-11T02:27:52.000Z</time></trkpt>
        <trkpt lat="28.7475078" lon="104.6490985"><ele>246.88</ele><time>2026-04-11T02:28:04.000Z</time></trkpt>
        <trkpt lat="28.7475904" lon="104.6490409"><ele>246.12</ele><time>2026-04-11T02:28:18.000Z</time></trkpt>
        <trkpt lat="28.7476588" lon="104.6489562"><ele>245.44</ele><time>2026-04-11T02:28:32.000Z</time></trkpt>
        <trkpt lat="28.7477036" lon="104.6488538"><ele>244.8</ele><time>2026-04-11T02:28:46.000Z</time></trkpt>
        <trkpt lat="28.7477296" lon="104.6487424"><ele>244.55</ele><time>2026-04-11T02:29:02.000Z</time></trkpt>
        <trkpt lat="28.7477744" lon="104.6486498"><ele>244.42</ele><time>2026-04-11T02:29:16.000Z</time></trkpt>
        <trkpt lat="28.7478486" lon="104.6485816"><ele>245.28</ele><time>2026-04-11T02:29:30.000Z</time></trkpt>
        <trkpt lat="28.7479092" lon="104.6484958"><ele>244.93</ele><time>2026-04-11T02:29:46.000Z</time></trkpt>
        <trkpt lat="28.747975" lon="104.6484041"><ele>245.07</ele><time>2026-04-11T02:30:00.000Z</time></trkpt>
        <trkpt lat="28.748047" lon="104.6483297"><ele>245.31</ele><time>2026-04-11T02:30:12.000Z</time></trkpt>
        <trkpt lat="28.748121" lon="104.6482621"><ele>245.26</ele><time>2026-04-11T02:30:24.000Z</time></trkpt>
        <trkpt lat="28.748179" lon="104.6481678"><ele>244.87</ele><time>2026-04-11T02:30:56.000Z</time></trkpt>
        <trkpt lat="28.7482482" lon="104.6480877"><ele>243.98</ele><time>2026-04-11T02:31:36.000Z</time></trkpt>
        <trkpt lat="28.7482914" lon="104.6479908"><ele>243.38</ele><time>2026-04-11T02:31:52.000Z</time></trkpt>
        <trkpt lat="28.7483339" lon="104.6478974"><ele>243.88</ele><time>2026-04-11T02:32:04.000Z</time></trkpt>
        <trkpt lat="28.7483875" lon="104.6478138"><ele>244.19</ele><time>2026-04-11T02:32:16.000Z</time></trkpt>
        <trkpt lat="28.7484468" lon="104.6477219"><ele>244.78</ele><time>2026-04-11T02:32:28.000Z</time></trkpt>
        <trkpt lat="28.7484897" lon="104.647619"><ele>245.85</ele><time>2026-04-11T02:32:44.000Z</time></trkpt>
        <trkpt lat="28.7485278" lon="104.6475125"><ele>247.35</ele><time>2026-04-11T02:32:58.000Z</time></trkpt>
        <trkpt lat="28.7485612" lon="104.6474052"><ele>248.22</ele><time>2026-04-11T02:33:12.000Z</time></trkpt>
        <trkpt lat="28.7486034" lon="104.6473092"><ele>247.32</ele><time>2026-04-11T02:33:26.000Z</time></trkpt>
        <trkpt lat="28.7486451" lon="104.6472125"><ele>245.97</ele><time>2026-04-11T02:33:38.000Z</time></trkpt>
        <trkpt lat="28.7486905" lon="104.64712"><ele>244.36</ele><time>2026-04-11T02:33:50.000Z</time></trkpt>
        <trkpt lat="28.7487397" lon="104.6470217"><ele>244.32</ele><time>2026-04-11T02:34:04.000Z</time></trkpt>
        <trkpt lat="28.7487786" lon="104.6469162"><ele>245.47</ele><time>2026-04-11T02:34:20.000Z</time></trkpt>
        <trkpt lat="28.7487977" lon="104.646807"><ele>247.79</ele><time>2026-04-11T02:34:36.000Z</time></trkpt>
        <trkpt lat="28.7488174" lon="104.6466987"><ele>250.82</ele><time>2026-04-11T02:34:52.000Z</time></trkpt>
        <trkpt lat="28.7488406" lon="104.6465839"><ele>254.87</ele><time>2026-04-11T02:35:06.000Z</time></trkpt>
        <trkpt lat="28.7488636" lon="104.6464702"><ele>257.26</ele><time>2026-04-11T02:35:22.000Z</time></trkpt>
        <trkpt lat="28.748899" lon="104.6463709"><ele>258.23</ele><time>2026-04-11T02:35:36.000Z</time></trkpt>
        <trkpt lat="28.7489338" lon="104.6462731"><ele>258.74</ele><time>2026-04-11T02:35:56.000Z</time></trkpt>
        <trkpt lat="28.7489507" lon="104.6461688"><ele>260.94</ele><time>2026-04-11T02:36:12.000Z</time></trkpt>
        <trkpt lat="28.7489599" lon="104.6460547"><ele>262.85</ele><time>2026-04-11T02:36:26.000Z</time></trkpt>
        <trkpt lat="28.7489356" lon="104.6459404"><ele>263.88</ele><time>2026-04-11T02:36:42.000Z</time></trkpt>
        <trkpt lat="28.7489552" lon="104.6458369"><ele>263.48</ele><time>2026-04-11T02:36:58.000Z</time></trkpt>
        <trkpt lat="28.7490352" lon="104.6457759"><ele>262.43</ele><time>2026-04-11T02:37:14.000Z</time></trkpt>
        <trkpt lat="28.7491058" lon="104.6458359"><ele>261.91</ele><time>2026-04-11T02:37:36.000Z</time></trkpt>
        <trkpt lat="28.7491664" lon="104.6459317"><ele>266.47</ele><time>2026-04-11T02:37:52.000Z</time></trkpt>
        <trkpt lat="28.7492285" lon="104.6460393"><ele>269.79</ele><time>2026-04-11T02:38:18.000Z</time></trkpt>
        <trkpt lat="28.7493009" lon="104.6461333"><ele>271.33</ele><time>2026-04-11T02:38:32.000Z</time></trkpt>
        <trkpt lat="28.7493892" lon="104.6461353"><ele>272.44</ele><time>2026-04-11T02:38:44.000Z</time></trkpt>
        <trkpt lat="28.7494782" lon="104.646089"><ele>275.11</ele><time>2026-04-11T02:38:58.000Z</time></trkpt>
        <trkpt lat="28.7495712" lon="104.6460419"><ele>278.19</ele><time>2026-04-11T02:39:12.000Z</time></trkpt>
        <trkpt lat="28.749669" lon="104.6460139"><ele>281.05</ele><time>2026-04-11T02:39:26.000Z</time></trkpt>
        <trkpt lat="28.7497698" lon="104.6460191"><ele>283.31</ele><time>2026-04-11T02:39:38.000Z</time></trkpt>
        <trkpt lat="28.7498598" lon="104.6460724"><ele>283.03</ele><time>2026-04-11T02:39:50.000Z</time></trkpt>
        <trkpt lat="28.749951" lon="104.6461239"><ele>282.42</ele><time>2026-04-11T02:40:02.000Z</time></trkpt>
        <trkpt lat="28.7500279" lon="104.6462083"><ele>282.03</ele><time>2026-04-11T02:40:15.000Z</time></trkpt>
        <trkpt lat="28.7500748" lon="104.6463051"><ele>280.13</ele><time>2026-04-11T02:40:26.000Z</time></trkpt>
        <trkpt lat="28.7501217" lon="104.64641"><ele>279.26</ele><time>2026-04-11T02:40:40.000Z</time></trkpt>
        <trkpt lat="28.7501574" lon="104.6465124"><ele>279.5</ele><time>2026-04-11T02:40:51.000Z</time></trkpt>
        <trkpt lat="28.7501822" lon="104.6466201"><ele>280.31</ele><time>2026-04-11T02:41:02.000Z</time></trkpt>
        <trkpt lat="28.7502225" lon="104.6467424"><ele>280.75</ele><time>2026-04-11T02:41:17.000Z</time></trkpt>
        <trkpt lat="28.7502625" lon="104.6468547"><ele>282.07</ele><time>2026-04-11T02:41:28.000Z</time></trkpt>
        <trkpt lat="28.7502871" lon="104.6469679"><ele>283.08</ele><time>2026-04-11T02:41:39.000Z</time></trkpt>
        <trkpt lat="28.7503146" lon="104.6470794"><ele>283.88</ele><time>2026-04-11T02:41:51.000Z</time></trkpt>
        <trkpt lat="28.7503569" lon="104.6471906"><ele>286.55</ele><time>2026-04-11T02:42:03.000Z</time></trkpt>
        <trkpt lat="28.7503927" lon="104.6473008"><ele>287.65</ele><time>2026-04-11T02:42:16.000Z</time></trkpt>
        <trkpt lat="28.7504454" lon="104.6474187"><ele>288.95</ele><time>2026-04-11T02:42:31.000Z</time></trkpt>
        <trkpt lat="28.7504821" lon="104.6475224"><ele>289.11</ele><time>2026-04-11T02:42:46.000Z</time></trkpt>
        <trkpt lat="28.7505174" lon="104.6476229"><ele>289.21</ele><time>2026-04-11T02:43:30.000Z</time></trkpt>
        <trkpt lat="28.7505658" lon="104.6477336"><ele>285.38</ele><time>2026-04-11T02:43:45.000Z</time></trkpt>
        <trkpt lat="28.7506189" lon="104.6478339"><ele>285.12</ele><time>2026-04-11T02:43:58.000Z</time></trkpt>
        <trkpt lat="28.7506536" lon="104.6479412"><ele>287.33</ele><time>2026-04-11T02:44:11.000Z</time></trkpt>
        <trkpt lat="28.7506947" lon="104.6480367"><ele>285.83</ele><time>2026-04-11T02:44:23.000Z</time></trkpt>
        <trkpt lat="28.7507283" lon="104.6481492"><ele>285.24</ele><time>2026-04-11T02:44:37.000Z</time></trkpt>
        <trkpt lat="28.7507563" lon="104.6482594"><ele>286.04</ele><time>2026-04-11T02:44:47.000Z</time></trkpt>
        <trkpt lat="28.7507898" lon="104.6483597"><ele>285.6</ele><time>2026-04-11T02:44:57.000Z</time></trkpt>
        <trkpt lat="28.7508451" lon="104.6484669"><ele>285.47</ele><time>2026-04-11T02:45:11.000Z</time></trkpt>
        <trkpt lat="28.7509346" lon="104.648496"><ele>286.74</ele><time>2026-04-11T02:45:23.000Z</time></trkpt>
        <trkpt lat="28.7510317" lon="104.64849"><ele>285.26</ele><time>2026-04-11T02:45:33.000Z</time></trkpt>
        <trkpt lat="28.7511459" lon="104.6484519"><ele>284.18</ele><time>2026-04-11T02:45:43.000Z</time></trkpt>
        <trkpt lat="28.7512441" lon="104.6484548"><ele>282.64</ele><time>2026-04-11T02:45:55.000Z</time></trkpt>
        <trkpt lat="28.7513407" lon="104.6484698"><ele>283.12</ele><time>2026-04-11T02:46:06.000Z</time></trkpt>
        <trkpt lat="28.7514384" lon="104.6484569"><ele>283.56</ele><time>2026-04-11T02:46:17.000Z</time></trkpt>
        <trkpt lat="28.7515336" lon="104.648417"><ele>283.34</ele><time>2026-04-11T02:46:29.000Z</time></trkpt>
        <trkpt lat="28.7516252" lon="104.6483739"><ele>283.43</ele><time>2026-04-11T02:46:39.000Z</time></trkpt>
        <trkpt lat="28.7517184" lon="104.6483047"><ele>282.61</ele><time>2026-04-11T02:46:53.000Z</time></trkpt>
        <trkpt lat="28.7518064" lon="104.6482432"><ele>282.65</ele><time>2026-04-11T02:47:05.000Z</time></trkpt>
        <trkpt lat="28.7518906" lon="104.6481712"><ele>283.6</ele><time>2026-04-11T02:47:15.000Z</time></trkpt>
        <trkpt lat="28.7519754" lon="104.648121"><ele>283.95</ele><time>2026-04-11T02:47:23.000Z</time></trkpt>
        <trkpt lat="28.7520754" lon="104.6480872"><ele>284.32</ele><time>2026-04-11T02:47:33.000Z</time></trkpt>
        <trkpt lat="28.7521798" lon="104.6480446"><ele>284.67</ele><time>2026-04-11T02:47:45.000Z</time></trkpt>
        <trkpt lat="28.7522716" lon="104.6479983"><ele>284.74</ele><time>2026-04-11T02:47:57.000Z</time></trkpt>
        <trkpt lat="28.7523746" lon="104.6479389"><ele>285.09</ele><time>2026-04-11T02:48:11.000Z</time></trkpt>
        <trkpt lat="28.7524567" lon="104.6478693"><ele>284.37</ele><time>2026-04-11T02:48:23.000Z</time></trkpt>
        <trkpt lat="28.752549" lon="104.6478136"><ele>285.27</ele><time>2026-04-11T02:48:35.000Z</time></trkpt>
        <trkpt lat="28.7526334" lon="104.6477416"><ele>286.21</ele><time>2026-04-11T02:48:47.000Z</time></trkpt>
        <trkpt lat="28.7527177" lon="104.6476963"><ele>286.5</ele><time>2026-04-11T02:48:59.000Z</time></trkpt>
        <trkpt lat="28.7528025" lon="104.6476421"><ele>288.36</ele><time>2026-04-11T02:49:11.000Z</time></trkpt>
        <trkpt lat="28.7528402" lon="104.6475483"><ele>289.27</ele><time>2026-04-11T02:49:27.000Z</time></trkpt>
        <trkpt lat="28.7528052" lon="104.6474446"><ele>288.82</ele><time>2026-04-11T02:49:39.000Z</time></trkpt>
        <trkpt lat="28.7528221" lon="104.6473506"><ele>288.6</ele><time>2026-04-11T02:50:23.000Z</time></trkpt>
        <trkpt lat="28.7529044" lon="104.6473166"><ele>288.32</ele><time>2026-04-11T02:50:35.000Z</time></trkpt>
        <trkpt lat="28.7530026" lon="104.6473076"><ele>289.11</ele><time>2026-04-11T02:50:45.000Z</time></trkpt>
        <trkpt lat="28.7530982" lon="104.6472919"><ele>290.46</ele><time>2026-04-11T02:50:55.000Z</time></trkpt>
        <trkpt lat="28.7531374" lon="104.6472072"><ele>290.93</ele><time>2026-04-11T02:51:09.000Z</time></trkpt>
        <trkpt lat="28.7530665" lon="104.6471946"><ele>288.86</ele><time>2026-04-11T02:51:21.000Z</time></trkpt>
        <trkpt lat="28.7530123" lon="104.6471929"><ele>287.52</ele><time>2026-04-11T02:51:25.000Z</time></trkpt>
        <trkpt lat="28.7529266" lon="104.6471526"><ele>286.7</ele><time>2026-04-11T02:51:50.000Z</time></trkpt>
        <trkpt lat="28.7529266" lon="104.6471526"><ele>286.7</ele><time>2026-04-11T02:53:24.000Z</time></trkpt>
      </trkseg>
  </trk>
</gpx>